<?xml version='1.0' encoding='UTF-8'?><gpx version="1.1" creator="JPX - https://github.com/jenetics/jpx" xmlns="http://www.topografix.com/GPX/1/1"><trk><trkseg><trkpt lat="41.84318182852769" lon="13.825336608669716"><ele>1564.9999999999998</ele><time>2026-05-03T13:39:22.647Z</time></trkpt><trkpt lat="41.843106568053024" lon="13.825315662933201"><ele>1565.0</ele><time>2026-05-03T13:39:24.647Z</time></trkpt><trkpt lat="41.84314838443673" lon="13.82518213337855"><ele>1565.0</ele><time>2026-05-03T13:40:01Z</time></trkpt><trkpt lat="41.843215030048874" lon="13.82522170811482"><ele>1565.0</ele><time>2026-05-03T13:40:56.999Z</time></trkpt><trkpt lat="41.843277949492936" lon="13.82522869066507"><ele>1564.9999999999998</ele><time>2026-05-03T13:41:00.999Z</time></trkpt><trkpt lat="41.843300243621776" lon="13.825310538201707"><ele>1565.0</ele><time>2026-05-03T13:41:13.999Z</time></trkpt><trkpt lat="41.84335142106969" lon="13.825365403971704"><ele>1565.0000000000002</ele><time>2026-05-03T13:41:18.999Z</time></trkpt><trkpt lat="41.843409908707756" lon="13.825408914121736"><ele>1565.0</ele><time>2026-05-03T13:41:26.999Z</time></trkpt><trkpt lat="41.843406186566256" lon="13.825541086969954"><ele>1565.0</ele><time>2026-05-03T13:42:27.999Z</time></trkpt><trkpt lat="41.843484884580654" lon="13.825525757394518"><ele>1565.0</ele><time>2026-05-03T13:42:50.999Z</time></trkpt><trkpt lat="41.84355056469952" lon="13.82552118683876"><ele>1565.0</ele><time>2026-05-03T13:43:12.999Z</time></trkpt><trkpt lat="41.84361069329953" lon="13.825548693024135"><ele>1565.0000000000002</ele><time>2026-05-03T13:43:29.999Z</time></trkpt><trkpt lat="41.84367578013052" lon="13.825569465735283"><ele>1565.0</ele><time>2026-05-03T13:43:40Z</time></trkpt><trkpt lat="41.843741387979" lon="13.825571554593894"><ele>1567.2857142857144</ele><time>2026-05-03T13:43:50Z</time></trkpt><trkpt lat="41.843806311899634" lon="13.82559347558843"><ele>1569.5714285714287</ele><time>2026-05-03T13:44:02Z</time></trkpt><trkpt lat="41.84388093813695" lon="13.825603560051274"><ele>1571.857142857143</ele><time>2026-05-03T13:44:15Z</time></trkpt><trkpt lat="41.84395085574038" lon="13.825611519948254"><ele>1574.1428571428573</ele><time>2026-05-03T13:44:25.999Z</time></trkpt><trkpt lat="41.8440137673449" lon="13.825641180454959"><ele>1576.4285714285713</ele><time>2026-05-03T13:44:31.999Z</time></trkpt><trkpt lat="41.844086794000944" lon="13.825664741254911"><ele>1578.7142857142858</ele><time>2026-05-03T13:44:36.999Z</time></trkpt><trkpt lat="41.84415042507468" lon="13.825682623595396"><ele>1581.0</ele><time>2026-05-03T13:44:41.999Z</time></trkpt><trkpt lat="41.844225775114715" lon="13.825674128925192"><ele>1581.0</ele><time>2026-05-03T13:44:52.999Z</time></trkpt><trkpt lat="41.844294170965554" lon="13.825693458940552"><ele>1581.0</ele><time>2026-05-03T13:44:58.999Z</time></trkpt><trkpt lat="41.84435811936422" lon="13.825671462826639"><ele>1581.0</ele><time>2026-05-03T13:45:15.999Z</time></trkpt><trkpt lat="41.84441946790199" lon="13.825620711449494"><ele>1581.0</ele><time>2026-05-03T13:45:36.999Z</time></trkpt><trkpt lat="41.84451263815106" lon="13.825668926893197"><ele>1581.0</ele><time>2026-05-03T13:46:07Z</time></trkpt><trkpt lat="41.844582579959074" lon="13.825664342215589"><ele>1581.0</ele><time>2026-05-03T13:46:12Z</time></trkpt><trkpt lat="41.844640239094886" lon="13.825717608219936"><ele>1581.0</ele><time>2026-05-03T13:46:17Z</time></trkpt><trkpt lat="41.844710384391234" lon="13.825728152228516"><ele>1583.857142857143</ele><time>2026-05-03T13:46:21.999Z</time></trkpt><trkpt lat="41.84478258816129" lon="13.825738190349764"><ele>1586.7142857142858</ele><time>2026-05-03T13:46:25.999Z</time></trkpt><trkpt lat="41.84483870342807" lon="13.825801631563197"><ele>1589.5714285714284</ele><time>2026-05-03T13:46:30.999Z</time></trkpt><trkpt lat="41.84490423600124" lon="13.825823554747268"><ele>1592.4285714285716</ele><time>2026-05-03T13:46:35.999Z</time></trkpt><trkpt lat="41.844958402386105" lon="13.825875308045132"><ele>1595.2857142857144</ele><time>2026-05-03T13:46:41.999Z</time></trkpt><trkpt lat="41.84500982176014" lon="13.825924340939432"><ele>1598.142857142857</ele><time>2026-05-03T13:46:45.999Z</time></trkpt><trkpt lat="41.84507482057782" lon="13.825944312479285"><ele>1601.0</ele><time>2026-05-03T13:46:49.999Z</time></trkpt><trkpt lat="41.84516801902338" lon="13.825959321471057"><ele>1604.0</ele><time>2026-05-03T13:47:33.999Z</time></trkpt><trkpt lat="41.84523357267468" lon="13.82594291796125"><ele>1607.0</ele><time>2026-05-03T13:47:38.999Z</time></trkpt><trkpt lat="41.84530074028184" lon="13.825955935765974"><ele>1610.0</ele><time>2026-05-03T13:47:42.999Z</time></trkpt><trkpt lat="41.84537591765335" lon="13.825973100308758"><ele>1613.0</ele><time>2026-05-03T13:47:47Z</time></trkpt><trkpt lat="41.84544257717613" lon="13.825973850819102"><ele>1616.0</ele><time>2026-05-03T13:47:52Z</time></trkpt><trkpt lat="41.84550734803277" lon="13.825998629851897"><ele>1619.0</ele><time>2026-05-03T13:47:57Z</time></trkpt><trkpt lat="41.84557207888362" lon="13.826045649860445"><ele>1622.0</ele><time>2026-05-03T13:48:01Z</time></trkpt><trkpt lat="41.84563558768704" lon="13.826096913654396"><ele>1622.0</ele><time>2026-05-03T13:48:06Z</time></trkpt><trkpt lat="41.845701043521665" lon="13.826121046097539"><ele>1622.0</ele><time>2026-05-03T13:48:11Z</time></trkpt><trkpt lat="41.84576932472669" lon="13.826144133227091"><ele>1622.0</ele><time>2026-05-03T13:48:16Z</time></trkpt><trkpt lat="41.845835749383625" lon="13.826160808077978"><ele>1622.0</ele><time>2026-05-03T13:48:22Z</time></trkpt><trkpt lat="41.845903978551235" lon="13.826130937531929"><ele>1622.0</ele><time>2026-05-03T13:48:26.999Z</time></trkpt><trkpt lat="41.845977471556104" lon="13.826133776571039"><ele>1622.0</ele><time>2026-05-03T13:48:32.999Z</time></trkpt><trkpt lat="41.846044990599175" lon="13.826123755169869"><ele>1622.0</ele><time>2026-05-03T13:48:36.999Z</time></trkpt><trkpt lat="41.84611514151072" lon="13.826114034033854"><ele>1625.6666666666665</ele><time>2026-05-03T13:48:50.999Z</time></trkpt><trkpt lat="41.84622339193788" lon="13.826052922568264"><ele>1629.3333333333333</ele><time>2026-05-03T13:51:09.999Z</time></trkpt><trkpt lat="41.846277368597434" lon="13.826119064930861"><ele>1633.0</ele><time>2026-05-03T13:51:19.999Z</time></trkpt><trkpt lat="41.846345282768425" lon="13.82614809215504"><ele>1636.6666666666665</ele><time>2026-05-03T13:51:30.998Z</time></trkpt><trkpt lat="41.846416278126654" lon="13.826136662444256"><ele>1640.3333333333333</ele><time>2026-05-03T13:51:36.998Z</time></trkpt><trkpt lat="41.84648886285997" lon="13.826135366455334"><ele>1644.0</ele><time>2026-05-03T13:51:42.998Z</time></trkpt><trkpt lat="41.84656314768671" lon="13.82613324758439"><ele>1644.0</ele><time>2026-05-03T13:52:29Z</time></trkpt><trkpt lat="41.846637784034755" lon="13.826125565224228"><ele>1644.0</ele><time>2026-05-03T13:52:46.999Z</time></trkpt><trkpt lat="41.84670232110718" lon="13.82615502811703"><ele>1644.0</ele><time>2026-05-03T13:52:51.999Z</time></trkpt><trkpt lat="41.8467664113072" lon="13.826169881869673"><ele>1644.0</ele><time>2026-05-03T13:52:55.999Z</time></trkpt><trkpt lat="41.84683235743979" lon="13.826173341244095"><ele>1644.0</ele><time>2026-05-03T13:52:59.999Z</time></trkpt><trkpt lat="41.84689970272081" lon="13.8261616080351"><ele>1644.0</ele><time>2026-05-03T13:53:03.999Z</time></trkpt><trkpt lat="41.84696698397154" lon="13.826158106691059"><ele>1644.0</ele><time>2026-05-03T13:53:07.999Z</time></trkpt><trkpt lat="41.84704136731195" lon="13.826151014521589"><ele>1648.5</ele><time>2026-05-03T13:53:12.999Z</time></trkpt><trkpt lat="41.84712463449747" lon="13.826135009916895"><ele>1653.0</ele><time>2026-05-03T13:53:25.999Z</time></trkpt><trkpt lat="41.84710054108061" lon="13.826055147406823"><ele>1657.5</ele><time>2026-05-03T13:53:29.999Z</time></trkpt><trkpt lat="41.84716916143158" lon="13.826079017242835"><ele>1662.0</ele><time>2026-05-03T13:53:48.999Z</time></trkpt><trkpt lat="41.84725498631056" lon="13.826046230753802"><ele>1666.5</ele><time>2026-05-03T13:53:53.999Z</time></trkpt><trkpt lat="41.847323998144304" lon="13.826045757693104"><ele>1671.0</ele><time>2026-05-03T13:53:57.999Z</time></trkpt><trkpt lat="41.84739872933424" lon="13.82603898842204"><ele>1671.0</ele><time>2026-05-03T13:54:03.999Z</time></trkpt><trkpt lat="41.84747924198357" lon="13.826022700802563"><ele>1671.0</ele><time>2026-05-03T13:54:09Z</time></trkpt><trkpt lat="41.847540768873465" lon="13.826002144777679"><ele>1671.0</ele><time>2026-05-03T13:54:13Z</time></trkpt><trkpt lat="41.84760767320534" lon="13.826006153485746"><ele>1671.0</ele><time>2026-05-03T13:54:17Z</time></trkpt><trkpt lat="41.84767380137468" lon="13.825988370207192"><ele>1671.0</ele><time>2026-05-03T13:54:20Z</time></trkpt><trkpt lat="41.847753299017356" lon="13.825966230756093"><ele>1671.0</ele><time>2026-05-03T13:54:25Z</time></trkpt><trkpt lat="41.84782059341451" lon="13.825933937848774"><ele>1671.0</ele><time>2026-05-03T13:54:31Z</time></trkpt><trkpt lat="41.84788317965069" lon="13.825875227265767"><ele>1672.3333333333333</ele><time>2026-05-03T13:54:35Z</time></trkpt><trkpt lat="41.84794984524376" lon="13.825841497272682"><ele>1673.6666666666665</ele><time>2026-05-03T13:54:39Z</time></trkpt><trkpt lat="41.84801690921789" lon="13.825824987720798"><ele>1675.0</ele><time>2026-05-03T13:54:43Z</time></trkpt><trkpt lat="41.848092587269896" lon="13.825800987102474"><ele>1676.3333333333333</ele><time>2026-05-03T13:54:46.999Z</time></trkpt><trkpt lat="41.84817704560046" lon="13.82577694504333"><ele>1677.6666666666665</ele><time>2026-05-03T13:54:53.999Z</time></trkpt><trkpt lat="41.848254999857" lon="13.82577435000065"><ele>1679.0</ele><time>2026-05-03T13:54:58.999Z</time></trkpt><trkpt lat="41.84833288767491" lon="13.825800483117403"><ele>1679.0</ele><time>2026-05-03T13:55:02.999Z</time></trkpt><trkpt lat="41.848393180027514" lon="13.825830308282015"><ele>1679.0</ele><time>2026-05-03T13:55:05.999Z</time></trkpt><trkpt lat="41.848464219954515" lon="13.825846615552301"><ele>1679.0</ele><time>2026-05-03T13:55:10.999Z</time></trkpt><trkpt lat="41.848547825789545" lon="13.825866516907487"><ele>1679.0</ele><time>2026-05-03T13:55:14.999Z</time></trkpt><trkpt lat="41.84861726809969" lon="13.825892475703748"><ele>1679.0</ele><time>2026-05-03T13:55:18.999Z</time></trkpt><trkpt lat="41.8486796304504" lon="13.82590942419828"><ele>1679.0</ele><time>2026-05-03T13:55:22.999Z</time></trkpt><trkpt lat="41.84874959072435" lon="13.825932344633406"><ele>1679.0</ele><time>2026-05-03T13:55:27.999Z</time></trkpt><trkpt lat="41.84883000781599" lon="13.82591771120063"><ele>1681.0</ele><time>2026-05-03T13:55:32.999Z</time></trkpt><trkpt lat="41.84889762987329" lon="13.825907248090166"><ele>1683.0</ele><time>2026-05-03T13:55:36.999Z</time></trkpt><trkpt lat="41.84897321922409" lon="13.825923084677761"><ele>1685.0</ele><time>2026-05-03T13:55:40.999Z</time></trkpt><trkpt lat="41.849035727645905" lon="13.825898711173053"><ele>1687.0</ele><time>2026-05-03T13:55:44.999Z</time></trkpt><trkpt lat="41.84911615169046" lon="13.825879150674563"><ele>1689.0</ele><time>2026-05-03T13:55:48.999Z</time></trkpt><trkpt lat="41.84917471742579" lon="13.825824172991931"><ele>1691.0</ele><time>2026-05-03T13:55:52.999Z</time></trkpt><trkpt lat="41.84922874755399" lon="13.825757787868572"><ele>1693.0</ele><time>2026-05-03T13:55:58.999Z</time></trkpt><trkpt lat="41.84930582635105" lon="13.825749076651883"><ele>1695.7142857142858</ele><time>2026-05-03T13:56:04.999Z</time></trkpt><trkpt lat="41.84936256158786" lon="13.82567279042007"><ele>1698.4285714285713</ele><time>2026-05-03T13:56:11Z</time></trkpt><trkpt lat="41.84942259948488" lon="13.825635819020402"><ele>1701.1428571428573</ele><time>2026-05-03T13:56:16Z</time></trkpt><trkpt lat="41.84948721260628" lon="13.825633583812975"><ele>1703.857142857143</ele><time>2026-05-03T13:56:23Z</time></trkpt><trkpt lat="41.849540488080166" lon="13.825583000727434"><ele>1706.5714285714287</ele><time>2026-05-03T13:56:28Z</time></trkpt><trkpt lat="41.84959108569521" lon="13.825502945132236"><ele>1709.2857142857144</ele><time>2026-05-03T13:56:55.999Z</time></trkpt><trkpt lat="41.84961731196603" lon="13.825417861716346"><ele>1712.0</ele><time>2026-05-03T13:57:16.999Z</time></trkpt><trkpt lat="41.84965150175873" lon="13.82534140930322"><ele>1712.0000000000002</ele><time>2026-05-03T13:57:21.999Z</time></trkpt><trkpt lat="41.84970738890213" lon="13.825286946854542"><ele>1712.0</ele><time>2026-05-03T13:57:29.999Z</time></trkpt><trkpt lat="41.8497906376392" lon="13.82529666239009"><ele>1712.0</ele><time>2026-05-03T13:58:53.999Z</time></trkpt><trkpt lat="41.84984603951297" lon="13.825241234590573"><ele>1712.0</ele><time>2026-05-03T13:59:02.999Z</time></trkpt><trkpt lat="41.84990035231767" lon="13.825192196212091"><ele>1712.0</ele><time>2026-05-03T13:59:08.999Z</time></trkpt><trkpt lat="41.84996467521216" lon="13.825212144856227"><ele>1712.0000000000002</ele><time>2026-05-03T13:59:13.999Z</time></trkpt><trkpt lat="41.8500194543725" lon="13.82525916311606"><ele>1712.0</ele><time>2026-05-03T13:59:17.999Z</time></trkpt><trkpt lat="41.85008121628562" lon="13.825290287582986"><ele>1716.5714285714287</ele><time>2026-05-03T13:59:21.999Z</time></trkpt><trkpt lat="41.85014911634164" lon="13.825299170736658"><ele>1721.142857142857</ele><time>2026-05-03T13:59:26.999Z</time></trkpt><trkpt lat="41.850212581428586" lon="13.825286530730343"><ele>1725.7142857142858</ele><time>2026-05-03T13:59:31.999Z</time></trkpt><trkpt lat="41.850298275760885" lon="13.82526807500151"><ele>1730.2857142857142</ele><time>2026-05-03T13:59:36.999Z</time></trkpt><trkpt lat="41.850362344386426" lon="13.82520977450016"><ele>1734.857142857143</ele><time>2026-05-03T13:59:47.999Z</time></trkpt><trkpt lat="41.85042583463263" lon="13.825225258074079"><ele>1739.4285714285716</ele><time>2026-05-03T14:00:03.999Z</time></trkpt><trkpt lat="41.850463767780866" lon="13.825298620103068"><ele>1744.0</ele><time>2026-05-03T14:00:21.999Z</time></trkpt><trkpt lat="41.85051310994605" lon="13.825366680359322"><ele>1744.0</ele><time>2026-05-03T14:00:44Z</time></trkpt><trkpt lat="41.8505652502436" lon="13.825440302767376"><ele>1744.0</ele><time>2026-05-03T14:00:52Z</time></trkpt><trkpt lat="41.85061878206407" lon="13.8254879308601"><ele>1744.0</ele><time>2026-05-03T14:00:57Z</time></trkpt><trkpt lat="41.850681418542194" lon="13.825509040252669"><ele>1744.0</ele><time>2026-05-03T14:01:01.999Z</time></trkpt><trkpt lat="41.85074449765587" lon="13.825499445507383"><ele>1744.0</ele><time>2026-05-03T14:01:08.999Z</time></trkpt><trkpt lat="41.85077354824492" lon="13.825413298856313"><ele>1744.0</ele><time>2026-05-03T14:01:25.999Z</time></trkpt><trkpt lat="41.85081857989152" lon="13.82533555671387"><ele>1744.0</ele><time>2026-05-03T14:01:50.999Z</time></trkpt><trkpt lat="41.850824586528866" lon="13.825244081750268"><ele>1744.0</ele><time>2026-05-03T14:01:54.999Z</time></trkpt><trkpt lat="41.850884536178434" lon="13.825195785799663"><ele>1744.0</ele><time>2026-05-03T14:02:10.999Z</time></trkpt><trkpt lat="41.850932634492644" lon="13.82525867903353"><ele>1744.0</ele><time>2026-05-03T14:02:30Z</time></trkpt><trkpt lat="41.850975651654146" lon="13.825337019967279"><ele>1744.0</ele><time>2026-05-03T14:02:44Z</time></trkpt><trkpt lat="41.85096231224145" lon="13.825438515437641"><ele>1744.0</ele><time>2026-05-03T14:02:57Z</time></trkpt><trkpt lat="41.85097400680567" lon="13.825534509627557"><ele>1744.0</ele><time>2026-05-03T14:03:03.999Z</time></trkpt><trkpt lat="41.8509895461754" lon="13.82562438436405"><ele>1744.0</ele><time>2026-05-03T14:03:07.999Z</time></trkpt><trkpt lat="41.8510372284622" lon="13.825699851460293"><ele>1748.4285714285716</ele><time>2026-05-03T14:03:23.999Z</time></trkpt><trkpt lat="41.851108255591626" lon="13.825717755779284"><ele>1752.857142857143</ele><time>2026-05-03T14:03:28.999Z</time></trkpt><trkpt lat="41.85117698847833" lon="13.82574865568769"><ele>1757.2857142857142</ele><time>2026-05-03T14:03:32.999Z</time></trkpt><trkpt lat="41.851239433083514" lon="13.825783026125382"><ele>1761.7142857142858</ele><time>2026-05-03T14:03:38.999Z</time></trkpt><trkpt lat="41.85129922084989" lon="13.825818567917585"><ele>1766.142857142857</ele><time>2026-05-03T14:03:42.999Z</time></trkpt><trkpt lat="41.85137026854249" lon="13.825854334264523"><ele>1770.5714285714287</ele><time>2026-05-03T14:03:47.999Z</time></trkpt><trkpt lat="41.85141800685983" lon="13.825922971553643"><ele>1775.0</ele><time>2026-05-03T14:04:14.999Z</time></trkpt><trkpt lat="41.85147520725331" lon="13.82596846844323"><ele>1775.5714285714287</ele><time>2026-05-03T14:04:41Z</time></trkpt><trkpt lat="41.85152753744799" lon="13.826037731207565"><ele>1776.142857142857</ele><time>2026-05-03T14:04:44Z</time></trkpt><trkpt lat="41.851585408716176" lon="13.826088204286416"><ele>1776.7142857142858</ele><time>2026-05-03T14:04:47Z</time></trkpt><trkpt lat="41.851645305669784" lon="13.826120539250697"><ele>1777.2857142857142</ele><time>2026-05-03T14:04:51Z</time></trkpt><trkpt lat="41.85171898814282" lon="13.826151902797651"><ele>1777.857142857143</ele><time>2026-05-03T14:04:56Z</time></trkpt><trkpt lat="41.85178708031305" lon="13.826188075933581"><ele>1778.4285714285716</ele><time>2026-05-03T14:05:02Z</time></trkpt><trkpt lat="41.85184557637653" lon="13.826244971607466"><ele>1779.0</ele><time>2026-05-03T14:05:06Z</time></trkpt><trkpt lat="41.851913175153015" lon="13.826281962080804"><ele>1780.8333333333333</ele><time>2026-05-03T14:05:10.999Z</time></trkpt><trkpt lat="41.85196990071665" lon="13.826332107798347"><ele>1782.6666666666665</ele><time>2026-05-03T14:05:19.999Z</time></trkpt><trkpt lat="41.85203337680311" lon="13.826394232564976"><ele>1784.5</ele><time>2026-05-03T14:05:24.999Z</time></trkpt><trkpt lat="41.85209123647867" lon="13.826448263892537"><ele>1786.3333333333333</ele><time>2026-05-03T14:05:29.999Z</time></trkpt><trkpt lat="41.85219232154709" lon="13.826470333051368"><ele>1788.1666666666665</ele><time>2026-05-03T14:05:46.999Z</time></trkpt><trkpt lat="41.85227321721579" lon="13.826484608387874"><ele>1790.0</ele><time>2026-05-03T14:06:15.999Z</time></trkpt><trkpt lat="41.852346948005604" lon="13.826470185162297"><ele>1790.0</ele><time>2026-05-03T14:06:20.999Z</time></trkpt><trkpt lat="41.8524077541676" lon="13.826511172407638"><ele>1790.0</ele><time>2026-05-03T14:06:24.999Z</time></trkpt><trkpt lat="41.85247607846879" lon="13.826495363314633"><ele>1790.0</ele><time>2026-05-03T14:06:28.999Z</time></trkpt><trkpt lat="41.852536360274144" lon="13.826447943900673"><ele>1790.0</ele><time>2026-05-03T14:06:33.999Z</time></trkpt><trkpt lat="41.852586180031395" lon="13.82639553681691"><ele>1790.0</ele><time>2026-05-03T14:06:38.999Z</time></trkpt><trkpt lat="41.8526547961999" lon="13.826359940162973"><ele>1790.0</ele><time>2026-05-03T14:06:43Z</time></trkpt><trkpt lat="41.85264260013811" lon="13.826276672902008"><ele>1790.0</ele><time>2026-05-03T14:06:51Z</time></trkpt><trkpt lat="41.85257292728096" lon="13.82622510366271"><ele>1790.0</ele><time>2026-05-03T14:06:56Z</time></trkpt><trkpt lat="41.852513872582655" lon="13.826182794630775"><ele>1790.0</ele><time>2026-05-03T14:08:27.999Z</time></trkpt><trkpt lat="41.852558020609074" lon="13.82625666380413"><ele>1790.0</ele><time>2026-05-03T14:09:50.999Z</time></trkpt><trkpt lat="41.85262755757682" lon="13.826290340977371"><ele>1790.0</ele><time>2026-05-03T14:09:52.999Z</time></trkpt><trkpt lat="41.85271027918784" lon="13.82632249700666"><ele>1790.0</ele><time>2026-05-03T14:09:54.999Z</time></trkpt><trkpt lat="41.852775098923026" lon="13.826322971694504"><ele>1790.0</ele><time>2026-05-03T14:09:58.999Z</time></trkpt><trkpt lat="41.85284754814261" lon="13.826281112549632"><ele>1790.0</ele><time>2026-05-03T14:10:02.999Z</time></trkpt><trkpt lat="41.85289774417584" lon="13.826207092993993"><ele>1791.4285714285713</ele><time>2026-05-03T14:10:07.999Z</time></trkpt><trkpt lat="41.85293946940446" lon="13.826124507133388"><ele>1792.8571428571431</ele><time>2026-05-03T14:10:12.999Z</time></trkpt><trkpt lat="41.85299824440615" lon="13.826087427001573"><ele>1794.2857142857144</ele><time>2026-05-03T14:10:16.999Z</time></trkpt><trkpt lat="41.853039783766064" lon="13.82601105223528"><ele>1795.7142857142858</ele><time>2026-05-03T14:10:22.999Z</time></trkpt><trkpt lat="41.853095829810876" lon="13.825964128802097"><ele>1797.1428571428573</ele><time>2026-05-03T14:10:27.999Z</time></trkpt><trkpt lat="41.853132310902275" lon="13.825885082215612"><ele>1798.571428571429</ele><time>2026-05-03T14:10:32.999Z</time></trkpt><trkpt lat="41.853138650282" lon="13.82579745810413"><ele>1800.0000000000002</ele><time>2026-05-03T14:10:37.999Z</time></trkpt><trkpt lat="41.853143636471195" lon="13.825706995620283"><ele>1800.571428571429</ele><time>2026-05-03T14:10:42.999Z</time></trkpt><trkpt lat="41.853185111815236" lon="13.825640304794716"><ele>1801.1428571428573</ele><time>2026-05-03T14:10:47.999Z</time></trkpt><trkpt lat="41.853241703706075" lon="13.825598090540831"><ele>1801.7142857142858</ele><time>2026-05-03T14:10:54Z</time></trkpt><trkpt lat="41.85330396184892" lon="13.825555740814325"><ele>1802.2857142857144</ele><time>2026-05-03T14:11:59.999Z</time></trkpt><trkpt lat="41.85333165410615" lon="13.825468017287681"><ele>1802.8571428571431</ele><time>2026-05-03T14:12:05.999Z</time></trkpt><trkpt lat="41.853376872723594" lon="13.825400681602215"><ele>1803.4285714285713</ele><time>2026-05-03T14:12:10.999Z</time></trkpt><trkpt lat="41.853355608958694" lon="13.825306345334427"><ele>1804.0</ele><time>2026-05-03T14:12:15.999Z</time></trkpt><trkpt lat="41.853318164488556" lon="13.825237663193446"><ele>1804.0</ele><time>2026-05-03T14:12:19.999Z</time></trkpt><trkpt lat="41.85325637675442" lon="13.825182629143569"><ele>1804.0</ele><time>2026-05-03T14:12:24.999Z</time></trkpt><trkpt lat="41.85320364502175" lon="13.82512327153002"><ele>1804.0</ele><time>2026-05-03T14:12:28.999Z</time></trkpt><trkpt lat="41.853145847111556" lon="13.82506805506365"><ele>1804.0</ele><time>2026-05-03T14:12:33.999Z</time></trkpt><trkpt lat="41.85309304171585" lon="13.824997657797235"><ele>1804.0</ele><time>2026-05-03T14:12:38.999Z</time></trkpt><trkpt lat="41.8530416083463" lon="13.82494148405492"><ele>1804.0</ele><time>2026-05-03T14:12:43.999Z</time></trkpt><trkpt lat="41.853002770436966" lon="13.824874683804405"><ele>1804.0</ele><time>2026-05-03T14:13:37.999Z</time></trkpt><trkpt lat="41.852967502096" lon="13.824793977368643"><ele>1805.5714285714284</ele><time>2026-05-03T14:14:12.999Z</time></trkpt><trkpt lat="41.852957808521154" lon="13.824707893574006"><ele>1807.1428571428573</ele><time>2026-05-03T14:14:25.999Z</time></trkpt><trkpt lat="41.85294316017164" lon="13.824612334748595"><ele>1808.7142857142858</ele><time>2026-05-03T14:14:46.999Z</time></trkpt><trkpt lat="41.8529960735694" lon="13.82454261905133"><ele>1810.2857142857142</ele><time>2026-05-03T14:16:29.999Z</time></trkpt><trkpt lat="41.85304988356469" lon="13.824496852450462"><ele>1811.8571428571427</ele><time>2026-05-03T14:16:37.999Z</time></trkpt><trkpt lat="41.85309402571699" lon="13.824379415767556"><ele>1813.4285714285716</ele><time>2026-05-03T14:16:53.999Z</time></trkpt><trkpt lat="41.85314231172051" lon="13.824305820163483"><ele>1815.0</ele><time>2026-05-03T14:17:30Z</time></trkpt><trkpt lat="41.853203788078325" lon="13.824256121594084"><ele>1817.8333333333333</ele><time>2026-05-03T14:18:13.999Z</time></trkpt><trkpt lat="41.853310864448076" lon="13.824254384312988"><ele>1820.6666666666665</ele><time>2026-05-03T14:18:31.999Z</time></trkpt><trkpt lat="41.853369279460146" lon="13.824171638481479"><ele>1823.5</ele><time>2026-05-03T14:19:05.999Z</time></trkpt><trkpt lat="41.85342357128586" lon="13.824125819365412"><ele>1826.3333333333333</ele><time>2026-05-03T14:19:17Z</time></trkpt><trkpt lat="41.853478633512005" lon="13.824070764281542"><ele>1829.1666666666665</ele><time>2026-05-03T14:19:40Z</time></trkpt><trkpt lat="41.85350334437935" lon="13.823989673088903"><ele>1832.0</ele><time>2026-05-03T14:19:49.999Z</time></trkpt><trkpt lat="41.85351309750737" lon="13.823905409093552"><ele>1832.0</ele><time>2026-05-03T14:19:59.999Z</time></trkpt><trkpt lat="41.853532311525996" lon="13.823824922587505"><ele>1832.0</ele><time>2026-05-03T14:20:09.999Z</time></trkpt><trkpt lat="41.85350694897303" lon="13.82373819130598"><ele>1832.0</ele><time>2026-05-03T14:20:20.999Z</time></trkpt><trkpt lat="41.85345605059348" lon="13.823677123607144"><ele>1832.0</ele><time>2026-05-03T14:20:44.999Z</time></trkpt><trkpt lat="41.85343429128568" lon="13.823586236580075"><ele>1832.0</ele><time>2026-05-03T14:21:04.999Z</time></trkpt><trkpt lat="41.85337928644827" lon="13.823531496405284"><ele>1832.0</ele><time>2026-05-03T14:21:27Z</time></trkpt><trkpt lat="41.85332329197064" lon="13.823484672964387"><ele>1832.0</ele><time>2026-05-03T14:21:35Z</time></trkpt><trkpt lat="41.853283991786434" lon="13.82340340543598"><ele>1833.8571428571427</ele><time>2026-05-03T14:21:41Z</time></trkpt><trkpt lat="41.85324430069794" lon="13.823327004807956"><ele>1835.7142857142858</ele><time>2026-05-03T14:21:48Z</time></trkpt><trkpt lat="41.85321361384546" lon="13.823252957139163"><ele>1837.5714285714284</ele><time>2026-05-03T14:21:53.999Z</time></trkpt><trkpt lat="41.853162097571335" lon="13.823195271277601"><ele>1839.4285714285713</ele><time>2026-05-03T14:22:20.999Z</time></trkpt><trkpt lat="41.853123206229085" lon="13.823125301296201"><ele>1841.2857142857142</ele><time>2026-05-03T14:22:26.999Z</time></trkpt><trkpt lat="41.85306400226592" lon="13.82305681137977"><ele>1843.142857142857</ele><time>2026-05-03T14:22:31.999Z</time></trkpt><trkpt lat="41.852998477652605" lon="13.8230137301777"><ele>1845.0</ele><time>2026-05-03T14:22:37.999Z</time></trkpt><trkpt lat="41.852942906874375" lon="13.822964917296636"><ele>1845.0</ele><time>2026-05-03T14:22:42.999Z</time></trkpt><trkpt lat="41.85288449218747" lon="13.822920339532697"><ele>1844.9999999999998</ele><time>2026-05-03T14:22:49.999Z</time></trkpt><trkpt lat="41.852834600808634" lon="13.822868298306522"><ele>1845.0</ele><time>2026-05-03T14:22:55.999Z</time></trkpt><trkpt lat="41.85279547612735" lon="13.82279140767924"><ele>1845.0</ele><time>2026-05-03T14:23:09.999Z</time></trkpt><trkpt lat="41.852734103947014" lon="13.822730268655896"><ele>1844.9999999999998</ele><time>2026-05-03T14:23:24.999Z</time></trkpt><trkpt lat="41.85270600977012" lon="13.822647360809668"><ele>1845.0</ele><time>2026-05-03T14:23:59.999Z</time></trkpt><trkpt lat="41.85269950406115" lon="13.822558818974944"><ele>1845.0</ele><time>2026-05-03T14:24:15.999Z</time></trkpt><trkpt lat="41.85266325154239" lon="13.82248444505209"><ele>1845.2857142857142</ele><time>2026-05-03T14:24:27.999Z</time></trkpt><trkpt lat="41.85263568344884" lon="13.822408077478105"><ele>1845.5714285714284</ele><time>2026-05-03T14:24:41.999Z</time></trkpt><trkpt lat="41.85259492618057" lon="13.822331253408437"><ele>1845.8571428571427</ele><time>2026-05-03T14:25:01.999Z</time></trkpt><trkpt lat="41.85254239772825" lon="13.822252304082737"><ele>1846.1428571428569</ele><time>2026-05-03T14:25:16.999Z</time></trkpt><trkpt lat="41.85257468856287" lon="13.822147559075848"><ele>1846.4285714285713</ele><time>2026-05-03T14:26:01Z</time></trkpt><trkpt lat="41.85257427515046" lon="13.822058010293356"><ele>1846.7142857142853</ele><time>2026-05-03T14:26:15.999Z</time></trkpt><trkpt lat="41.85255090645835" lon="13.821972217137981"><ele>1846.9999999999998</ele><time>2026-05-03T14:26:27.999Z</time></trkpt><trkpt lat="41.85255888988433" lon="13.821884684336188"><ele>1849.8571428571427</ele><time>2026-05-03T14:26:55.999Z</time></trkpt><trkpt lat="41.85251214059982" lon="13.821805343332413"><ele>1852.7142857142858</ele><time>2026-05-03T14:27:04.999Z</time></trkpt><trkpt lat="41.85250165539905" lon="13.82171812024386"><ele>1855.5714285714284</ele><time>2026-05-03T14:27:09.999Z</time></trkpt><trkpt lat="41.85245932280457" lon="13.821652014597081"><ele>1858.4285714285713</ele><time>2026-05-03T14:27:14.999Z</time></trkpt><trkpt lat="41.85241373276381" lon="13.821566865691116"><ele>1861.2857142857142</ele><time>2026-05-03T14:27:19.999Z</time></trkpt><trkpt lat="41.85237290242672" lon="13.821502034114568"><ele>1864.142857142857</ele><time>2026-05-03T14:27:23.999Z</time></trkpt><trkpt lat="41.8523316601742" lon="13.821434719747952"><ele>1867.0</ele><time>2026-05-03T14:27:28.999Z</time></trkpt><trkpt lat="41.8522906003964" lon="13.82135566700603"><ele>1867.0</ele><time>2026-05-03T14:27:33.999Z</time></trkpt><trkpt lat="41.852247251743684" lon="13.82128516345944"><ele>1867.0</ele><time>2026-05-03T14:27:39Z</time></trkpt><trkpt lat="41.85223148955319" lon="13.821200773315557"><ele>1867.0</ele><time>2026-05-03T14:27:44Z</time></trkpt><trkpt lat="41.85219345190009" lon="13.821092651308032"><ele>1867.0</ele><time>2026-05-03T14:28:26.999Z</time></trkpt><trkpt lat="41.85219707765817" lon="13.82098878383579"><ele>1867.0</ele><time>2026-05-03T14:28:31.999Z</time></trkpt><trkpt lat="41.85219553633823" lon="13.820882500739618"><ele>1867.0</ele><time>2026-05-03T14:28:36.999Z</time></trkpt><trkpt lat="41.852187407474055" lon="13.820795291780565"><ele>1867.0</ele><time>2026-05-03T14:28:41.999Z</time></trkpt><trkpt lat="41.852154173143965" lon="13.82070054622024"><ele>1868.4285714285713</ele><time>2026-05-03T14:28:46.999Z</time></trkpt><trkpt lat="41.85210526125743" lon="13.820638482147288"><ele>1869.8571428571431</ele><time>2026-05-03T14:28:50.999Z</time></trkpt><trkpt lat="41.85204369270704" lon="13.820589634145767"><ele>1871.2857142857144</ele><time>2026-05-03T14:29:00.999Z</time></trkpt><trkpt lat="41.851984914189565" lon="13.820504768679212"><ele>1872.7142857142858</ele><time>2026-05-03T14:29:05.999Z</time></trkpt><trkpt lat="41.851949575860985" lon="13.820421230243134"><ele>1874.1428571428573</ele><time>2026-05-03T14:29:10.999Z</time></trkpt><trkpt lat="41.851912756676924" lon="13.820344127099116"><ele>1875.571428571429</ele><time>2026-05-03T14:29:15.999Z</time></trkpt><trkpt lat="41.85190174663739" lon="13.82026001158719"><ele>1877.0000000000002</ele><time>2026-05-03T14:29:20.999Z</time></trkpt><trkpt lat="41.85188920061271" lon="13.82017046199908"><ele>1878.1428571428573</ele><time>2026-05-03T14:29:26.999Z</time></trkpt><trkpt lat="41.85183175717555" lon="13.820116588998118"><ele>1879.2857142857142</ele><time>2026-05-03T14:29:31.999Z</time></trkpt><trkpt lat="41.851836959769436" lon="13.820032285952706"><ele>1880.4285714285716</ele><time>2026-05-03T14:29:37.999Z</time></trkpt><trkpt lat="41.8517962320405" lon="13.819956235697916"><ele>1881.5714285714287</ele><time>2026-05-03T14:32:20.999Z</time></trkpt><trkpt lat="41.851719152383296" lon="13.819937084865872"><ele>1882.7142857142858</ele><time>2026-05-03T14:32:24.999Z</time></trkpt><trkpt lat="41.851649971862095" lon="13.819906427776656"><ele>1883.857142857143</ele><time>2026-05-03T14:32:27.999Z</time></trkpt><trkpt lat="41.85156639791289" lon="13.819861855134699"><ele>1885.0</ele><time>2026-05-03T14:32:30.999Z</time></trkpt><trkpt lat="41.85150152239972" lon="13.819798121919044"><ele>1888.0000000000002</ele><time>2026-05-03T14:32:33.999Z</time></trkpt><trkpt lat="41.8514363602643" lon="13.819774311180884"><ele>1891.0</ele><time>2026-05-03T14:32:35.999Z</time></trkpt><trkpt lat="41.85135693922461" lon="13.819790015114236"><ele>1894.0</ele><time>2026-05-03T14:32:38.999Z</time></trkpt><trkpt lat="41.85128904936306" lon="13.819773741676565"><ele>1897.0</ele><time>2026-05-03T14:32:40.999Z</time></trkpt><trkpt lat="41.851199566126155" lon="13.819723947867695"><ele>1900.0000000000002</ele><time>2026-05-03T14:32:43.999Z</time></trkpt><trkpt lat="41.85114231387821" lon="13.8196822358907"><ele>1903.0</ele><time>2026-05-03T14:32:45.999Z</time></trkpt><trkpt lat="41.85107642004726" lon="13.819646079865423"><ele>1903.0000000000002</ele><time>2026-05-03T14:32:47.999Z</time></trkpt><trkpt lat="41.85100789578881" lon="13.819614741527298"><ele>1903.0</ele><time>2026-05-03T14:32:49.999Z</time></trkpt><trkpt lat="41.85094280591639" lon="13.81960002142035"><ele>1903.0</ele><time>2026-05-03T14:32:51.999Z</time></trkpt><trkpt lat="41.8508712668941" lon="13.819589022434212"><ele>1903.0</ele><time>2026-05-03T14:32:53.999Z</time></trkpt><trkpt lat="41.85079529158102" lon="13.819562518705268"><ele>1903.0000000000002</ele><time>2026-05-03T14:32:56.999Z</time></trkpt><trkpt lat="41.850683953626415" lon="13.819517128663344"><ele>1903.0</ele><time>2026-05-03T14:32:58.999Z</time></trkpt><trkpt lat="41.85060127912745" lon="13.819487008350409"><ele>1903.1666666666667</ele><time>2026-05-03T14:33:00.999Z</time></trkpt><trkpt lat="41.85051901754605" lon="13.81945650772007"><ele>1903.3333333333335</ele><time>2026-05-03T14:33:02.999Z</time></trkpt><trkpt lat="41.850453800254655" lon="13.819434626904808"><ele>1903.5</ele><time>2026-05-03T14:33:04.999Z</time></trkpt><trkpt lat="41.85036630497452" lon="13.81938894622854"><ele>1903.6666666666665</ele><time>2026-05-03T14:33:07.999Z</time></trkpt><trkpt lat="41.85028396374347" lon="13.819345064338277"><ele>1903.8333333333333</ele><time>2026-05-03T14:33:10.999Z</time></trkpt><trkpt lat="41.85019667594452" lon="13.81931055695549"><ele>1904.0</ele><time>2026-05-03T14:33:13.999Z</time></trkpt><trkpt lat="41.85013225259777" lon="13.819319064674735"><ele>1905.142857142857</ele><time>2026-05-03T14:33:15.999Z</time></trkpt><trkpt lat="41.85006794795898" lon="13.819304792538158"><ele>1906.2857142857142</ele><time>2026-05-03T14:33:18.999Z</time></trkpt><trkpt lat="41.85001839431452" lon="13.819226311710167"><ele>1907.4285714285716</ele><time>2026-05-03T14:33:22.999Z</time></trkpt><trkpt lat="41.8499570841023" lon="13.819189876638914"><ele>1908.5714285714287</ele><time>2026-05-03T14:33:25.999Z</time></trkpt><trkpt lat="41.849891797383535" lon="13.819187318037288"><ele>1909.7142857142858</ele><time>2026-05-03T14:33:28.999Z</time></trkpt><trkpt lat="41.849828263914446" lon="13.8191671828425"><ele>1910.8571428571431</ele><time>2026-05-03T14:33:31.999Z</time></trkpt><trkpt lat="41.84975425484135" lon="13.819119810475305"><ele>1912.0000000000002</ele><time>2026-05-03T14:33:35.999Z</time></trkpt><trkpt lat="41.849730081345875" lon="13.819041749508509"><ele>1912.0000000000002</ele><time>2026-05-03T14:33:38.999Z</time></trkpt><trkpt lat="41.8497146441696" lon="13.818944443431395"><ele>1912.0</ele><time>2026-05-03T14:33:42.999Z</time></trkpt><trkpt lat="41.849657313528716" lon="13.818907066975218"><ele>1912.0000000000002</ele><time>2026-05-03T14:33:45.999Z</time></trkpt><trkpt lat="41.84960474096808" lon="13.818847777113712"><ele>1912.0000000000002</ele><time>2026-05-03T14:33:48.999Z</time></trkpt><trkpt lat="41.84954423960163" lon="13.818806416111805"><ele>1912.0</ele><time>2026-05-03T14:33:52.999Z</time></trkpt><trkpt lat="41.849470143690034" lon="13.818776822498569"><ele>1912.0000000000002</ele><time>2026-05-03T14:33:58Z</time></trkpt><trkpt lat="41.849397542489065" lon="13.818793232407726"><ele>1912.0000000000002</ele><time>2026-05-03T14:34:03Z</time></trkpt><trkpt lat="41.849341108825094" lon="13.818744331504773"><ele>1912.0000000000002</ele><time>2026-05-03T14:34:08Z</time></trkpt><trkpt lat="41.8493013319681" lon="13.81866175901546"><ele>1912.0</ele><time>2026-05-03T14:34:13Z</time></trkpt><trkpt lat="41.84926252464819" lon="13.818585927147348"><ele>1912.0000000000002</ele><time>2026-05-03T14:34:18Z</time></trkpt><trkpt lat="41.84921886181549" lon="13.818511919755988"><ele>1912.0000000000002</ele><time>2026-05-03T14:34:22.999Z</time></trkpt><trkpt lat="41.84915055257482" lon="13.818497567347064"><ele>1912.0</ele><time>2026-05-03T14:34:26.999Z</time></trkpt><trkpt lat="41.84907375705277" lon="13.818477755553157"><ele>1912.0000000000002</ele><time>2026-05-03T14:34:31.999Z</time></trkpt><trkpt lat="41.84903252874328" lon="13.818406517728345"><ele>1912.0000000000002</ele><time>2026-05-03T14:34:39.999Z</time></trkpt><trkpt lat="41.84898528095003" lon="13.818337640149581"><ele>1914.6666666666667</ele><time>2026-05-03T14:34:42.999Z</time></trkpt><trkpt lat="41.84892568273639" lon="13.818268385211809"><ele>1917.3333333333335</ele><time>2026-05-03T14:34:45.999Z</time></trkpt><trkpt lat="41.84886868478665" lon="13.818182708120684"><ele>1920.0</ele><time>2026-05-03T14:34:48.999Z</time></trkpt><trkpt lat="41.848806246106875" lon="13.818104738958473"><ele>1922.6666666666665</ele><time>2026-05-03T14:34:51.999Z</time></trkpt><trkpt lat="41.84873765233076" lon="13.818056092190261"><ele>1925.3333333333333</ele><time>2026-05-03T14:34:55.999Z</time></trkpt><trkpt lat="41.84867486049311" lon="13.818026991413664"><ele>1928.0</ele><time>2026-05-03T14:34:58.999Z</time></trkpt><trkpt lat="41.84861845709471" lon="13.817953839262513"><ele>1928.0</ele><time>2026-05-03T14:35:02.999Z</time></trkpt><trkpt lat="41.84856399007561" lon="13.817883042857536"><ele>1928.0000000000002</ele><time>2026-05-03T14:35:06.999Z</time></trkpt><trkpt lat="41.8485170798949" lon="13.817794654394866"><ele>1928.0</ele><time>2026-05-03T14:35:10.999Z</time></trkpt><trkpt lat="41.848466255805036" lon="13.817720997212804"><ele>1928.0</ele><time>2026-05-03T14:35:14.999Z</time></trkpt><trkpt lat="41.84840577355598" lon="13.817677897184634"><ele>1928.0000000000002</ele><time>2026-05-03T14:35:18.999Z</time></trkpt><trkpt lat="41.848383839597346" lon="13.817596950680873"><ele>1928.0</ele><time>2026-05-03T14:35:21.999Z</time></trkpt><trkpt lat="41.84831672329528" lon="13.817537008836668"><ele>1928.0</ele><time>2026-05-03T14:35:24.999Z</time></trkpt><trkpt lat="41.84826871247087" lon="13.817449532400378"><ele>1929.1666666666665</ele><time>2026-05-03T14:35:27.999Z</time></trkpt><trkpt lat="41.848224928043095" lon="13.817357338221534"><ele>1930.3333333333333</ele><time>2026-05-03T14:35:30.999Z</time></trkpt><trkpt lat="41.8481974473474" lon="13.817260730312155"><ele>1931.5</ele><time>2026-05-03T14:35:33.999Z</time></trkpt><trkpt lat="41.848143017036705" lon="13.817169230236205"><ele>1932.6666666666665</ele><time>2026-05-03T14:35:36.999Z</time></trkpt><trkpt lat="41.848092002991805" lon="13.81709025546239"><ele>1933.8333333333333</ele><time>2026-05-03T14:35:39.999Z</time></trkpt><trkpt lat="41.84804663685142" lon="13.817001620237003"><ele>1935.0</ele><time>2026-05-03T14:35:42.999Z</time></trkpt><trkpt lat="41.84797864467206" lon="13.816955796386347"><ele>1935.0</ele><time>2026-05-03T14:35:45.999Z</time></trkpt><trkpt lat="41.84792194038185" lon="13.8168893939504"><ele>1935.0000000000002</ele><time>2026-05-03T14:35:48.999Z</time></trkpt><trkpt lat="41.84788690500772" lon="13.816807511532943"><ele>1935.0</ele><time>2026-05-03T14:35:51.999Z</time></trkpt><trkpt lat="41.8478180093184" lon="13.816774441700025"><ele>1935.0</ele><time>2026-05-03T14:35:56.999Z</time></trkpt><trkpt lat="41.84777408366483" lon="13.816682901805834"><ele>1935.0000000000002</ele><time>2026-05-03T14:36:00.999Z</time></trkpt><trkpt lat="41.84771749024346" lon="13.81662837068425"><ele>1935.0</ele><time>2026-05-03T14:36:05Z</time></trkpt><trkpt lat="41.84765451428598" lon="13.816569798904178"><ele>1935.0</ele><time>2026-05-03T14:36:09Z</time></trkpt><trkpt lat="41.8475870688057" lon="13.816515708974315"><ele>1936.2857142857144</ele><time>2026-05-03T14:36:13Z</time></trkpt><trkpt lat="41.8475208039434" lon="13.816478892727146"><ele>1937.571428571429</ele><time>2026-05-03T14:36:17Z</time></trkpt><trkpt lat="41.84745779854057" lon="13.816474524455586"><ele>1938.857142857143</ele><time>2026-05-03T14:36:20Z</time></trkpt><trkpt lat="41.84738848111513" lon="13.816428087193788"><ele>1940.1428571428573</ele><time>2026-05-03T14:36:24Z</time></trkpt><trkpt lat="41.84732613476709" lon="13.816374427091462"><ele>1941.4285714285716</ele><time>2026-05-03T14:36:27.999Z</time></trkpt><trkpt lat="41.8472507203782" lon="13.816348641499534"><ele>1942.7142857142858</ele><time>2026-05-03T14:36:31.999Z</time></trkpt><trkpt lat="41.84717461723421" lon="13.81631981539932"><ele>1944.0</ele><time>2026-05-03T14:36:35.999Z</time></trkpt><trkpt lat="41.847111885344134" lon="13.816286295681971"><ele>1944.0</ele><time>2026-05-03T14:39:13.999Z</time></trkpt><trkpt lat="41.84704551073087" lon="13.816235728980072"><ele>1944.0</ele><time>2026-05-03T14:39:17.999Z</time></trkpt><trkpt lat="41.84697057177187" lon="13.816183329553374"><ele>1944.0</ele><time>2026-05-03T14:39:21.999Z</time></trkpt><trkpt lat="41.846914412288434" lon="13.816133996265673"><ele>1944.0</ele><time>2026-05-03T14:39:32.999Z</time></trkpt><trkpt lat="41.846870755523334" lon="13.816051382139745"><ele>1944.0</ele><time>2026-05-03T14:39:43.999Z</time></trkpt><trkpt lat="41.846794830369625" lon="13.815995445585292"><ele>1944.0</ele><time>2026-05-03T14:39:48.999Z</time></trkpt><trkpt lat="41.846740619882006" lon="13.815945751403795"><ele>1944.4285714285713</ele><time>2026-05-03T14:39:52.999Z</time></trkpt><trkpt lat="41.84670506104552" lon="13.81585425913721"><ele>1944.8571428571431</ele><time>2026-05-03T14:39:56.999Z</time></trkpt><trkpt lat="41.84667066822273" lon="13.815775205033038"><ele>1945.2857142857144</ele><time>2026-05-03T14:40:00.999Z</time></trkpt><trkpt lat="41.84659408960433" lon="13.815742757109406"><ele>1945.7142857142858</ele><time>2026-05-03T14:40:04.999Z</time></trkpt><trkpt lat="41.84654444757694" lon="13.815650006819075"><ele>1946.1428571428573</ele><time>2026-05-03T14:40:08.999Z</time></trkpt><trkpt lat="41.846490682646454" lon="13.815605591567905"><ele>1946.571428571429</ele><time>2026-05-03T14:40:12.999Z</time></trkpt><trkpt lat="41.846425034188" lon="13.81556301193559"><ele>1947.0000000000002</ele><time>2026-05-03T14:40:18Z</time></trkpt><trkpt lat="41.84637778385115" lon="13.815490287213475"><ele>1947.0</ele><time>2026-05-03T14:40:22Z</time></trkpt><trkpt lat="41.84632243603158" lon="13.815401004215902"><ele>1947.0</ele><time>2026-05-03T14:40:25Z</time></trkpt><trkpt lat="41.84626188978116" lon="13.815345537796805"><ele>1947.0</ele><time>2026-05-03T14:40:28Z</time></trkpt><trkpt lat="41.846201197353366" lon="13.815293282169325"><ele>1947.0</ele><time>2026-05-03T14:40:31Z</time></trkpt><trkpt lat="41.846138831921" lon="13.815242827557851"><ele>1947.0</ele><time>2026-05-03T14:40:35Z</time></trkpt><trkpt lat="41.84607283133376" lon="13.81518964623436"><ele>1947.0</ele><time>2026-05-03T14:40:39Z</time></trkpt><trkpt lat="41.84601367353169" lon="13.815136947398406"><ele>1947.1666666666667</ele><time>2026-05-03T14:40:41.999Z</time></trkpt><trkpt lat="41.845949632479766" lon="13.815068967706415"><ele>1947.3333333333335</ele><time>2026-05-03T14:40:45.999Z</time></trkpt><trkpt lat="41.84591225376494" lon="13.814992661753871"><ele>1947.5</ele><time>2026-05-03T14:40:48.999Z</time></trkpt><trkpt lat="41.845852446294565" lon="13.814918099745828"><ele>1947.6666666666667</ele><time>2026-05-03T14:40:52.999Z</time></trkpt><trkpt lat="41.845812453878274" lon="13.814845595940897"><ele>1947.8333333333335</ele><time>2026-05-03T14:40:55.999Z</time></trkpt><trkpt lat="41.84578032242753" lon="13.81474493611933"><ele>1948.0</ele><time>2026-05-03T14:40:59.999Z</time></trkpt><trkpt lat="41.84574033879826" lon="13.814654930725691"><ele>1948.0</ele><time>2026-05-03T14:41:03.999Z</time></trkpt><trkpt lat="41.845695133041936" lon="13.81458966749163"><ele>1948.0</ele><time>2026-05-03T14:41:06.999Z</time></trkpt><trkpt lat="41.84563482112829" lon="13.814507034498497"><ele>1948.0</ele><time>2026-05-03T14:41:10.999Z</time></trkpt><trkpt lat="41.84558548048955" lon="13.814432409759787"><ele>1948.0</ele><time>2026-05-03T14:41:14.999Z</time></trkpt><trkpt lat="41.84554415343948" lon="13.814344913307986"><ele>1948.0</ele><time>2026-05-03T14:41:18.999Z</time></trkpt><trkpt lat="41.84548024266584" lon="13.814311753853445"><ele>1948.0</ele><time>2026-05-03T14:41:22.999Z</time></trkpt><trkpt lat="41.845446075301574" lon="13.814239081600187"><ele>1948.0</ele><time>2026-05-03T14:41:26.999Z</time></trkpt><trkpt lat="41.84541346125184" lon="13.814164192683014"><ele>1947.7142857142858</ele><time>2026-05-03T14:41:30.999Z</time></trkpt><trkpt lat="41.845364838063816" lon="13.814091357884577"><ele>1947.4285714285713</ele><time>2026-05-03T14:41:34.999Z</time></trkpt><trkpt lat="41.84532430630875" lon="13.814015966994656"><ele>1947.142857142857</ele><time>2026-05-03T14:41:39.999Z</time></trkpt><trkpt lat="41.84527445467627" lon="13.813947809446283"><ele>1946.857142857143</ele><time>2026-05-03T14:41:44.999Z</time></trkpt><trkpt lat="41.84524168764303" lon="13.813858717537833"><ele>1946.5714285714284</ele><time>2026-05-03T14:41:48.999Z</time></trkpt><trkpt lat="41.84526112069961" lon="13.813753947578933"><ele>1946.2857142857142</ele><time>2026-05-03T14:41:54.999Z</time></trkpt><trkpt lat="41.84524876577091" lon="13.813661435476131"><ele>1946.0</ele><time>2026-05-03T14:41:59.999Z</time></trkpt><trkpt lat="41.84521113595087" lon="13.813564222178425"><ele>1945.2857142857142</ele><time>2026-05-03T14:42:04.999Z</time></trkpt><trkpt lat="41.8451825067181" lon="13.813484906803318"><ele>1944.5714285714284</ele><time>2026-05-03T14:42:08.999Z</time></trkpt><trkpt lat="41.84515996637358" lon="13.813389088319932"><ele>1943.857142857143</ele><time>2026-05-03T14:42:13.999Z</time></trkpt><trkpt lat="41.84515562061471" lon="13.81329931896081"><ele>1943.142857142857</ele><time>2026-05-03T14:42:18.999Z</time></trkpt><trkpt lat="41.84511254507295" lon="13.813210774269375"><ele>1942.4285714285713</ele><time>2026-05-03T14:42:25Z</time></trkpt><trkpt lat="41.84506218989157" lon="13.81315121707338"><ele>1941.7142857142858</ele><time>2026-05-03T14:42:30Z</time></trkpt><trkpt lat="41.845035029308825" lon="13.813072855328228"><ele>1941.0</ele><time>2026-05-03T14:42:35Z</time></trkpt><trkpt lat="41.84505814840606" lon="13.812985259052178"><ele>1944.4285714285716</ele><time>2026-05-03T14:42:40Z</time></trkpt><trkpt lat="41.845035853028314" lon="13.81290279174329"><ele>1947.8571428571427</ele><time>2026-05-03T14:42:45Z</time></trkpt><trkpt lat="41.844981707503905" lon="13.812840946294935"><ele>1951.2857142857142</ele><time>2026-05-03T14:42:49.999Z</time></trkpt><trkpt lat="41.84493727686763" lon="13.812772759370889"><ele>1954.7142857142858</ele><time>2026-05-03T14:42:54.999Z</time></trkpt><trkpt lat="41.84491086749244" lon="13.812685827640625"><ele>1958.1428571428573</ele><time>2026-05-03T14:42:59.999Z</time></trkpt><trkpt lat="41.84485472921257" lon="13.81262909912287"><ele>1961.5714285714284</ele><time>2026-05-03T14:43:04.999Z</time></trkpt><trkpt lat="41.84483513242594" lon="13.812539601792608"><ele>1965.0</ele><time>2026-05-03T14:43:10.999Z</time></trkpt><trkpt lat="41.84484930856368" lon="13.81244543849725"><ele>1966.2857142857142</ele><time>2026-05-03T14:43:15.999Z</time></trkpt><trkpt lat="41.84481501299989" lon="13.812356989913166"><ele>1967.5714285714287</ele><time>2026-05-03T14:43:20.999Z</time></trkpt><trkpt lat="41.84477647150417" lon="13.812268683223142"><ele>1968.857142857143</ele><time>2026-05-03T14:43:25.999Z</time></trkpt><trkpt lat="41.8447630166743" lon="13.81216847619037"><ele>1970.142857142857</ele><time>2026-05-03T14:43:30.999Z</time></trkpt><trkpt lat="41.84473536085536" lon="13.812091414463243"><ele>1971.4285714285716</ele><time>2026-05-03T14:43:34.999Z</time></trkpt><trkpt lat="41.844711071469696" lon="13.812010061694968"><ele>1972.7142857142858</ele><time>2026-05-03T14:43:39.999Z</time></trkpt><trkpt lat="41.844685087414504" lon="13.811914983073528"><ele>1974.0</ele><time>2026-05-03T14:43:46.999Z</time></trkpt><trkpt lat="41.84462032157493" lon="13.811877535999775"><ele>1975.142857142857</ele><time>2026-05-03T14:43:52.999Z</time></trkpt><trkpt lat="41.84459791992244" lon="13.811797365680093"><ele>1976.2857142857142</ele><time>2026-05-03T14:43:57.999Z</time></trkpt><trkpt lat="41.84454938255973" lon="13.811741692888713"><ele>1977.4285714285716</ele><time>2026-05-03T14:44:02.999Z</time></trkpt><trkpt lat="41.84449580883502" lon="13.81169404002416"><ele>1978.5714285714287</ele><time>2026-05-03T14:44:07.999Z</time></trkpt><trkpt lat="41.84442656620318" lon="13.81167583478581"><ele>1979.7142857142858</ele><time>2026-05-03T14:44:12.999Z</time></trkpt><trkpt lat="41.84436361555365" lon="13.811653257969512"><ele>1980.8571428571431</ele><time>2026-05-03T14:44:18.999Z</time></trkpt><trkpt lat="41.844312109221924" lon="13.811584159491508"><ele>1982.0000000000002</ele><time>2026-05-03T14:44:35Z</time></trkpt><trkpt lat="41.8443000144394" lon="13.81150103223378"><ele>1983.4285714285716</ele><time>2026-05-03T14:44:41Z</time></trkpt><trkpt lat="41.844272717574825" lon="13.811406822846031"><ele>1984.857142857143</ele><time>2026-05-03T14:44:48Z</time></trkpt><trkpt lat="41.844231813895554" lon="13.811332319841409"><ele>1986.2857142857142</ele><time>2026-05-03T14:44:53.999Z</time></trkpt><trkpt lat="41.84420296206706" lon="13.811241175047732"><ele>1987.7142857142858</ele><time>2026-05-03T14:44:59.999Z</time></trkpt><trkpt lat="41.84416585381053" lon="13.811170848000723"><ele>1989.1428571428569</ele><time>2026-05-03T14:45:04.999Z</time></trkpt><trkpt lat="41.84412226053186" lon="13.811092156874695"><ele>1990.5714285714284</ele><time>2026-05-03T14:45:10.999Z</time></trkpt><trkpt lat="41.844094673307104" lon="13.811000520477036"><ele>1992.0</ele><time>2026-05-03T14:45:17.999Z</time></trkpt><trkpt lat="41.844068516336264" lon="13.810922369247532"><ele>2004.0</ele><time>2026-05-03T14:45:22.999Z</time></trkpt><trkpt lat="41.84402719867663" lon="13.81085085585351"><ele>2004.0</ele><time>2026-05-03T14:45:27.999Z</time></trkpt><trkpt lat="41.84400882062204" lon="13.81076952884439"><ele>2004.0</ele><time>2026-05-03T14:45:32.999Z</time></trkpt><trkpt lat="41.84394271554695" lon="13.810758326057956"><ele>2004.0</ele><time>2026-05-03T14:46:00.999Z</time></trkpt></trkseg><trkseg><trkpt lat="41.84402187826161" lon="13.810773005382897"><ele>2004.0</ele><time>2026-05-03T15:21:01Z</time></trkpt><trkpt lat="41.84403325846874" lon="13.810891496022673"><ele>2004.0</ele><time>2026-05-03T15:21:04Z</time></trkpt><trkpt lat="41.844021861781286" lon="13.810997838014409"><ele>2004.0</ele><time>2026-05-03T15:21:06Z</time></trkpt><trkpt lat="41.84403609008045" lon="13.81108369202947"><ele>2004.0</ele><time>2026-05-03T15:21:08Z</time></trkpt><trkpt lat="41.84405734626185" lon="13.811168105818137"><ele>2004.0</ele><time>2026-05-03T15:21:12Z</time></trkpt><trkpt lat="41.84406933555201" lon="13.811281924818896"><ele>2004.0</ele><time>2026-05-03T15:21:15Z</time></trkpt><trkpt lat="41.84407936996789" lon="13.811378062215079"><ele>2002.0</ele><time>2026-05-03T15:21:18Z</time></trkpt><trkpt lat="41.8441178113844" lon="13.811450765510829"><ele>2000.0</ele><time>2026-05-03T15:21:22Z</time></trkpt><trkpt lat="41.84412888375305" lon="13.811536287373785"><ele>1998.0</ele><time>2026-05-03T15:21:25Z</time></trkpt><trkpt lat="41.844148778028966" lon="13.811641318676825"><ele>1996.0</ele><time>2026-05-03T15:21:28Z</time></trkpt><trkpt lat="41.84412941967588" lon="13.811756900550424"><ele>1994.0</ele><time>2026-05-03T15:21:31Z</time></trkpt><trkpt lat="41.844145901248694" lon="13.811869629451788"><ele>1992.0</ele><time>2026-05-03T15:21:34Z</time></trkpt><trkpt lat="41.8441755240013" lon="13.811969514308052"><ele>1989.1666666666667</ele><time>2026-05-03T15:21:37Z</time></trkpt><trkpt lat="41.84421570983531" lon="13.812047179608152"><ele>1986.3333333333335</ele><time>2026-05-03T15:21:39Z</time></trkpt><trkpt lat="41.844271557854334" lon="13.812153166024064"><ele>1983.5</ele><time>2026-05-03T15:21:42Z</time></trkpt><trkpt lat="41.84432730924671" lon="13.812218671223262"><ele>1980.6666666666667</ele><time>2026-05-03T15:21:44.999Z</time></trkpt><trkpt lat="41.8443731733782" lon="13.81228101601604"><ele>1977.8333333333335</ele><time>2026-05-03T15:21:46.999Z</time></trkpt><trkpt lat="41.8444248944522" lon="13.812343834534126"><ele>1975.0</ele><time>2026-05-03T15:21:48.999Z</time></trkpt><trkpt lat="41.8444566160682" lon="13.812443660511223"><ele>1974.8333333333335</ele><time>2026-05-03T15:21:51.999Z</time></trkpt><trkpt lat="41.84450844673915" lon="13.812507923514573"><ele>1974.6666666666667</ele><time>2026-05-03T15:21:53.999Z</time></trkpt><trkpt lat="41.844580452573865" lon="13.812530473618637"><ele>1974.5</ele><time>2026-05-03T15:21:56.999Z</time></trkpt><trkpt lat="41.844645220578066" lon="13.81256220915894"><ele>1974.3333333333335</ele><time>2026-05-03T15:21:59.999Z</time></trkpt><trkpt lat="41.84471957757474" lon="13.812625136563975"><ele>1974.1666666666667</ele><time>2026-05-03T15:22:01.999Z</time></trkpt><trkpt lat="41.84478535020514" lon="13.812713487011155"><ele>1974.0</ele><time>2026-05-03T15:22:03.999Z</time></trkpt><trkpt lat="41.84485181582811" lon="13.81281277116116"><ele>1972.2</ele><time>2026-05-03T15:22:05.999Z</time></trkpt><trkpt lat="41.84490945361417" lon="13.812918536431377"><ele>1970.4</ele><time>2026-05-03T15:22:07.999Z</time></trkpt><trkpt lat="41.84497453435041" lon="13.812979443276518"><ele>1968.6</ele><time>2026-05-03T15:22:10.999Z</time></trkpt><trkpt lat="41.84501722670495" lon="13.813050542263529"><ele>1966.8</ele><time>2026-05-03T15:22:12.999Z</time></trkpt><trkpt lat="41.84506247696324" lon="13.81315558215102"><ele>1965.0</ele><time>2026-05-03T15:22:14.999Z</time></trkpt><trkpt lat="41.845118102226664" lon="13.81328981800262"><ele>1961.8333333333333</ele><time>2026-05-03T15:22:16.999Z</time></trkpt><trkpt lat="41.84515359743713" lon="13.813365781177701"><ele>1958.6666666666665</ele><time>2026-05-03T15:22:17.999Z</time></trkpt><trkpt lat="41.845189860177506" lon="13.813470843949943"><ele>1955.5</ele><time>2026-05-03T15:22:19.999Z</time></trkpt><trkpt lat="41.8452280382904" lon="13.813574948882577"><ele>1952.3333333333333</ele><time>2026-05-03T15:22:21.999Z</time></trkpt><trkpt lat="41.84526231690516" lon="13.813688796748517"><ele>1949.1666666666665</ele><time>2026-05-03T15:22:23.999Z</time></trkpt><trkpt lat="41.845323775675304" lon="13.81380478893868"><ele>1946.0</ele><time>2026-05-03T15:22:25.999Z</time></trkpt><trkpt lat="41.845382153360205" lon="13.813857247608206"><ele>1945.9999999999998</ele><time>2026-05-03T15:22:27.999Z</time></trkpt><trkpt lat="41.845445189998934" lon="13.813925323643733"><ele>1946.0</ele><time>2026-05-03T15:22:32.999Z</time></trkpt><trkpt lat="41.84550621993539" lon="13.813988127360231"><ele>1946.0</ele><time>2026-05-03T15:22:34.999Z</time></trkpt><trkpt lat="41.8455819796858" lon="13.814051015959755"><ele>1946.0</ele><time>2026-05-03T15:22:36.999Z</time></trkpt><trkpt lat="41.84564495118601" lon="13.814152766328494"><ele>1945.9999999999998</ele><time>2026-05-03T15:22:39.999Z</time></trkpt><trkpt lat="41.84570198798593" lon="13.81424671591176"><ele>1946.0</ele><time>2026-05-03T15:22:41.999Z</time></trkpt><trkpt lat="41.84573364242446" lon="13.814367441906777"><ele>1946.4</ele><time>2026-05-03T15:22:43.999Z</time></trkpt><trkpt lat="41.84577197390867" lon="13.81449071499099"><ele>1946.8</ele><time>2026-05-03T15:22:45.999Z</time></trkpt><trkpt lat="41.84581486338567" lon="13.81463483841311"><ele>1947.2000000000003</ele><time>2026-05-03T15:22:48Z</time></trkpt><trkpt lat="41.84586337187223" lon="13.814769019510345"><ele>1947.6000000000001</ele><time>2026-05-03T15:22:50Z</time></trkpt><trkpt lat="41.84590986895135" lon="13.814900474446082"><ele>1948.0</ele><time>2026-05-03T15:22:52Z</time></trkpt><trkpt lat="41.845958005504976" lon="13.815010937447486"><ele>1947.8333333333335</ele><time>2026-05-03T15:22:54Z</time></trkpt><trkpt lat="41.84600360155098" lon="13.815118175436261"><ele>1947.6666666666667</ele><time>2026-05-03T15:22:56Z</time></trkpt><trkpt lat="41.846027892290635" lon="13.815215211484576"><ele>1947.5</ele><time>2026-05-03T15:22:58Z</time></trkpt><trkpt lat="41.84608180453645" lon="13.815303327399967"><ele>1947.3333333333335</ele><time>2026-05-03T15:23:01Z</time></trkpt><trkpt lat="41.84614136634593" lon="13.815377770467668"><ele>1947.1666666666667</ele><time>2026-05-03T15:23:04Z</time></trkpt><trkpt lat="41.84619855013148" lon="13.815448767691004"><ele>1947.0</ele><time>2026-05-03T15:23:06Z</time></trkpt><trkpt lat="41.8462466195585" lon="13.815514955784163"><ele>1947.0000000000002</ele><time>2026-05-03T15:23:08Z</time></trkpt><trkpt lat="41.846286851531815" lon="13.815592427659515"><ele>1947.0</ele><time>2026-05-03T15:23:11Z</time></trkpt><trkpt lat="41.846278148598955" lon="13.815678983336825"><ele>1947.0000000000002</ele><time>2026-05-03T15:23:14Z</time></trkpt><trkpt lat="41.846308717436116" lon="13.815769571913641"><ele>1947.0000000000002</ele><time>2026-05-03T15:23:18Z</time></trkpt><trkpt lat="41.84637808596657" lon="13.815784140424888"><ele>1947.0</ele><time>2026-05-03T15:23:22Z</time></trkpt><trkpt lat="41.846438292397636" lon="13.815811682174559"><ele>1947.0000000000002</ele><time>2026-05-03T15:23:27Z</time></trkpt><trkpt lat="41.84650849297709" lon="13.81583713158512"><ele>1947.0000000000002</ele><time>2026-05-03T15:23:32Z</time></trkpt><trkpt lat="41.846565800011014" lon="13.815876772562735"><ele>1947.0</ele><time>2026-05-03T15:23:41Z</time></trkpt><trkpt lat="41.84663072545091" lon="13.815900213297565"><ele>1946.9999999999998</ele><time>2026-05-03T15:23:48Z</time></trkpt><trkpt lat="41.84668215248208" lon="13.815949977922767"><ele>1946.9999999999998</ele><time>2026-05-03T15:23:55.999Z</time></trkpt><trkpt lat="41.846754005026675" lon="13.815961039219985"><ele>1947.0</ele><time>2026-05-03T15:24:01.999Z</time></trkpt><trkpt lat="41.84683051451887" lon="13.815984650750218"><ele>1947.0</ele><time>2026-05-03T15:24:04.999Z</time></trkpt><trkpt lat="41.84699811569284" lon="13.816020433659626"><ele>1946.5</ele><time>2026-05-03T15:24:07.999Z</time></trkpt><trkpt lat="41.84710481745997" lon="13.816072358900518"><ele>1946.0</ele><time>2026-05-03T15:24:09.999Z</time></trkpt><trkpt lat="41.847177250646666" lon="13.81612026267721"><ele>1945.5</ele><time>2026-05-03T15:24:11.999Z</time></trkpt><trkpt lat="41.84724238605422" lon="13.816179491669178"><ele>1945.0</ele><time>2026-05-03T15:24:14.999Z</time></trkpt><trkpt lat="41.84730630167927" lon="13.816253076677746"><ele>1944.5</ele><time>2026-05-03T15:24:16.999Z</time></trkpt><trkpt lat="41.84737414245386" lon="13.816315257496042"><ele>1944.0</ele><time>2026-05-03T15:24:18.999Z</time></trkpt><trkpt lat="41.847438017676346" lon="13.816372918380017"><ele>1944.0</ele><time>2026-05-03T15:24:20.999Z</time></trkpt><trkpt lat="41.84747511289783" lon="13.816447648746404"><ele>1944.0</ele><time>2026-05-03T15:24:22.999Z</time></trkpt><trkpt lat="41.847533743425025" lon="13.816523703504018"><ele>1944.0</ele><time>2026-05-03T15:24:25.999Z</time></trkpt><trkpt lat="41.84763675793531" lon="13.816568127362803"><ele>1944.0</ele><time>2026-05-03T15:24:29.999Z</time></trkpt><trkpt lat="41.84771347101834" lon="13.816628356400335"><ele>1944.0</ele><time>2026-05-03T15:24:32.999Z</time></trkpt><trkpt lat="41.84778520029499" lon="13.816708259601008"><ele>1944.0</ele><time>2026-05-03T15:24:34.999Z</time></trkpt><trkpt lat="41.847839346649785" lon="13.81677811918725"><ele>1941.75</ele><time>2026-05-03T15:24:36.999Z</time></trkpt><trkpt lat="41.84793341320934" lon="13.81686661790551"><ele>1939.5</ele><time>2026-05-03T15:24:38.999Z</time></trkpt><trkpt lat="41.84800935664907" lon="13.816967968752945"><ele>1937.25</ele><time>2026-05-03T15:24:40.999Z</time></trkpt><trkpt lat="41.848090341348296" lon="13.817076439441538"><ele>1935.0</ele><time>2026-05-03T15:24:42.999Z</time></trkpt><trkpt lat="41.84817367406957" lon="13.817199527540843"><ele>1935.0</ele><time>2026-05-03T15:24:44.999Z</time></trkpt><trkpt lat="41.84822090806738" lon="13.81726447492667"><ele>1935.0000000000002</ele><time>2026-05-03T15:24:45.999Z</time></trkpt><trkpt lat="41.84826832097843" lon="13.817330342502004"><ele>1935.0</ele><time>2026-05-03T15:24:46.999Z</time></trkpt><trkpt lat="41.84830933236703" lon="13.817400088315342"><ele>1935.0</ele><time>2026-05-03T15:24:47.999Z</time></trkpt><trkpt lat="41.84835637284639" lon="13.817464049963677"><ele>1935.0000000000002</ele><time>2026-05-03T15:24:48.999Z</time></trkpt><trkpt lat="41.848402229311475" lon="13.817528602159706"><ele>1935.0</ele><time>2026-05-03T15:24:49.999Z</time></trkpt><trkpt lat="41.84844798104269" lon="13.81759411113547"><ele>1935.0</ele><time>2026-05-03T15:24:50.999Z</time></trkpt><trkpt lat="41.848519905614786" lon="13.817725676684754"><ele>1933.6</ele><time>2026-05-03T15:24:53Z</time></trkpt><trkpt lat="41.84857432038777" lon="13.817810056937098"><ele>1932.2</ele><time>2026-05-03T15:24:55Z</time></trkpt><trkpt lat="41.84864245744525" lon="13.817893254669988"><ele>1930.8000000000002</ele><time>2026-05-03T15:24:57Z</time></trkpt><trkpt lat="41.848714861466746" lon="13.817978115189867"><ele>1929.4</ele><time>2026-05-03T15:24:59Z</time></trkpt><trkpt lat="41.84880218464067" lon="13.8180804674871"><ele>1928.0</ele><time>2026-05-03T15:25:01Z</time></trkpt><trkpt lat="41.8488502396762" lon="13.818140542776986"><ele>1928.0</ele><time>2026-05-03T15:25:02Z</time></trkpt><trkpt lat="41.84890216161106" lon="13.818195294559455"><ele>1928.0000000000002</ele><time>2026-05-03T15:25:03Z</time></trkpt><trkpt lat="41.84895051367943" lon="13.818252181620636"><ele>1928.0</ele><time>2026-05-03T15:25:04Z</time></trkpt><trkpt lat="41.84901573782671" lon="13.818328171879903"><ele>1928.0</ele><time>2026-05-03T15:25:06Z</time></trkpt><trkpt lat="41.84907125880387" lon="13.818388280098057"><ele>1928.0000000000002</ele><time>2026-05-03T15:25:14Z</time></trkpt><trkpt lat="41.84910964575604" lon="13.818456829660853"><ele>1928.0</ele><time>2026-05-03T15:25:16Z</time></trkpt><trkpt lat="41.84917973487389" lon="13.818520804568458"><ele>1928.0</ele><time>2026-05-03T15:25:18Z</time></trkpt><trkpt lat="41.84924951096401" lon="13.818612216036891"><ele>1924.8000000000002</ele><time>2026-05-03T15:25:20Z</time></trkpt><trkpt lat="41.84932755143103" lon="13.818664620460916"><ele>1921.6000000000001</ele><time>2026-05-03T15:25:22Z</time></trkpt><trkpt lat="41.84940268619234" lon="13.818694993675459"><ele>1918.3999999999999</ele><time>2026-05-03T15:25:24Z</time></trkpt><trkpt lat="41.84947540266807" lon="13.818721004570993"><ele>1915.1999999999998</ele><time>2026-05-03T15:25:27Z</time></trkpt><trkpt lat="41.849557700239075" lon="13.81880012109451"><ele>1912.0</ele><time>2026-05-03T15:25:29Z</time></trkpt><trkpt lat="41.84965812902583" lon="13.818893197996005"><ele>1912.0</ele><time>2026-05-03T15:25:31Z</time></trkpt><trkpt lat="41.84975941384085" lon="13.818981922168344"><ele>1911.9999999999998</ele><time>2026-05-03T15:25:33Z</time></trkpt><trkpt lat="41.84978958045969" lon="13.819071613608434"><ele>1911.9999999999998</ele><time>2026-05-03T15:25:36Z</time></trkpt><trkpt lat="41.849863169912524" lon="13.819120469099309"><ele>1912.0</ele><time>2026-05-03T15:25:39Z</time></trkpt><trkpt lat="41.849942556827465" lon="13.819148632220273"><ele>1912.0</ele><time>2026-05-03T15:25:41Z</time></trkpt><trkpt lat="41.85004124102483" lon="13.819198067914767"><ele>1910.6666666666667</ele><time>2026-05-03T15:25:43Z</time></trkpt><trkpt lat="41.85015762768931" lon="13.819263256873544"><ele>1909.3333333333335</ele><time>2026-05-03T15:25:45Z</time></trkpt><trkpt lat="41.85022052892578" lon="13.819297160029375"><ele>1908.0</ele><time>2026-05-03T15:25:46Z</time></trkpt><trkpt lat="41.85028345642003" lon="13.81933878936118"><ele>1906.6666666666665</ele><time>2026-05-03T15:25:47Z</time></trkpt><trkpt lat="41.85034586128672" lon="13.819385854581357"><ele>1905.3333333333333</ele><time>2026-05-03T15:25:48Z</time></trkpt><trkpt lat="41.85040608102346" lon="13.819423495667817"><ele>1904.0</ele><time>2026-05-03T15:25:49Z</time></trkpt><trkpt lat="41.85049430767142" lon="13.81948821913973"><ele>1904.0</ele><time>2026-05-03T15:25:51Z</time></trkpt><trkpt lat="41.85060460300539" lon="13.819522777758815"><ele>1904.0</ele><time>2026-05-03T15:25:52.999Z</time></trkpt><trkpt lat="41.85070467414709" lon="13.819554876818094"><ele>1904.0</ele><time>2026-05-03T15:25:54.999Z</time></trkpt><trkpt lat="41.85078881268352" lon="13.819556650213041"><ele>1904.0</ele><time>2026-05-03T15:25:56.999Z</time></trkpt><trkpt lat="41.850880696065" lon="13.819603502581728"><ele>1904.0</ele><time>2026-05-03T15:25:58.999Z</time></trkpt><trkpt lat="41.85097126641881" lon="13.819650020214691"><ele>1903.8333333333333</ele><time>2026-05-03T15:26:00.999Z</time></trkpt><trkpt lat="41.85105937951306" lon="13.81967272250221"><ele>1903.6666666666665</ele><time>2026-05-03T15:26:02.999Z</time></trkpt><trkpt lat="41.851126644679724" lon="13.81968463228513"><ele>1903.5</ele><time>2026-05-03T15:26:05.999Z</time></trkpt><trkpt lat="41.851226544245044" lon="13.819714723343003"><ele>1903.3333333333335</ele><time>2026-05-03T15:26:06.999Z</time></trkpt><trkpt lat="41.85130004865436" lon="13.819781134814106"><ele>1903.1666666666667</ele><time>2026-05-03T15:26:08.999Z</time></trkpt><trkpt lat="41.85138762993161" lon="13.819828288119425"><ele>1903.0</ele><time>2026-05-03T15:26:10.999Z</time></trkpt><trkpt lat="41.85146022675966" lon="13.819878931853692"><ele>1903.0000000000002</ele><time>2026-05-03T15:26:12.999Z</time></trkpt><trkpt lat="41.851513458609254" lon="13.819944987482575"><ele>1903.0</ele><time>2026-05-03T15:26:14.999Z</time></trkpt><trkpt lat="41.85158832105616" lon="13.819961272116801"><ele>1903.0</ele><time>2026-05-03T15:26:16.999Z</time></trkpt><trkpt lat="41.85167769905534" lon="13.819985435334528"><ele>1903.0</ele><time>2026-05-03T15:26:18.999Z</time></trkpt><trkpt lat="41.85174760622191" lon="13.820011257870442"><ele>1903.0000000000002</ele><time>2026-05-03T15:26:20.999Z</time></trkpt><trkpt lat="41.851807295608104" lon="13.82007138308949"><ele>1903.0</ele><time>2026-05-03T15:26:23.999Z</time></trkpt><trkpt lat="41.85186052167859" lon="13.82012352743264"><ele>1898.6666666666667</ele><time>2026-05-03T15:26:25.999Z</time></trkpt><trkpt lat="41.851906870951034" lon="13.820180918040393"><ele>1894.3333333333335</ele><time>2026-05-03T15:26:28.999Z</time></trkpt><trkpt lat="41.85194924041105" lon="13.820297169333008"><ele>1890.0</ele><time>2026-05-03T15:27:44Z</time></trkpt><trkpt lat="41.85196038197568" lon="13.820445624260902"><ele>1885.6666666666665</ele><time>2026-05-03T15:27:46Z</time></trkpt><trkpt lat="41.85200042146479" lon="13.820522747727244"><ele>1881.3333333333333</ele><time>2026-05-03T15:27:48Z</time></trkpt><trkpt lat="41.852064220612064" lon="13.8206115687976"><ele>1877.0</ele><time>2026-05-03T15:27:50Z</time></trkpt><trkpt lat="41.85213591426883" lon="13.82068801190225"><ele>1876.9999999999998</ele><time>2026-05-03T15:27:52Z</time></trkpt><trkpt lat="41.852208052387496" lon="13.820787244268317"><ele>1877.0</ele><time>2026-05-03T15:27:55Z</time></trkpt><trkpt lat="41.85223905447154" lon="13.820876727083597"><ele>1877.0</ele><time>2026-05-03T15:27:57Z</time></trkpt><trkpt lat="41.852293259197964" lon="13.820966366475082"><ele>1877.0</ele><time>2026-05-03T15:27:58.999Z</time></trkpt><trkpt lat="41.85233358641314" lon="13.821060636780778"><ele>1876.9999999999998</ele><time>2026-05-03T15:28:00.999Z</time></trkpt><trkpt lat="41.85237256057774" lon="13.821138300103812"><ele>1877.0</ele><time>2026-05-03T15:28:02.999Z</time></trkpt><trkpt lat="41.852364136929104" lon="13.821253312936554"><ele>1875.3333333333333</ele><time>2026-05-03T15:28:04.999Z</time></trkpt><trkpt lat="41.85240827849759" lon="13.821379857568855"><ele>1873.6666666666665</ele><time>2026-05-03T15:28:06.999Z</time></trkpt><trkpt lat="41.85244037296923" lon="13.821500143270336"><ele>1872.0</ele><time>2026-05-03T15:28:08.999Z</time></trkpt><trkpt lat="41.85248404907392" lon="13.821622733039407"><ele>1870.3333333333335</ele><time>2026-05-03T15:28:10.999Z</time></trkpt><trkpt lat="41.8525129826812" lon="13.821704781601952"><ele>1868.6666666666667</ele><time>2026-05-03T15:28:12.999Z</time></trkpt><trkpt lat="41.85253924811932" lon="13.821789930051501"><ele>1867.0</ele><time>2026-05-03T15:28:14.999Z</time></trkpt><trkpt lat="41.85256069212545" lon="13.821878602828237"><ele>1863.6666666666667</ele><time>2026-05-03T15:28:16.999Z</time></trkpt><trkpt lat="41.85263349595981" lon="13.821956737834252"><ele>1860.3333333333335</ele><time>2026-05-03T15:28:18.999Z</time></trkpt><trkpt lat="41.85271097529146" lon="13.822013012862202"><ele>1857.0</ele><time>2026-05-03T15:28:22.999Z</time></trkpt><trkpt lat="41.852792148005584" lon="13.822023198206006"><ele>1853.6666666666665</ele><time>2026-05-03T15:28:26.999Z</time></trkpt><trkpt lat="41.85282901763474" lon="13.822101409716366"><ele>1850.3333333333333</ele><time>2026-05-03T15:28:33.999Z</time></trkpt><trkpt lat="41.85283371009779" lon="13.82219754954818"><ele>1847.0</ele><time>2026-05-03T15:28:51.999Z</time></trkpt><trkpt lat="41.852868617538455" lon="13.822276252063288"><ele>1846.9999999999998</ele><time>2026-05-03T15:29:15Z</time></trkpt><trkpt lat="41.85291579917994" lon="13.822346386713967"><ele>1847.0</ele><time>2026-05-03T15:30:11.999Z</time></trkpt><trkpt lat="41.8529443086247" lon="13.822427473496395"><ele>1846.9999999999998</ele><time>2026-05-03T15:30:18.999Z</time></trkpt><trkpt lat="41.85298731255087" lon="13.822495643208862"><ele>1846.9999999999998</ele><time>2026-05-03T15:30:22.999Z</time></trkpt><trkpt lat="41.85303062169546" lon="13.822581658245518"><ele>1847.0</ele><time>2026-05-03T15:30:25.999Z</time></trkpt><trkpt lat="41.85306902365784" lon="13.82267419625353"><ele>1846.9999999999998</ele><time>2026-05-03T15:30:28.999Z</time></trkpt><trkpt lat="41.85310682610378" lon="13.82275025843188"><ele>1846.9999999999998</ele><time>2026-05-03T15:30:32.999Z</time></trkpt><trkpt lat="41.85315139601013" lon="13.822818270753807"><ele>1846.6666666666665</ele><time>2026-05-03T15:30:37.999Z</time></trkpt><trkpt lat="41.853160906865014" lon="13.822909507845532"><ele>1846.3333333333333</ele><time>2026-05-03T15:30:53.999Z</time></trkpt><trkpt lat="41.85314585442461" lon="13.823031997156432"><ele>1846.0</ele><time>2026-05-03T15:30:57.999Z</time></trkpt><trkpt lat="41.85317842131643" lon="13.823120479081409"><ele>1845.6666666666665</ele><time>2026-05-03T15:31:00.999Z</time></trkpt><trkpt lat="41.85321090679013" lon="13.82319345481787"><ele>1845.3333333333333</ele><time>2026-05-03T15:31:02.999Z</time></trkpt><trkpt lat="41.85323400908437" lon="13.823285023184777"><ele>1845.0</ele><time>2026-05-03T15:31:06.999Z</time></trkpt><trkpt lat="41.853273232659056" lon="13.82338187200555"><ele>1845.0</ele><time>2026-05-03T15:31:10Z</time></trkpt><trkpt lat="41.85330188205767" lon="13.823472577423216"><ele>1844.9999999999998</ele><time>2026-05-03T15:31:13Z</time></trkpt><trkpt lat="41.853360154609604" lon="13.823516469095559"><ele>1845.0</ele><time>2026-05-03T15:31:20Z</time></trkpt><trkpt lat="41.85342266909035" lon="13.823570236945901"><ele>1845.0</ele><time>2026-05-03T15:31:28Z</time></trkpt><trkpt lat="41.85346235105041" lon="13.823647505355558"><ele>1844.9999999999998</ele><time>2026-05-03T15:31:34Z</time></trkpt><trkpt lat="41.85350577514236" lon="13.823718043894237"><ele>1845.0</ele><time>2026-05-03T15:31:40Z</time></trkpt><trkpt lat="41.85355345304691" lon="13.823799128415775"><ele>1845.0</ele><time>2026-05-03T15:31:42Z</time></trkpt><trkpt lat="41.85359692508271" lon="13.823887783801943"><ele>1842.8333333333333</ele><time>2026-05-03T15:31:44Z</time></trkpt><trkpt lat="41.85361105800285" lon="13.823988017400147"><ele>1840.6666666666665</ele><time>2026-05-03T15:31:46Z</time></trkpt><trkpt lat="41.853580692473486" lon="13.82410716262177"><ele>1838.5</ele><time>2026-05-03T15:31:48Z</time></trkpt><trkpt lat="41.85352706685165" lon="13.824209437460512"><ele>1836.3333333333333</ele><time>2026-05-03T15:31:50Z</time></trkpt><trkpt lat="41.85350695782857" lon="13.824318287192277"><ele>1834.1666666666665</ele><time>2026-05-03T15:31:52Z</time></trkpt><trkpt lat="41.85352064648734" lon="13.824419123371822"><ele>1832.0</ele><time>2026-05-03T15:31:54Z</time></trkpt><trkpt lat="41.85352147025871" lon="13.824510920094538"><ele>1829.9999999999998</ele><time>2026-05-03T15:31:56Z</time></trkpt><trkpt lat="41.85351372014927" lon="13.82462772845236"><ele>1828.0</ele><time>2026-05-03T15:31:58Z</time></trkpt><trkpt lat="41.85349117440278" lon="13.824742687986166"><ele>1826.0</ele><time>2026-05-03T15:32:00Z</time></trkpt><trkpt lat="41.85347879623809" lon="13.824825790412637"><ele>1824.0</ele><time>2026-05-03T15:32:01Z</time></trkpt><trkpt lat="41.85347820037763" lon="13.824946652680058"><ele>1821.9999999999998</ele><time>2026-05-03T15:32:03Z</time></trkpt><trkpt lat="41.85344813026782" lon="13.82508720617805"><ele>1820.0</ele><time>2026-05-03T15:32:05Z</time></trkpt><trkpt lat="41.853423358288666" lon="13.825197110054233"><ele>1816.8</ele><time>2026-05-03T15:32:06.999Z</time></trkpt><trkpt lat="41.853389835565615" lon="13.825301917496414"><ele>1813.6</ele><time>2026-05-03T15:32:08.999Z</time></trkpt><trkpt lat="41.85335075722293" lon="13.825421736085623"><ele>1810.4</ele><time>2026-05-03T15:32:10.999Z</time></trkpt><trkpt lat="41.85329200688745" lon="13.825559047293924"><ele>1807.2</ele><time>2026-05-03T15:32:12.999Z</time></trkpt><trkpt lat="41.85323057552672" lon="13.825701092309979"><ele>1804.0</ele><time>2026-05-03T15:32:14.999Z</time></trkpt><trkpt lat="41.85318251798168" lon="13.825774483038527"><ele>1804.0000000000002</ele><time>2026-05-03T15:32:34.999Z</time></trkpt><trkpt lat="41.85312215840434" lon="13.825841081463265"><ele>1804.0</ele><time>2026-05-03T15:32:39.999Z</time></trkpt><trkpt lat="41.85307558673972" lon="13.82593836830406"><ele>1804.0</ele><time>2026-05-03T15:32:41.999Z</time></trkpt><trkpt lat="41.853008035616334" lon="13.826055117467863"><ele>1804.0</ele><time>2026-05-03T15:32:43.999Z</time></trkpt><trkpt lat="41.85296273621423" lon="13.826116293495245"><ele>1804.0000000000002</ele><time>2026-05-03T15:32:44.999Z</time></trkpt><trkpt lat="41.852912459298786" lon="13.826180891303862"><ele>1804.0</ele><time>2026-05-03T15:32:46.999Z</time></trkpt><trkpt lat="41.852835847535076" lon="13.826218413184774"><ele>1803.3333333333335</ele><time>2026-05-03T15:32:49.999Z</time></trkpt><trkpt lat="41.852770802968756" lon="13.826221379910962"><ele>1802.6666666666667</ele><time>2026-05-03T15:32:53.999Z</time></trkpt><trkpt lat="41.852714410521116" lon="13.826278590053287"><ele>1802.0</ele><time>2026-05-03T15:33:31Z</time></trkpt><trkpt lat="41.852649498323" lon="13.826376704762795"><ele>1801.3333333333335</ele><time>2026-05-03T15:33:33Z</time></trkpt><trkpt lat="41.852593113012055" lon="13.8264460881464"><ele>1800.6666666666667</ele><time>2026-05-03T15:33:35Z</time></trkpt><trkpt lat="41.852512903469226" lon="13.826450000990766"><ele>1800.0</ele><time>2026-05-03T15:33:37Z</time></trkpt><trkpt lat="41.852451793853966" lon="13.82651508976599"><ele>1798.3333333333333</ele><time>2026-05-03T15:33:39Z</time></trkpt><trkpt lat="41.85237067015986" lon="13.826496080728461"><ele>1796.6666666666665</ele><time>2026-05-03T15:33:41Z</time></trkpt><trkpt lat="41.85229308402299" lon="13.826479089857745"><ele>1795.0</ele><time>2026-05-03T15:33:43Z</time></trkpt><trkpt lat="41.85222992488012" lon="13.826467008280911"><ele>1793.3333333333333</ele><time>2026-05-03T15:33:45Z</time></trkpt><trkpt lat="41.85216872868991" lon="13.826420689698221"><ele>1791.6666666666665</ele><time>2026-05-03T15:33:48Z</time></trkpt><trkpt lat="41.852077370233346" lon="13.826442599091424"><ele>1790.0</ele><time>2026-05-03T15:33:51Z</time></trkpt><trkpt lat="41.852010560532285" lon="13.82639635157266"><ele>1790.0</ele><time>2026-05-03T15:33:53Z</time></trkpt><trkpt lat="41.85193667904728" lon="13.826318352130038"><ele>1790.0</ele><time>2026-05-03T15:33:55Z</time></trkpt><trkpt lat="41.85186769120144" lon="13.826253739656986"><ele>1790.0</ele><time>2026-05-03T15:33:57Z</time></trkpt><trkpt lat="41.851802908534154" lon="13.826216093688975"><ele>1790.0</ele><time>2026-05-03T15:33:59Z</time></trkpt><trkpt lat="41.85169454126891" lon="13.826114788927672"><ele>1790.0</ele><time>2026-05-03T15:34:01Z</time></trkpt><trkpt lat="41.85161642892851" lon="13.826064446716957"><ele>1788.1666666666665</ele><time>2026-05-03T15:34:03Z</time></trkpt><trkpt lat="41.85155371088394" lon="13.826009507857329"><ele>1786.3333333333333</ele><time>2026-05-03T15:34:05Z</time></trkpt><trkpt lat="41.85145864784796" lon="13.826000998504963"><ele>1784.5</ele><time>2026-05-03T15:34:08Z</time></trkpt><trkpt lat="41.85139831963732" lon="13.825943971528842"><ele>1782.6666666666665</ele><time>2026-05-03T15:34:11.999Z</time></trkpt><trkpt lat="41.8513757306408" lon="13.825861958936082"><ele>1780.8333333333333</ele><time>2026-05-03T15:34:19.999Z</time></trkpt><trkpt lat="41.85132167597757" lon="13.8257785365136"><ele>1779.0</ele><time>2026-05-03T15:34:24.999Z</time></trkpt><trkpt lat="41.85124860145948" lon="13.825722055811637"><ele>1778.2</ele><time>2026-05-03T15:34:26.999Z</time></trkpt><trkpt lat="41.851152302075015" lon="13.825652879510866"><ele>1777.4</ele><time>2026-05-03T15:34:30.999Z</time></trkpt><trkpt lat="41.851058267208906" lon="13.82561447188842"><ele>1776.6</ele><time>2026-05-03T15:34:32.999Z</time></trkpt><trkpt lat="41.85097482008378" lon="13.82557029093268"><ele>1775.8</ele><time>2026-05-03T15:34:35.999Z</time></trkpt><trkpt lat="41.85087720108908" lon="13.825507196166589"><ele>1775.0</ele><time>2026-05-03T15:34:37.999Z</time></trkpt><trkpt lat="41.85079505502289" lon="13.825495919134628"><ele>1769.8333333333333</ele><time>2026-05-03T15:34:39.999Z</time></trkpt><trkpt lat="41.85067366404135" lon="13.825478500313269"><ele>1764.6666666666665</ele><time>2026-05-03T15:34:43.999Z</time></trkpt><trkpt lat="41.850574745801474" lon="13.825437348724485"><ele>1759.5</ele><time>2026-05-03T15:34:45.999Z</time></trkpt><trkpt lat="41.850515988970166" lon="13.825406993156067"><ele>1754.3333333333335</ele><time>2026-05-03T15:34:47.999Z</time></trkpt><trkpt lat="41.85045470769721" lon="13.825356216120028"><ele>1749.1666666666667</ele><time>2026-05-03T15:34:51.999Z</time></trkpt><trkpt lat="41.85039942153603" lon="13.825305777500304"><ele>1744.0</ele><time>2026-05-03T15:34:59.999Z</time></trkpt><trkpt lat="41.850318948195955" lon="13.825232469073967"><ele>1744.0</ele><time>2026-05-03T15:35:02.999Z</time></trkpt><trkpt lat="41.85021760991381" lon="13.825170581489848"><ele>1744.0</ele><time>2026-05-03T15:35:04.999Z</time></trkpt><trkpt lat="41.85009502862981" lon="13.82519915173572"><ele>1744.0</ele><time>2026-05-03T15:35:06.999Z</time></trkpt><trkpt lat="41.850029249828225" lon="13.825169073967007"><ele>1744.0</ele><time>2026-05-03T15:35:07.999Z</time></trkpt><trkpt lat="41.849931519572486" lon="13.825157732458155"><ele>1744.0</ele><time>2026-05-03T15:35:09.999Z</time></trkpt><trkpt lat="41.84985755978824" lon="13.825147442174453"><ele>1738.6666666666667</ele><time>2026-05-03T15:35:10.999Z</time></trkpt><trkpt lat="41.849783241253434" lon="13.825207164330363"><ele>1733.3333333333335</ele><time>2026-05-03T15:35:12.999Z</time></trkpt><trkpt lat="41.849695719687055" lon="13.825243748772"><ele>1728.0</ele><time>2026-05-03T15:35:14.999Z</time></trkpt><trkpt lat="41.84962871717252" lon="13.8252783779658"><ele>1722.6666666666665</ele><time>2026-05-03T15:35:16.999Z</time></trkpt><trkpt lat="41.84959118056881" lon="13.825356062469696"><ele>1717.3333333333333</ele><time>2026-05-03T15:35:18.999Z</time></trkpt><trkpt lat="41.849538648332974" lon="13.825450565496045"><ele>1712.0</ele><time>2026-05-03T15:35:21Z</time></trkpt><trkpt lat="41.84943910816086" lon="13.825505112718323"><ele>1711.9999999999998</ele><time>2026-05-03T15:35:23Z</time></trkpt><trkpt lat="41.8493919822429" lon="13.825572544315216"><ele>1712.0</ele><time>2026-05-03T15:35:25Z</time></trkpt><trkpt lat="41.84933119028769" lon="13.825594495364268"><ele>1712.0</ele><time>2026-05-03T15:35:26Z</time></trkpt><trkpt lat="41.84927390259252" lon="13.825636231164557"><ele>1712.0</ele><time>2026-05-03T15:35:27Z</time></trkpt><trkpt lat="41.84920348713469" lon="13.825720638210683"><ele>1711.9999999999998</ele><time>2026-05-03T15:35:29Z</time></trkpt><trkpt lat="41.84910911048365" lon="13.825765895364672"><ele>1712.0</ele><time>2026-05-03T15:35:31Z</time></trkpt><trkpt lat="41.849000947890715" lon="13.825822739490318"><ele>1708.8333333333333</ele><time>2026-05-03T15:35:34Z</time></trkpt><trkpt lat="41.848936193820215" lon="13.825830145970825"><ele>1705.6666666666665</ele><time>2026-05-03T15:35:35Z</time></trkpt><trkpt lat="41.84882054928807" lon="13.825839581611548"><ele>1702.5</ele><time>2026-05-03T15:35:37Z</time></trkpt><trkpt lat="41.84874726889711" lon="13.825826053303203"><ele>1699.3333333333335</ele><time>2026-05-03T15:35:38Z</time></trkpt><trkpt lat="41.848680963432855" lon="13.825796173847152"><ele>1696.1666666666667</ele><time>2026-05-03T15:35:39Z</time></trkpt><trkpt lat="41.84857238989817" lon="13.825753235686973"><ele>1693.0</ele><time>2026-05-03T15:35:41Z</time></trkpt><trkpt lat="41.8485072919921" lon="13.825750953663375"><ele>1690.6666666666667</ele><time>2026-05-03T15:35:42Z</time></trkpt><trkpt lat="41.84839953129827" lon="13.825726420397457"><ele>1688.3333333333335</ele><time>2026-05-03T15:35:44Z</time></trkpt><trkpt lat="41.84833433025792" lon="13.825705717628708"><ele>1686.0</ele><time>2026-05-03T15:35:45Z</time></trkpt><trkpt lat="41.8482619193533" lon="13.825689840271435"><ele>1683.6666666666665</ele><time>2026-05-03T15:35:46Z</time></trkpt><trkpt lat="41.84817800693547" lon="13.825707331323422"><ele>1681.3333333333333</ele><time>2026-05-03T15:35:47Z</time></trkpt><trkpt lat="41.84810724460771" lon="13.82576234907743"><ele>1679.0</ele><time>2026-05-03T15:35:48Z</time></trkpt><trkpt lat="41.84803431515243" lon="13.825807646058564"><ele>1679.0</ele><time>2026-05-03T15:35:49Z</time></trkpt><trkpt lat="41.84797201440529" lon="13.825820248939019"><ele>1679.0</ele><time>2026-05-03T15:35:50Z</time></trkpt><trkpt lat="41.84788792257064" lon="13.825892741708142"><ele>1679.0</ele><time>2026-05-03T15:35:52Z</time></trkpt><trkpt lat="41.847770310657985" lon="13.8259624279324"><ele>1679.0</ele><time>2026-05-03T15:35:54Z</time></trkpt><trkpt lat="41.8476912185601" lon="13.825986632326385"><ele>1679.0</ele><time>2026-05-03T15:35:55Z</time></trkpt><trkpt lat="41.84761131658645" lon="13.826004252877837"><ele>1677.6666666666665</ele><time>2026-05-03T15:35:56Z</time></trkpt><trkpt lat="41.8475299466329" lon="13.825993813395021"><ele>1676.3333333333333</ele><time>2026-05-03T15:35:57Z</time></trkpt><trkpt lat="41.84744318968718" lon="13.82600126926115"><ele>1675.0</ele><time>2026-05-03T15:35:58Z</time></trkpt><trkpt lat="41.84737864501554" lon="13.826002298406136"><ele>1673.6666666666665</ele><time>2026-05-03T15:35:59Z</time></trkpt><trkpt lat="41.84730583097801" lon="13.826036898421895"><ele>1672.3333333333333</ele><time>2026-05-03T15:36:00Z</time></trkpt><trkpt lat="41.84722227782124" lon="13.826060196966644"><ele>1671.0</ele><time>2026-05-03T15:36:01Z</time></trkpt><trkpt lat="41.847147871613934" lon="13.82605948381113"><ele>1671.0</ele><time>2026-05-03T15:36:02Z</time></trkpt><trkpt lat="41.8470780510225" lon="13.82612936962646"><ele>1671.0</ele><time>2026-05-03T15:36:06Z</time></trkpt><trkpt lat="41.847012312268916" lon="13.826140078290388"><ele>1671.0</ele><time>2026-05-03T15:36:10Z</time></trkpt><trkpt lat="41.84693574026873" lon="13.826145805369162"><ele>1671.0</ele><time>2026-05-03T15:36:13Z</time></trkpt><trkpt lat="41.84686781238847" lon="13.826141322932287"><ele>1671.0</ele><time>2026-05-03T15:36:14Z</time></trkpt><trkpt lat="41.846758944940206" lon="13.826125217253935"><ele>1671.0</ele><time>2026-05-03T15:36:16Z</time></trkpt><trkpt lat="41.84666091321762" lon="13.82608597916677"><ele>1666.5</ele><time>2026-05-03T15:36:17.999Z</time></trkpt><trkpt lat="41.84656349694591" lon="13.826065330390415"><ele>1662.0</ele><time>2026-05-03T15:36:19.999Z</time></trkpt><trkpt lat="41.84648688880794" lon="13.826090272614824"><ele>1657.5</ele><time>2026-05-03T15:36:21.999Z</time></trkpt><trkpt lat="41.84639143703603" lon="13.826103178329195"><ele>1653.0</ele><time>2026-05-03T15:36:23.999Z</time></trkpt><trkpt lat="41.846330041562624" lon="13.826067926736844"><ele>1648.5</ele><time>2026-05-03T15:36:29.999Z</time></trkpt><trkpt lat="41.84624631596269" lon="13.826047553146449"><ele>1644.0</ele><time>2026-05-03T15:37:01.999Z</time></trkpt><trkpt lat="41.84619517351044" lon="13.825987401349433"><ele>1644.0</ele><time>2026-05-03T15:37:47Z</time></trkpt><trkpt lat="41.84610076574163" lon="13.826022832265513"><ele>1644.0</ele><time>2026-05-03T15:37:49Z</time></trkpt><trkpt lat="41.84602110562821" lon="13.826062816009326"><ele>1644.0</ele><time>2026-05-03T15:37:51Z</time></trkpt><trkpt lat="41.845931032595836" lon="13.826042365097445"><ele>1644.0</ele><time>2026-05-03T15:37:53Z</time></trkpt><trkpt lat="41.845866152834" lon="13.826055611469126"><ele>1644.0</ele><time>2026-05-03T15:37:54Z</time></trkpt><trkpt lat="41.84575829058329" lon="13.826071098283071"><ele>1644.0</ele><time>2026-05-03T15:37:56Z</time></trkpt><trkpt lat="41.84569392395846" lon="13.826061440299478"><ele>1640.2</ele><time>2026-05-03T15:37:57Z</time></trkpt><trkpt lat="41.84560362532848" lon="13.82600281167155"><ele>1636.4</ele><time>2026-05-03T15:37:59Z</time></trkpt><trkpt lat="41.84551109830534" lon="13.825956803341656"><ele>1632.6</ele><time>2026-05-03T15:38:01Z</time></trkpt><trkpt lat="41.84538889932655" lon="13.82593355177196"><ele>1628.8</ele><time>2026-05-03T15:38:03Z</time></trkpt><trkpt lat="41.84532106411205" lon="13.825926161922242"><ele>1625.0</ele><time>2026-05-03T15:38:04Z</time></trkpt><trkpt lat="41.84523955921011" lon="13.825926293967987"><ele>1624.9999999999998</ele><time>2026-05-03T15:38:05Z</time></trkpt><trkpt lat="41.84516303851781" lon="13.825924074638811"><ele>1625.0</ele><time>2026-05-03T15:38:06Z</time></trkpt><trkpt lat="41.84509661925503" lon="13.825903866783745"><ele>1625.0</ele><time>2026-05-03T15:38:07Z</time></trkpt><trkpt lat="41.84502674223286" lon="13.82586772414036"><ele>1625.0</ele><time>2026-05-03T15:38:09Z</time></trkpt><trkpt lat="41.84498681753978" lon="13.825962726105196"><ele>1624.9999999999998</ele><time>2026-05-03T15:38:11Z</time></trkpt><trkpt lat="41.84494029423701" lon="13.826041237532165"><ele>1625.0</ele><time>2026-05-03T15:38:13Z</time></trkpt><trkpt lat="41.84486408184234" lon="13.826091992467138"><ele>1620.1666666666665</ele><time>2026-05-03T15:38:19Z</time></trkpt><trkpt lat="41.844759384018815" lon="13.826079536095671"><ele>1615.3333333333333</ele><time>2026-05-03T15:38:21Z</time></trkpt><trkpt lat="41.84469568139379" lon="13.82604180427843"><ele>1610.5</ele><time>2026-05-03T15:38:23Z</time></trkpt><trkpt lat="41.844649581323864" lon="13.826117715017169"><ele>1605.6666666666665</ele><time>2026-05-03T15:38:26Z</time></trkpt><trkpt lat="41.84460323174894" lon="13.826180130488105"><ele>1600.8333333333333</ele><time>2026-05-03T15:38:27.999Z</time></trkpt><trkpt lat="41.84454994248902" lon="13.826247853048997"><ele>1596.0</ele><time>2026-05-03T15:38:29.999Z</time></trkpt><trkpt lat="41.84458893354068" lon="13.826317747244255"><ele>1596.0</ele><time>2026-05-03T15:38:31.999Z</time></trkpt><trkpt lat="41.84463211094606" lon="13.826386237775296"><ele>1596.0</ele><time>2026-05-03T15:38:33.999Z</time></trkpt><trkpt lat="41.84458800313643" lon="13.826448258478072"><ele>1596.0</ele><time>2026-05-03T15:38:34.999Z</time></trkpt><trkpt lat="41.84451324799111" lon="13.826465865442866"><ele>1596.0</ele><time>2026-05-03T15:38:56.999Z</time></trkpt><trkpt lat="41.84444498303274" lon="13.826506025617126"><ele>1596.0</ele><time>2026-05-03T15:38:59.999Z</time></trkpt><trkpt lat="41.844373003214834" lon="13.826581884719342"><ele>1596.0</ele><time>2026-05-03T15:39:01.999Z</time></trkpt><trkpt lat="41.844290652370205" lon="13.826643162047946"><ele>1591.1666666666667</ele><time>2026-05-03T15:39:03.999Z</time></trkpt><trkpt lat="41.84422700958156" lon="13.826750266504444"><ele>1586.3333333333335</ele><time>2026-05-03T15:39:05.999Z</time></trkpt><trkpt lat="41.84417284757604" lon="13.826821377324002"><ele>1581.5</ele><time>2026-05-03T15:39:07.999Z</time></trkpt><trkpt lat="41.84410544367886" lon="13.826820078612647"><ele>1576.6666666666667</ele><time>2026-05-03T15:39:09.999Z</time></trkpt><trkpt lat="41.84404016700809" lon="13.826833793059404"><ele>1571.8333333333335</ele><time>2026-05-03T15:39:12.999Z</time></trkpt><trkpt lat="41.84403061090746" lon="13.826950868428845"><ele>1567.0</ele><time>2026-05-03T15:39:15.999Z</time></trkpt><trkpt lat="41.84400359882009" lon="13.827036796290558"><ele>1567.0000000000002</ele><time>2026-05-03T15:39:19.999Z</time></trkpt><trkpt lat="41.84393677283891" lon="13.827070592500421"><ele>1567.0</ele><time>2026-05-03T15:39:22.999Z</time></trkpt><trkpt lat="41.843870188429776" lon="13.827126982098374"><ele>1567.0</ele><time>2026-05-03T15:39:24.999Z</time></trkpt><trkpt lat="41.843792352151254" lon="13.82720240428145"><ele>1567.0</ele><time>2026-05-03T15:39:27.999Z</time></trkpt><trkpt lat="41.8437086278559" lon="13.827300775778777"><ele>1567.0000000000002</ele><time>2026-05-03T15:39:29.999Z</time></trkpt><trkpt lat="41.843645675025684" lon="13.827344671961981"><ele>1567.0</ele><time>2026-05-03T15:39:30.999Z</time></trkpt><trkpt lat="41.84359298593825" lon="13.827423600316758"><ele>1567.0000000000002</ele><time>2026-05-03T15:39:34Z</time></trkpt><trkpt lat="41.84354875185844" lon="13.827494051292218"><ele>1567.0</ele><time>2026-05-03T15:39:37Z</time></trkpt><trkpt lat="41.84350014809273" lon="13.827581218042232"><ele>1567.0</ele><time>2026-05-03T15:39:42Z</time></trkpt><trkpt lat="41.843482942951326" lon="13.827674052667396"><ele>1567.0</ele><time>2026-05-03T15:39:44Z</time></trkpt><trkpt lat="41.84343963911613" lon="13.82779539719008"><ele>1567.0000000000002</ele><time>2026-05-03T15:39:46Z</time></trkpt><trkpt lat="41.84340811921878" lon="13.82787973721563"><ele>1567.0</ele><time>2026-05-03T15:39:50Z</time></trkpt><trkpt lat="41.84334088911789" lon="13.827961844865152"><ele>1560.1666666666667</ele><time>2026-05-03T15:39:53Z</time></trkpt><trkpt lat="41.84329856902512" lon="13.828054454289425"><ele>1553.3333333333335</ele><time>2026-05-03T15:39:56Z</time></trkpt><trkpt lat="41.84329742916555" lon="13.828201538850553"><ele>1546.5</ele><time>2026-05-03T15:39:58Z</time></trkpt><trkpt lat="41.84330988433279" lon="13.828338370673036"><ele>1539.6666666666667</ele><time>2026-05-03T15:40:00Z</time></trkpt><trkpt lat="41.84329696918352" lon="13.828426874817167"><ele>1532.8333333333335</ele><time>2026-05-03T15:40:02Z</time></trkpt><trkpt lat="41.84325761747163" lon="13.828507789644133"><ele>1526.0</ele><time>2026-05-03T15:40:20Z</time></trkpt><trkpt lat="41.84325354467353" lon="13.828603045022222"><ele>1524.142857142857</ele><time>2026-05-03T15:40:24Z</time></trkpt><trkpt lat="41.84319627034815" lon="13.828697225438262"><ele>1522.2857142857142</ele><time>2026-05-03T15:40:28Z</time></trkpt><trkpt lat="41.84321568553492" lon="13.828784477779173"><ele>1520.4285714285716</ele><time>2026-05-03T15:40:30Z</time></trkpt><trkpt lat="41.843205929499774" lon="13.828874465583278"><ele>1518.5714285714284</ele><time>2026-05-03T15:40:32.999Z</time></trkpt><trkpt lat="41.843159053303125" lon="13.828940138998249"><ele>1516.7142857142858</ele><time>2026-05-03T15:40:50.999Z</time></trkpt><trkpt lat="41.84308252992605" lon="13.828955522340983"><ele>1514.857142857143</ele><time>2026-05-03T15:40:53.999Z</time></trkpt><trkpt lat="41.84301592723936" lon="13.82899062228983"><ele>1513.0</ele><time>2026-05-03T15:40:55.999Z</time></trkpt><trkpt lat="41.84294045325197" lon="13.82905357796915"><ele>1513.0</ele><time>2026-05-03T15:40:57.999Z</time></trkpt><trkpt lat="41.842909836043646" lon="13.829171846330315"><ele>1513.0</ele><time>2026-05-03T15:41:00.999Z</time></trkpt><trkpt lat="41.842869810876174" lon="13.82930965237317"><ele>1513.0</ele><time>2026-05-03T15:41:02.999Z</time></trkpt><trkpt lat="41.84280782783262" lon="13.829453851949198"><ele>1513.0</ele><time>2026-05-03T15:41:04.999Z</time></trkpt><trkpt lat="41.84274971942955" lon="13.829596053272713"><ele>1513.0</ele><time>2026-05-03T15:41:06.999Z</time></trkpt><trkpt lat="41.84268797964323" lon="13.829766867094694"><ele>1511.6000000000001</ele><time>2026-05-03T15:41:08.999Z</time></trkpt><trkpt lat="41.842654627120226" lon="13.82987567404587"><ele>1510.2</ele><time>2026-05-03T15:41:10.999Z</time></trkpt><trkpt lat="41.8425668774668" lon="13.82993552554249"><ele>1508.8</ele><time>2026-05-03T15:41:13.999Z</time></trkpt><trkpt lat="41.84246612710853" lon="13.829921543052595"><ele>1507.4</ele><time>2026-05-03T15:41:15.999Z</time></trkpt><trkpt lat="41.84238318035469" lon="13.829902426300153"><ele>1506.0</ele><time>2026-05-03T15:41:17.999Z</time></trkpt><trkpt lat="41.84229088520171" lon="13.82988668004983"><ele>1500.4</ele><time>2026-05-03T15:41:19.999Z</time></trkpt><trkpt lat="41.84223493920994" lon="13.829782790756896"><ele>1494.8</ele><time>2026-05-03T15:41:21.999Z</time></trkpt><trkpt lat="41.842167416205264" lon="13.82968168585439"><ele>1489.2</ele><time>2026-05-03T15:41:23.999Z</time></trkpt><trkpt lat="41.842090650114756" lon="13.82960394570855"><ele>1483.6000000000001</ele><time>2026-05-03T15:41:25.999Z</time></trkpt><trkpt lat="41.84201023954544" lon="13.829520986191811"><ele>1478.0</ele><time>2026-05-03T15:41:27.999Z</time></trkpt><trkpt lat="41.841937644251416" lon="13.829465683310309"><ele>1478.0</ele><time>2026-05-03T15:41:29.999Z</time></trkpt><trkpt lat="41.841875010103635" lon="13.829393341974438"><ele>1478.0</ele><time>2026-05-03T15:41:31.999Z</time></trkpt><trkpt lat="41.84181366805587" lon="13.829321939455014"><ele>1478.0</ele><time>2026-05-03T15:41:33.999Z</time></trkpt><trkpt lat="41.841752629375485" lon="13.829226027726003"><ele>1478.0</ele><time>2026-05-03T15:41:35.999Z</time></trkpt><trkpt lat="41.84167602215291" lon="13.82912866572348"><ele>1478.0</ele><time>2026-05-03T15:41:38Z</time></trkpt><trkpt lat="41.84161428016178" lon="13.829094245861688"><ele>1478.0</ele><time>2026-05-03T15:41:39Z</time></trkpt><trkpt lat="41.84154634840846" lon="13.829017801356706"><ele>1477.8333333333335</ele><time>2026-05-03T15:41:40Z</time></trkpt><trkpt lat="41.84148348401169" lon="13.828934445078701"><ele>1477.6666666666667</ele><time>2026-05-03T15:41:41Z</time></trkpt><trkpt lat="41.84142726310702" lon="13.82884247233267"><ele>1477.5</ele><time>2026-05-03T15:41:42Z</time></trkpt><trkpt lat="41.841371744932836" lon="13.828752317922476"><ele>1477.3333333333333</ele><time>2026-05-03T15:41:43Z</time></trkpt><trkpt lat="41.841316710551226" lon="13.82866916042136"><ele>1477.1666666666665</ele><time>2026-05-03T15:41:44Z</time></trkpt><trkpt lat="41.84125357423772" lon="13.82858508892606"><ele>1477.0</ele><time>2026-05-03T15:41:45Z</time></trkpt><trkpt lat="41.84118930280118" lon="13.828507394154858"><ele>1477.1666666666665</ele><time>2026-05-03T15:41:46Z</time></trkpt><trkpt lat="41.841125387234754" lon="13.828415573160415"><ele>1477.3333333333333</ele><time>2026-05-03T15:41:47Z</time></trkpt><trkpt lat="41.84106624347017" lon="13.828321386238866"><ele>1477.5</ele><time>2026-05-03T15:41:48Z</time></trkpt><trkpt lat="41.84100528882209" lon="13.828223404161399"><ele>1477.6666666666667</ele><time>2026-05-03T15:41:49Z</time></trkpt><trkpt lat="41.84094463330633" lon="13.828137820372689"><ele>1477.8333333333335</ele><time>2026-05-03T15:41:50Z</time></trkpt><trkpt lat="41.840893235657774" lon="13.828063514869278"><ele>1478.0</ele><time>2026-05-03T15:41:51Z</time></trkpt><trkpt lat="41.84081960334197" lon="13.827972392764403"><ele>1475.8333333333335</ele><time>2026-05-03T15:41:52Z</time></trkpt><trkpt lat="41.84075233670437" lon="13.827892647634561"><ele>1473.6666666666667</ele><time>2026-05-03T15:41:53Z</time></trkpt><trkpt lat="41.840684152560485" lon="13.82783789399803"><ele>1471.5</ele><time>2026-05-03T15:41:54Z</time></trkpt><trkpt lat="41.84061432636421" lon="13.827801451511096"><ele>1469.3333333333333</ele><time>2026-05-03T15:41:55Z</time></trkpt><trkpt lat="41.84054030273218" lon="13.827757220366413"><ele>1467.1666666666665</ele><time>2026-05-03T15:41:56Z</time></trkpt><trkpt lat="41.84046991744027" lon="13.827721404001464"><ele>1465.0</ele><time>2026-05-03T15:41:57Z</time></trkpt><trkpt lat="41.840401374184054" lon="13.827670732951896"><ele>1465.1666666666665</ele><time>2026-05-03T15:41:58Z</time></trkpt><trkpt lat="41.840316319238035" lon="13.82762379500137"><ele>1465.3333333333333</ele><time>2026-05-03T15:41:59Z</time></trkpt><trkpt lat="41.84024065487184" lon="13.827611101803164"><ele>1465.5</ele><time>2026-05-03T15:42:00Z</time></trkpt><trkpt lat="41.8401733080044" lon="13.827636665426626"><ele>1465.6666666666667</ele><time>2026-05-03T15:42:01Z</time></trkpt><trkpt lat="41.84007428096185" lon="13.827624393959729"><ele>1465.8333333333335</ele><time>2026-05-03T15:42:03Z</time></trkpt><trkpt lat="41.83999526553681" lon="13.82760655947427"><ele>1466.0</ele><time>2026-05-03T15:42:05Z</time></trkpt><trkpt lat="41.83991213116611" lon="13.827609599327435"><ele>1463.3333333333335</ele><time>2026-05-03T15:42:07Z</time></trkpt><trkpt lat="41.83985019542659" lon="13.82759271332846"><ele>1460.6666666666667</ele><time>2026-05-03T15:42:08Z</time></trkpt><trkpt lat="41.83977623362557" lon="13.827569534659874"><ele>1458.0</ele><time>2026-05-03T15:42:09Z</time></trkpt><trkpt lat="41.8397036269627" lon="13.827519375771876"><ele>1455.3333333333333</ele><time>2026-05-03T15:42:11Z</time></trkpt><trkpt lat="41.839681820632315" lon="13.827417151676439"><ele>1452.6666666666665</ele><time>2026-05-03T15:42:13Z</time></trkpt><trkpt lat="41.839647272746376" lon="13.8272998731099"><ele>1450.0</ele><time>2026-05-03T15:42:14Z</time></trkpt><trkpt lat="41.83961731598892" lon="13.827220538505292"><ele>1450.0</ele><time>2026-05-03T15:42:15Z</time></trkpt><trkpt lat="41.83957022963744" lon="13.827099054592065"><ele>1450.0</ele><time>2026-05-03T15:42:17Z</time></trkpt><trkpt lat="41.83952065169657" lon="13.826940293045649"><ele>1450.0</ele><time>2026-05-03T15:42:19Z</time></trkpt><trkpt lat="41.83946523653022" lon="13.826883877365992"><ele>1450.0</ele><time>2026-05-03T15:42:20Z</time></trkpt><trkpt lat="41.83939633292483" lon="13.826850115909377"><ele>1450.0</ele><time>2026-05-03T15:42:21Z</time></trkpt><trkpt lat="41.83932737712912" lon="13.826831130364235"><ele>1450.0</ele><time>2026-05-03T15:42:22Z</time></trkpt><trkpt lat="41.83925569575991" lon="13.826787996691216"><ele>1448.4</ele><time>2026-05-03T15:42:23Z</time></trkpt><trkpt lat="41.83916156065104" lon="13.826757873102128"><ele>1446.8</ele><time>2026-05-03T15:42:24Z</time></trkpt><trkpt lat="41.83907614122758" lon="13.826719715608254"><ele>1445.1999999999998</ele><time>2026-05-03T15:42:25Z</time></trkpt><trkpt lat="41.838998710552175" lon="13.826657662544239"><ele>1443.6</ele><time>2026-05-03T15:42:26Z</time></trkpt><trkpt lat="41.83893923591846" lon="13.826572334389489"><ele>1442.0</ele><time>2026-05-03T15:42:27Z</time></trkpt><trkpt lat="41.83886457089157" lon="13.826477539870757"><ele>1442.0</ele><time>2026-05-03T15:42:28Z</time></trkpt><trkpt lat="41.83879277293615" lon="13.826393164745214"><ele>1442.0</ele><time>2026-05-03T15:42:29Z</time></trkpt><trkpt lat="41.838704718618736" lon="13.82634471745262"><ele>1442.0</ele><time>2026-05-03T15:42:30Z</time></trkpt><trkpt lat="41.8386072568083" lon="13.826286676677292"><ele>1442.0</ele><time>2026-05-03T15:42:31Z</time></trkpt><trkpt lat="41.83851586208672" lon="13.826217166349057"><ele>1442.0</ele><time>2026-05-03T15:42:32Z</time></trkpt><trkpt lat="41.83842868848837" lon="13.82615850403735"><ele>1442.1666666666667</ele><time>2026-05-03T15:42:33Z</time></trkpt><trkpt lat="41.83836021674066" lon="13.826106737604226"><ele>1442.3333333333335</ele><time>2026-05-03T15:42:34Z</time></trkpt><trkpt lat="41.83828912489743" lon="13.82609089493663"><ele>1442.5</ele><time>2026-05-03T15:42:35Z</time></trkpt><trkpt lat="41.83820787862806" lon="13.826063737380661"><ele>1442.6666666666667</ele><time>2026-05-03T15:42:36Z</time></trkpt><trkpt lat="41.83812789038404" lon="13.826026885545708"><ele>1442.8333333333333</ele><time>2026-05-03T15:42:37Z</time></trkpt><trkpt lat="41.838048386354615" lon="13.82597568908325"><ele>1443.0</ele><time>2026-05-03T15:42:38Z</time></trkpt><trkpt lat="41.837987719308224" lon="13.825910909325026"><ele>1443.0</ele><time>2026-05-03T15:42:39Z</time></trkpt><trkpt lat="41.83791988369938" lon="13.825855732037239"><ele>1443.0</ele><time>2026-05-03T15:42:40Z</time></trkpt><trkpt lat="41.837834944667016" lon="13.825839578029708"><ele>1443.0</ele><time>2026-05-03T15:42:40.999Z</time></trkpt><trkpt lat="41.83774611510578" lon="13.82578478069621"><ele>1443.0</ele><time>2026-05-03T15:42:41.999Z</time></trkpt><trkpt lat="41.83767952982691" lon="13.825736672521916"><ele>1443.0</ele><time>2026-05-03T15:42:42.999Z</time></trkpt><trkpt lat="41.83763080677805" lon="13.82567230114351"><ele>1443.0</ele><time>2026-05-03T15:42:43.999Z</time></trkpt><trkpt lat="41.83758046501781" lon="13.825620566906798"><ele>1441.6000000000001</ele><time>2026-05-03T15:42:44.999Z</time></trkpt><trkpt lat="41.8374731243205" lon="13.82555466990261"><ele>1440.2</ele><time>2026-05-03T15:42:46.999Z</time></trkpt><trkpt lat="41.83737547251032" lon="13.825478780325565"><ele>1438.8</ele><time>2026-05-03T15:42:48.999Z</time></trkpt><trkpt lat="41.837303728108054" lon="13.82538476712385"><ele>1437.4</ele><time>2026-05-03T15:42:50.999Z</time></trkpt><trkpt lat="41.837210253089985" lon="13.8253171128732"><ele>1436.0</ele><time>2026-05-03T15:42:52.999Z</time></trkpt><trkpt lat="41.83713858695676" lon="13.825250973204955"><ele>1436.0</ele><time>2026-05-03T15:42:54.999Z</time></trkpt><trkpt lat="41.83705624622336" lon="13.82519165794338"><ele>1436.0</ele><time>2026-05-03T15:42:56.999Z</time></trkpt><trkpt lat="41.83696434253708" lon="13.825142251042823"><ele>1436.0</ele><time>2026-05-03T15:42:58.999Z</time></trkpt><trkpt lat="41.83689128891556" lon="13.825126005645808"><ele>1436.0</ele><time>2026-05-03T15:43:00.999Z</time></trkpt><trkpt lat="41.836853630614414" lon="13.825034440599682"><ele>1436.0</ele><time>2026-05-03T15:43:02.999Z</time></trkpt><trkpt lat="41.836820444336595" lon="13.824953010501833"><ele>1436.0</ele><time>2026-05-03T15:43:04.999Z</time></trkpt><trkpt lat="41.83676416485608" lon="13.824901729116473"><ele>1434.3333333333335</ele><time>2026-05-03T15:43:06.999Z</time></trkpt><trkpt lat="41.83669363782152" lon="13.824848172856157"><ele>1432.6666666666667</ele><time>2026-05-03T15:43:08.999Z</time></trkpt><trkpt lat="41.8366386788176" lon="13.82477556625131"><ele>1431.0</ele><time>2026-05-03T15:43:10.999Z</time></trkpt><trkpt lat="41.8365686803572" lon="13.824722327114534"><ele>1429.3333333333333</ele><time>2026-05-03T15:43:12.999Z</time></trkpt><trkpt lat="41.83648119381458" lon="13.824724659846837"><ele>1427.6666666666665</ele><time>2026-05-03T15:43:14.999Z</time></trkpt><trkpt lat="41.83641266351674" lon="13.82472022720121"><ele>1426.0</ele><time>2026-05-03T15:43:16.999Z</time></trkpt><trkpt lat="41.83634691572766" lon="13.824616290215817"><ele>1426.0</ele><time>2026-05-03T15:43:18.999Z</time></trkpt><trkpt lat="41.836274581287995" lon="13.824546900813045"><ele>1426.0</ele><time>2026-05-03T15:43:20.999Z</time></trkpt><trkpt lat="41.836214402348034" lon="13.824470117912107"><ele>1426.0</ele><time>2026-05-03T15:43:22.999Z</time></trkpt><trkpt lat="41.836135273377856" lon="13.82442249329825"><ele>1426.0</ele><time>2026-05-03T15:43:24.999Z</time></trkpt><trkpt lat="41.83607522222099" lon="13.824382109751959"><ele>1426.0</ele><time>2026-05-03T15:43:26.999Z</time></trkpt><trkpt lat="41.836018374182366" lon="13.824311763612114"><ele>1426.0</ele><time>2026-05-03T15:43:30.999Z</time></trkpt><trkpt lat="41.83596784222696" lon="13.824256029349012"><ele>1425.5714285714284</ele><time>2026-05-03T15:43:33.999Z</time></trkpt><trkpt lat="41.835913292956334" lon="13.824181459437229"><ele>1425.1428571428573</ele><time>2026-05-03T15:43:37.999Z</time></trkpt><trkpt lat="41.8358659531639" lon="13.824119568646525"><ele>1424.7142857142858</ele><time>2026-05-03T15:43:41.999Z</time></trkpt><trkpt lat="41.83582223537179" lon="13.824054734247689"><ele>1424.2857142857142</ele><time>2026-05-03T15:43:49Z</time></trkpt><trkpt lat="41.83577108536973" lon="13.824004595357712"><ele>1423.8571428571427</ele><time>2026-05-03T15:43:52Z</time></trkpt><trkpt lat="41.83569008618029" lon="13.823960351035346"><ele>1423.4285714285716</ele><time>2026-05-03T15:43:54Z</time></trkpt><trkpt lat="41.83561904847669" lon="13.823921842815354"><ele>1423.0</ele><time>2026-05-03T15:43:56Z</time></trkpt><trkpt lat="41.835545928149685" lon="13.823865187486103"><ele>1423.0</ele><time>2026-05-03T15:43:58Z</time></trkpt><trkpt lat="41.835472592344864" lon="13.823760536302242"><ele>1423.0</ele><time>2026-05-03T15:44:00Z</time></trkpt><trkpt lat="41.835401046837994" lon="13.82365223568948"><ele>1423.0</ele><time>2026-05-03T15:44:02Z</time></trkpt><trkpt lat="41.83531295694328" lon="13.823625754808331"><ele>1423.0</ele><time>2026-05-03T15:44:04Z</time></trkpt><trkpt lat="41.83522539497844" lon="13.82356924955969"><ele>1423.0</ele><time>2026-05-03T15:44:07Z</time></trkpt><trkpt lat="41.83516246233195" lon="13.823517172496482"><ele>1422.0</ele><time>2026-05-03T15:44:09Z</time></trkpt><trkpt lat="41.83509152759368" lon="13.823468773894994"><ele>1421.0</ele><time>2026-05-03T15:44:11Z</time></trkpt><trkpt lat="41.83500978723466" lon="13.823441774240315"><ele>1420.0</ele><time>2026-05-03T15:44:14Z</time></trkpt><trkpt lat="41.83492344475559" lon="13.82343612811634"><ele>1419.0</ele><time>2026-05-03T15:44:17Z</time></trkpt><trkpt lat="41.83484826629996" lon="13.823385159043148"><ele>1418.0</ele><time>2026-05-03T15:44:19Z</time></trkpt><trkpt lat="41.83474009406066" lon="13.82337426019828"><ele>1417.0</ele><time>2026-05-03T15:44:21Z</time></trkpt><trkpt lat="41.83463040186358" lon="13.82336245254392"><ele>1417.0</ele><time>2026-05-03T15:44:23Z</time></trkpt><trkpt lat="41.83452261350008" lon="13.823309635733263"><ele>1417.0</ele><time>2026-05-03T15:44:25Z</time></trkpt><trkpt lat="41.83441342678216" lon="13.82325740360008"><ele>1417.0</ele><time>2026-05-03T15:44:27Z</time></trkpt><trkpt lat="41.83430688058305" lon="13.823177733660565"><ele>1417.0</ele><time>2026-05-03T15:44:29Z</time></trkpt><trkpt lat="41.83425721404723" lon="13.823122936303713"><ele>1417.0</ele><time>2026-05-03T15:44:30Z</time></trkpt><trkpt lat="41.83415643775217" lon="13.823042694977882"><ele>1417.1999999999998</ele><time>2026-05-03T15:44:32Z</time></trkpt><trkpt lat="41.83405289004601" lon="13.822984728167505"><ele>1417.4</ele><time>2026-05-03T15:44:34Z</time></trkpt><trkpt lat="41.83399632688617" lon="13.822944922091907"><ele>1417.6</ele><time>2026-05-03T15:44:35Z</time></trkpt><trkpt lat="41.83390163256311" lon="13.822857268744464"><ele>1417.8000000000002</ele><time>2026-05-03T15:44:37Z</time></trkpt><trkpt lat="41.833826829056996" lon="13.822743924982971"><ele>1418.0</ele><time>2026-05-03T15:44:39Z</time></trkpt><trkpt lat="41.83374344732062" lon="13.822641845140815"><ele>1418.0</ele><time>2026-05-03T15:44:40.999Z</time></trkpt><trkpt lat="41.83364531799814" lon="13.822567056023937"><ele>1418.0</ele><time>2026-05-03T15:44:42.999Z</time></trkpt><trkpt lat="41.833581677676996" lon="13.822543699490693"><ele>1418.0</ele><time>2026-05-03T15:44:43.999Z</time></trkpt><trkpt lat="41.83347482007383" lon="13.822469399988547"><ele>1418.0</ele><time>2026-05-03T15:44:45.999Z</time></trkpt><trkpt lat="41.833437497447" lon="13.822393403279216"><ele>1418.0</ele><time>2026-05-03T15:44:46.999Z</time></trkpt><trkpt lat="41.83339976340494" lon="13.822321374069084"><ele>1418.0</ele><time>2026-05-03T15:44:47.999Z</time></trkpt><trkpt lat="41.83332332452653" lon="13.822218308091104"><ele>1415.8000000000002</ele><time>2026-05-03T15:44:49.999Z</time></trkpt><trkpt lat="41.833219413886816" lon="13.822136277896151"><ele>1413.6</ele><time>2026-05-03T15:44:51.999Z</time></trkpt><trkpt lat="41.83313389463352" lon="13.822031435812436"><ele>1411.4</ele><time>2026-05-03T15:44:53.999Z</time></trkpt><trkpt lat="41.83304106736691" lon="13.82193361380682"><ele>1409.1999999999998</ele><time>2026-05-03T15:44:55.999Z</time></trkpt><trkpt lat="41.83298597630794" lon="13.821888757119472"><ele>1407.0</ele><time>2026-05-03T15:44:56.999Z</time></trkpt><trkpt lat="41.832928508531076" lon="13.821851826323346"><ele>1406.4285714285713</ele><time>2026-05-03T15:44:57.999Z</time></trkpt><trkpt lat="41.83287100395771" lon="13.821804228452132"><ele>1405.857142857143</ele><time>2026-05-03T15:44:58.999Z</time></trkpt><trkpt lat="41.83282467511979" lon="13.821727595161349"><ele>1405.2857142857142</ele><time>2026-05-03T15:44:59.999Z</time></trkpt><trkpt lat="41.83277277944166" lon="13.821673732963312"><ele>1404.7142857142858</ele><time>2026-05-03T15:45:00.999Z</time></trkpt><trkpt lat="41.83271337747568" lon="13.821638431481897"><ele>1404.142857142857</ele><time>2026-05-03T15:45:01.999Z</time></trkpt><trkpt lat="41.83265853548706" lon="13.821594988932699"><ele>1403.5714285714284</ele><time>2026-05-03T15:45:02.999Z</time></trkpt><trkpt lat="41.832602893602605" lon="13.82154584504544"><ele>1403.0</ele><time>2026-05-03T15:45:03.999Z</time></trkpt><trkpt lat="41.83249560466934" lon="13.821491080124032"><ele>1402.9999999999998</ele><time>2026-05-03T15:45:05.999Z</time></trkpt><trkpt lat="41.83244362049583" lon="13.821441349452586"><ele>1403.0</ele><time>2026-05-03T15:45:06.999Z</time></trkpt><trkpt lat="41.83238962064965" lon="13.821384950302892"><ele>1403.0</ele><time>2026-05-03T15:45:07.999Z</time></trkpt><trkpt lat="41.832335695288876" lon="13.821326265032939"><ele>1403.0</ele><time>2026-05-03T15:45:08.999Z</time></trkpt><trkpt lat="41.832282590143556" lon="13.821263798083049"><ele>1403.0</ele><time>2026-05-03T15:45:09.999Z</time></trkpt><trkpt lat="41.83223582281715" lon="13.821206877048514"><ele>1402.9999999999998</ele><time>2026-05-03T15:45:10.999Z</time></trkpt><trkpt lat="41.83219510725299" lon="13.82113874896388"><ele>1403.0</ele><time>2026-05-03T15:45:11.999Z</time></trkpt><trkpt lat="41.832144573351364" lon="13.82108348487237"><ele>1403.0</ele><time>2026-05-03T15:45:12.999Z</time></trkpt><trkpt lat="41.83208134268507" lon="13.821020227974032"><ele>1403.0</ele><time>2026-05-03T15:45:13.999Z</time></trkpt><trkpt lat="41.83200449201788" lon="13.820973788719222"><ele>1403.0</ele><time>2026-05-03T15:45:14.999Z</time></trkpt><trkpt lat="41.83194420936862" lon="13.820911802321685"><ele>1403.0</ele><time>2026-05-03T15:45:15.999Z</time></trkpt><trkpt lat="41.83189249825538" lon="13.820854627328615"><ele>1403.0</ele><time>2026-05-03T15:45:16.999Z</time></trkpt><trkpt lat="41.83184326792447" lon="13.82078054318606"><ele>1403.0</ele><time>2026-05-03T15:45:17.999Z</time></trkpt><trkpt lat="41.831782814219785" lon="13.82071800784327"><ele>1400.6666666666667</ele><time>2026-05-03T15:45:18.999Z</time></trkpt><trkpt lat="41.831714618726004" lon="13.820667545760502"><ele>1398.3333333333335</ele><time>2026-05-03T15:45:19.999Z</time></trkpt><trkpt lat="41.831633658332514" lon="13.820649455938879"><ele>1396.0</ele><time>2026-05-03T15:45:20.999Z</time></trkpt><trkpt lat="41.83154220395943" lon="13.820645352513253"><ele>1393.6666666666667</ele><time>2026-05-03T15:45:21.999Z</time></trkpt><trkpt lat="41.831456224241016" lon="13.820651273367117"><ele>1391.3333333333333</ele><time>2026-05-03T15:45:22.999Z</time></trkpt><trkpt lat="41.83137915639232" lon="13.820626691733803"><ele>1389.0</ele><time>2026-05-03T15:45:23.999Z</time></trkpt><trkpt lat="41.831295416111814" lon="13.820609339407394"><ele>1389.0</ele><time>2026-05-03T15:45:24.999Z</time></trkpt><trkpt lat="41.8312039060534" lon="13.82057701839803"><ele>1389.0</ele><time>2026-05-03T15:45:25.999Z</time></trkpt><trkpt lat="41.831129806678426" lon="13.82054388252708"><ele>1389.0</ele><time>2026-05-03T15:45:26.999Z</time></trkpt><trkpt lat="41.83105705156486" lon="13.820492687931587"><ele>1389.0</ele><time>2026-05-03T15:45:27.999Z</time></trkpt><trkpt lat="41.830982969255736" lon="13.820435273634153"><ele>1389.0</ele><time>2026-05-03T15:45:28.999Z</time></trkpt><trkpt lat="41.83091723207356" lon="13.820388122616865"><ele>1389.0</ele><time>2026-05-03T15:45:29.999Z</time></trkpt><trkpt lat="41.8308438753976" lon="13.820320355722147"><ele>1388.8333333333333</ele><time>2026-05-03T15:45:30.999Z</time></trkpt><trkpt lat="41.83077583498913" lon="13.82023931051972"><ele>1388.6666666666667</ele><time>2026-05-03T15:45:31.999Z</time></trkpt><trkpt lat="41.8306928213854" lon="13.820183219085063"><ele>1388.5</ele><time>2026-05-03T15:45:32.999Z</time></trkpt><trkpt lat="41.83061459855977" lon="13.820132173821808"><ele>1388.3333333333335</ele><time>2026-05-03T15:45:33.999Z</time></trkpt><trkpt lat="41.830538165204764" lon="13.820085466260762"><ele>1388.1666666666667</ele><time>2026-05-03T15:45:34.999Z</time></trkpt><trkpt lat="41.83046162418867" lon="13.820048839131173"><ele>1388.0</ele><time>2026-05-03T15:45:35.999Z</time></trkpt><trkpt lat="41.830387132588854" lon="13.82003020136172"><ele>1388.0</ele><time>2026-05-03T15:45:36.999Z</time></trkpt><trkpt lat="41.830267932088965" lon="13.819989618978623"><ele>1388.0</ele><time>2026-05-03T15:45:38.999Z</time></trkpt><trkpt lat="41.83018684788086" lon="13.81995994848651"><ele>1388.0</ele><time>2026-05-03T15:45:39.999Z</time></trkpt><trkpt lat="41.83011954183496" lon="13.819897561953363"><ele>1388.0</ele><time>2026-05-03T15:45:40.999Z</time></trkpt><trkpt lat="41.83006410705986" lon="13.819828690774015"><ele>1388.0</ele><time>2026-05-03T15:45:41.999Z</time></trkpt><trkpt lat="41.82999171010242" lon="13.819778569252065"><ele>1388.0</ele><time>2026-05-03T15:45:42.999Z</time></trkpt><trkpt lat="41.82992034031942" lon="13.819736314865462"><ele>1386.6666666666667</ele><time>2026-05-03T15:45:43.999Z</time></trkpt><trkpt lat="41.82985963049027" lon="13.819670475661177"><ele>1385.3333333333335</ele><time>2026-05-03T15:45:44.999Z</time></trkpt><trkpt lat="41.82980017286366" lon="13.819617780067713"><ele>1384.0</ele><time>2026-05-03T15:45:45.999Z</time></trkpt><trkpt lat="41.829733888030994" lon="13.81956200907259"><ele>1382.6666666666667</ele><time>2026-05-03T15:45:46.999Z</time></trkpt><trkpt lat="41.82966664821799" lon="13.819517148062003"><ele>1381.3333333333333</ele><time>2026-05-03T15:45:47.999Z</time></trkpt><trkpt lat="41.82960510846752" lon="13.81945559001266"><ele>1380.0</ele><time>2026-05-03T15:45:48.999Z</time></trkpt><trkpt lat="41.8295439319196" lon="13.819395278310841"><ele>1380.0</ele><time>2026-05-03T15:45:50Z</time></trkpt><trkpt lat="41.82948049452233" lon="13.819343188679143"><ele>1380.0</ele><time>2026-05-03T15:45:51Z</time></trkpt><trkpt lat="41.829426973749875" lon="13.819283937797298"><ele>1380.0</ele><time>2026-05-03T15:45:52Z</time></trkpt><trkpt lat="41.829367330436995" lon="13.819246021711889"><ele>1380.0</ele><time>2026-05-03T15:45:53Z</time></trkpt><trkpt lat="41.82931496942446" lon="13.819187671711822"><ele>1380.0</ele><time>2026-05-03T15:45:54Z</time></trkpt><trkpt lat="41.82925631227767" lon="13.819113529944756"><ele>1380.0</ele><time>2026-05-03T15:45:55Z</time></trkpt><trkpt lat="41.82919096314258" lon="13.819050269250098"><ele>1380.0</ele><time>2026-05-03T15:45:56Z</time></trkpt><trkpt lat="41.82912629889656" lon="13.818990095949658"><ele>1377.5</ele><time>2026-05-03T15:45:57Z</time></trkpt><trkpt lat="41.82905672464201" lon="13.81893395262041"><ele>1375.0</ele><time>2026-05-03T15:45:58Z</time></trkpt><trkpt lat="41.82898033614148" lon="13.81889364465062"><ele>1372.5</ele><time>2026-05-03T15:45:59Z</time></trkpt><trkpt lat="41.828900917096135" lon="13.818867612079888"><ele>1370.0</ele><time>2026-05-03T15:46:00Z</time></trkpt><trkpt lat="41.82882177171511" lon="13.81884355598264"><ele>1367.5</ele><time>2026-05-03T15:46:01Z</time></trkpt><trkpt lat="41.82875033011186" lon="13.818819837336019"><ele>1365.0</ele><time>2026-05-03T15:46:02Z</time></trkpt><trkpt lat="41.82867367377424" lon="13.818784785234119"><ele>1365.0</ele><time>2026-05-03T15:46:03Z</time></trkpt><trkpt lat="41.82860171513051" lon="13.81874045282872"><ele>1365.0</ele><time>2026-05-03T15:46:04Z</time></trkpt><trkpt lat="41.828535872266606" lon="13.818682443581105"><ele>1365.0</ele><time>2026-05-03T15:46:05Z</time></trkpt><trkpt lat="41.828467724428194" lon="13.818629826904248"><ele>1365.0</ele><time>2026-05-03T15:46:06Z</time></trkpt><trkpt lat="41.82839566974922" lon="13.818569314164854"><ele>1365.0</ele><time>2026-05-03T15:46:07Z</time></trkpt><trkpt lat="41.82833283422718" lon="13.81850777876645"><ele>1365.0</ele><time>2026-05-03T15:46:08Z</time></trkpt><trkpt lat="41.82827327224307" lon="13.818448595248126"><ele>1364.3333333333333</ele><time>2026-05-03T15:46:09Z</time></trkpt><trkpt lat="41.82821346848749" lon="13.818380674967974"><ele>1363.6666666666667</ele><time>2026-05-03T15:46:10Z</time></trkpt><trkpt lat="41.828166988387785" lon="13.818290591163622"><ele>1363.0</ele><time>2026-05-03T15:46:11Z</time></trkpt><trkpt lat="41.82813833043548" lon="13.818187375156278"><ele>1362.3333333333335</ele><time>2026-05-03T15:46:12Z</time></trkpt><trkpt lat="41.82812269962894" lon="13.818078306838755"><ele>1361.6666666666667</ele><time>2026-05-03T15:46:13Z</time></trkpt><trkpt lat="41.82809396534255" lon="13.817974515567414"><ele>1361.0</ele><time>2026-05-03T15:46:14Z</time></trkpt><trkpt lat="41.828083531970535" lon="13.817859923369893"><ele>1361.0</ele><time>2026-05-03T15:46:15Z</time></trkpt><trkpt lat="41.82803793153017" lon="13.817759807154335"><ele>1361.0</ele><time>2026-05-03T15:46:16Z</time></trkpt><trkpt lat="41.82798233542454" lon="13.817658452340574"><ele>1361.0</ele><time>2026-05-03T15:46:17Z</time></trkpt><trkpt lat="41.82793014660536" lon="13.817561111889113"><ele>1361.0</ele><time>2026-05-03T15:46:18Z</time></trkpt><trkpt lat="41.8278808308172" lon="13.817468338657191"><ele>1361.0</ele><time>2026-05-03T15:46:19Z</time></trkpt><trkpt lat="41.82782958174061" lon="13.81736317742507"><ele>1361.0</ele><time>2026-05-03T15:46:20Z</time></trkpt><trkpt lat="41.82779273883095" lon="13.81725046475225"><ele>1362.1999999999998</ele><time>2026-05-03T15:46:21Z</time></trkpt><trkpt lat="41.82774490072258" lon="13.817145326582096"><ele>1363.3999999999999</ele><time>2026-05-03T15:46:22Z</time></trkpt><trkpt lat="41.8276906509993" lon="13.81703793707725"><ele>1364.6</ele><time>2026-05-03T15:46:23Z</time></trkpt><trkpt lat="41.82762889725018" lon="13.816945471266626"><ele>1365.8</ele><time>2026-05-03T15:46:24Z</time></trkpt><trkpt lat="41.82755911896472" lon="13.816877115586545"><ele>1367.0</ele><time>2026-05-03T15:46:25Z</time></trkpt><trkpt lat="41.827475695925344" lon="13.816833255984688"><ele>1365.0</ele><time>2026-05-03T15:46:26Z</time></trkpt><trkpt lat="41.82739746743154" lon="13.81676312089043"><ele>1363.0</ele><time>2026-05-03T15:46:27Z</time></trkpt><trkpt lat="41.82733040333143" lon="13.816673791163396"><ele>1361.0</ele><time>2026-05-03T15:46:28Z</time></trkpt><trkpt lat="41.82725715816955" lon="13.816624941717375"><ele>1359.0</ele><time>2026-05-03T15:46:29Z</time></trkpt><trkpt lat="41.827180039897044" lon="13.816587027601338"><ele>1357.0</ele><time>2026-05-03T15:46:30Z</time></trkpt><trkpt lat="41.8271096949336" lon="13.816522082487298"><ele>1355.0</ele><time>2026-05-03T15:46:31Z</time></trkpt><trkpt lat="41.8270283626522" lon="13.81643651602177"><ele>1355.0</ele><time>2026-05-03T15:46:32Z</time></trkpt><trkpt lat="41.826953533442534" lon="13.816345904505408"><ele>1355.0</ele><time>2026-05-03T15:46:33Z</time></trkpt><trkpt lat="41.82685263286679" lon="13.81624352950599"><ele>1355.0</ele><time>2026-05-03T15:46:34Z</time></trkpt><trkpt lat="41.82677780760564" lon="13.816164837072606"><ele>1355.0</ele><time>2026-05-03T15:46:35Z</time></trkpt><trkpt lat="41.8267103989337" lon="13.816079501492407"><ele>1355.0</ele><time>2026-05-03T15:46:36Z</time></trkpt><trkpt lat="41.82664963268684" lon="13.815970037393189"><ele>1353.4</ele><time>2026-05-03T15:46:37Z</time></trkpt><trkpt lat="41.82660903379277" lon="13.815860436974951"><ele>1351.8</ele><time>2026-05-03T15:46:38Z</time></trkpt><trkpt lat="41.826570811602146" lon="13.815750831614064"><ele>1350.1999999999998</ele><time>2026-05-03T15:46:39Z</time></trkpt><trkpt lat="41.826506757249945" lon="13.815630127801967"><ele>1348.6</ele><time>2026-05-03T15:46:40Z</time></trkpt><trkpt lat="41.82645387381323" lon="13.815517707865391"><ele>1347.0</ele><time>2026-05-03T15:46:41Z</time></trkpt><trkpt lat="41.82643504322366" lon="13.815425729145536"><ele>1347.0</ele><time>2026-05-03T15:46:42Z</time></trkpt><trkpt lat="41.82645666812923" lon="13.815244651528758"><ele>1347.0</ele><time>2026-05-03T15:46:42.999Z</time></trkpt><trkpt lat="41.82646175003402" lon="13.815127137898862"><ele>1347.0</ele><time>2026-05-03T15:46:43.999Z</time></trkpt><trkpt lat="41.826461780824886" lon="13.815017616210618"><ele>1347.0</ele><time>2026-05-03T15:46:44.999Z</time></trkpt><trkpt lat="41.82646509244219" lon="13.814842472946232"><ele>1347.0</ele><time>2026-05-03T15:46:45.999Z</time></trkpt><trkpt lat="41.8264820831988" lon="13.814706332189708"><ele>1344.8333333333333</ele><time>2026-05-03T15:46:46.999Z</time></trkpt><trkpt lat="41.82651795280845" lon="13.814589592488078"><ele>1342.6666666666667</ele><time>2026-05-03T15:46:47.999Z</time></trkpt><trkpt lat="41.82654395930606" lon="13.814478755924034"><ele>1340.5</ele><time>2026-05-03T15:46:48.999Z</time></trkpt><trkpt lat="41.826574717657145" lon="13.814358461641525"><ele>1338.3333333333335</ele><time>2026-05-03T15:46:49.999Z</time></trkpt><trkpt lat="41.82659756586952" lon="13.814255670428922"><ele>1336.1666666666667</ele><time>2026-05-03T15:46:50.999Z</time></trkpt><trkpt lat="41.826618355590625" lon="13.814155731560522"><ele>1334.0</ele><time>2026-05-03T15:46:51.999Z</time></trkpt><trkpt lat="41.826660712527065" lon="13.814044905783556"><ele>1328.0</ele><time>2026-05-03T15:46:52.999Z</time></trkpt><trkpt lat="41.826703854671365" lon="13.81390616822945"><ele>1322.0</ele><time>2026-05-03T15:46:53.999Z</time></trkpt><trkpt lat="41.82673687434895" lon="13.813776013627642"><ele>1316.0</ele><time>2026-05-03T15:46:54.999Z</time></trkpt><trkpt lat="41.82676175243543" lon="13.813646663957218"><ele>1310.0</ele><time>2026-05-03T15:46:55.999Z</time></trkpt><trkpt lat="41.826767389831396" lon="13.813499939816916"><ele>1304.0</ele><time>2026-05-03T15:46:56.999Z</time></trkpt><trkpt lat="41.82675753972862" lon="13.81335351335"><ele>1300.6</ele><time>2026-05-03T15:46:57.999Z</time></trkpt><trkpt lat="41.82673585557023" lon="13.813212584897833"><ele>1297.2</ele><time>2026-05-03T15:46:58.999Z</time></trkpt><trkpt lat="41.82671492283186" lon="13.813098369063988"><ele>1293.8</ele><time>2026-05-03T15:46:59.999Z</time></trkpt><trkpt lat="41.82667869857087" lon="13.81300185849441"><ele>1290.3999999999999</ele><time>2026-05-03T15:47:00.999Z</time></trkpt><trkpt lat="41.826613403685855" lon="13.812902564001872"><ele>1287.0</ele><time>2026-05-03T15:47:01.999Z</time></trkpt><trkpt lat="41.826591410310364" lon="13.812804058998626"><ele>1287.0</ele><time>2026-05-03T15:47:02.999Z</time></trkpt><trkpt lat="41.82656267186032" lon="13.812692198239299"><ele>1287.0</ele><time>2026-05-03T15:47:03.999Z</time></trkpt><trkpt lat="41.82652265749746" lon="13.812588192090429"><ele>1287.0</ele><time>2026-05-03T15:47:04.999Z</time></trkpt><trkpt lat="41.82647572347369" lon="13.81247409508036"><ele>1287.0</ele><time>2026-05-03T15:47:06.999Z</time></trkpt><trkpt lat="41.82643074254699" lon="13.812392097596925"><ele>1287.0</ele><time>2026-05-03T15:47:08.999Z</time></trkpt><trkpt lat="41.82635941675889" lon="13.812320246172217"><ele>1287.0</ele><time>2026-05-03T15:47:11.999Z</time></trkpt><trkpt lat="41.82629306003933" lon="13.81222769768807"><ele>1285.6666666666667</ele><time>2026-05-03T15:47:13.999Z</time></trkpt><trkpt lat="41.82624613356455" lon="13.812170659933347"><ele>1284.3333333333333</ele><time>2026-05-03T15:47:14.999Z</time></trkpt><trkpt lat="41.82620222170627" lon="13.812097190708917"><ele>1283.0</ele><time>2026-05-03T15:47:15.999Z</time></trkpt><trkpt lat="41.82617709642445" lon="13.812013307204708"><ele>1281.6666666666665</ele><time>2026-05-03T15:47:16.999Z</time></trkpt><trkpt lat="41.826174034616876" lon="13.811908488607306"><ele>1280.3333333333333</ele><time>2026-05-03T15:47:17.999Z</time></trkpt><trkpt lat="41.82615944352509" lon="13.81179354872624"><ele>1279.0</ele><time>2026-05-03T15:47:18.999Z</time></trkpt><trkpt lat="41.82613147944587" lon="13.811686166098607"><ele>1278.4</ele><time>2026-05-03T15:47:19.999Z</time></trkpt><trkpt lat="41.826103154374444" lon="13.811566193701019"><ele>1277.8000000000002</ele><time>2026-05-03T15:47:20.999Z</time></trkpt><trkpt lat="41.82608368132463" lon="13.811441211830438"><ele>1277.1999999999998</ele><time>2026-05-03T15:47:21.999Z</time></trkpt><trkpt lat="41.82607316653645" lon="13.811317716484059"><ele>1276.6</ele><time>2026-05-03T15:47:22.999Z</time></trkpt><trkpt lat="41.826069713593455" lon="13.811190599034951"><ele>1276.0</ele><time>2026-05-03T15:47:23.999Z</time></trkpt><trkpt lat="41.82606698992954" lon="13.811062980741914"><ele>1275.2</ele><time>2026-05-03T15:47:24.999Z</time></trkpt><trkpt lat="41.82607752929213" lon="13.810933153146706"><ele>1274.3999999999999</ele><time>2026-05-03T15:47:25.999Z</time></trkpt><trkpt lat="41.8260706852313" lon="13.810811556693839"><ele>1273.6</ele><time>2026-05-03T15:47:26.999Z</time></trkpt><trkpt lat="41.82605321360394" lon="13.810680621580541"><ele>1272.8</ele><time>2026-05-03T15:47:27.999Z</time></trkpt><trkpt lat="41.8260332838552" lon="13.810553682563526"><ele>1272.0</ele><time>2026-05-03T15:47:28.999Z</time></trkpt><trkpt lat="41.826008972615526" lon="13.810429645993233"><ele>1272.0</ele><time>2026-05-03T15:47:29.999Z</time></trkpt><trkpt lat="41.825979392607316" lon="13.810312241011788"><ele>1272.0</ele><time>2026-05-03T15:47:30.999Z</time></trkpt><trkpt lat="41.82596064592539" lon="13.810196842188354"><ele>1272.0</ele><time>2026-05-03T15:47:31.999Z</time></trkpt><trkpt lat="41.82595245405669" lon="13.810073260092656"><ele>1272.0</ele><time>2026-05-03T15:47:32.999Z</time></trkpt><trkpt lat="41.82593679358146" lon="13.809959885333988"><ele>1272.0</ele><time>2026-05-03T15:47:33.999Z</time></trkpt><trkpt lat="41.82592615443802" lon="13.809839474095607"><ele>1272.0</ele><time>2026-05-03T15:47:34.999Z</time></trkpt><trkpt lat="41.82591248700946" lon="13.809720183713324"><ele>1269.3333333333333</ele><time>2026-05-03T15:47:35.999Z</time></trkpt><trkpt lat="41.82589869395377" lon="13.809601459986618"><ele>1266.6666666666667</ele><time>2026-05-03T15:47:36.999Z</time></trkpt><trkpt lat="41.8258835714611" lon="13.809483720596685"><ele>1264.0</ele><time>2026-05-03T15:47:37.999Z</time></trkpt><trkpt lat="41.82587318289801" lon="13.809366302485746"><ele>1261.3333333333335</ele><time>2026-05-03T15:47:38.999Z</time></trkpt><trkpt lat="41.825867507884766" lon="13.809250827952456"><ele>1258.6666666666667</ele><time>2026-05-03T15:47:39.999Z</time></trkpt><trkpt lat="41.82586216191642" lon="13.809139083638375"><ele>1256.0</ele><time>2026-05-03T15:47:40.999Z</time></trkpt><trkpt lat="41.8258564869327" lon="13.809027112385726"><ele>1255.3333333333335</ele><time>2026-05-03T15:47:41.999Z</time></trkpt><trkpt lat="41.82584505410626" lon="13.808911960856253"><ele>1254.6666666666667</ele><time>2026-05-03T15:47:42.999Z</time></trkpt><trkpt lat="41.82584449685064" lon="13.808802267762253"><ele>1254.0</ele><time>2026-05-03T15:47:43.999Z</time></trkpt><trkpt lat="41.82586339499159" lon="13.808696380042349"><ele>1253.3333333333333</ele><time>2026-05-03T15:47:44.999Z</time></trkpt><trkpt lat="41.825892618087366" lon="13.808578989244248"><ele>1252.6666666666665</ele><time>2026-05-03T15:47:45.999Z</time></trkpt><trkpt lat="41.82591012585676" lon="13.808468975558405"><ele>1252.0</ele><time>2026-05-03T15:47:46.999Z</time></trkpt><trkpt lat="41.82592438296587" lon="13.808361169808553"><ele>1250.8333333333333</ele><time>2026-05-03T15:47:47.999Z</time></trkpt><trkpt lat="41.82595240976178" lon="13.808257821297412"><ele>1249.6666666666665</ele><time>2026-05-03T15:47:48.999Z</time></trkpt><trkpt lat="41.82597118208602" lon="13.808149318761611"><ele>1248.5</ele><time>2026-05-03T15:47:49.999Z</time></trkpt><trkpt lat="41.82597567819673" lon="13.808038881714188"><ele>1247.3333333333333</ele><time>2026-05-03T15:47:50.999Z</time></trkpt><trkpt lat="41.82595649041508" lon="13.80792894547026"><ele>1246.1666666666667</ele><time>2026-05-03T15:47:51.999Z</time></trkpt><trkpt lat="41.82591772632058" lon="13.807839662687574"><ele>1245.0</ele><time>2026-05-03T15:47:52.999Z</time></trkpt><trkpt lat="41.82585985051348" lon="13.80776709352663"><ele>1245.0</ele><time>2026-05-03T15:47:53.999Z</time></trkpt><trkpt lat="41.82579512704599" lon="13.807709274209149"><ele>1245.0</ele><time>2026-05-03T15:47:54.999Z</time></trkpt><trkpt lat="41.82575694103344" lon="13.807630952523727"><ele>1245.0</ele><time>2026-05-03T15:47:56Z</time></trkpt><trkpt lat="41.82574817055446" lon="13.807486433167778"><ele>1245.0</ele><time>2026-05-03T15:47:58Z</time></trkpt><trkpt lat="41.82584473258379" lon="13.807405774076548"><ele>1245.0</ele><time>2026-05-03T15:48:00Z</time></trkpt><trkpt lat="41.825957180778396" lon="13.80736005362607"><ele>1245.7142857142858</ele><time>2026-05-03T15:48:02Z</time></trkpt><trkpt lat="41.826025192901426" lon="13.807339994500168"><ele>1246.4285714285716</ele><time>2026-05-03T15:48:03Z</time></trkpt><trkpt lat="41.826091420969696" lon="13.807324122746168"><ele>1247.1428571428573</ele><time>2026-05-03T15:48:04Z</time></trkpt><trkpt lat="41.82615961780258" lon="13.807311804403625"><ele>1247.857142857143</ele><time>2026-05-03T15:48:05Z</time></trkpt><trkpt lat="41.826222307042585" lon="13.807294881445099"><ele>1248.5714285714287</ele><time>2026-05-03T15:48:06Z</time></trkpt><trkpt lat="41.82628887205448" lon="13.80727520144874"><ele>1249.2857142857144</ele><time>2026-05-03T15:48:07Z</time></trkpt><trkpt lat="41.82635401763836" lon="13.807223442666215"><ele>1250.0</ele><time>2026-05-03T15:48:08Z</time></trkpt><trkpt lat="41.82639167175226" lon="13.807137401189646"><ele>1250.0000000000002</ele><time>2026-05-03T15:48:09Z</time></trkpt><trkpt lat="41.826415169941285" lon="13.807040645634231"><ele>1250.0</ele><time>2026-05-03T15:48:10Z</time></trkpt><trkpt lat="41.82641195026231" lon="13.806948285355794"><ele>1250.0</ele><time>2026-05-03T15:48:11Z</time></trkpt><trkpt lat="41.826405948589425" lon="13.806847744251776"><ele>1250.0</ele><time>2026-05-03T15:48:12Z</time></trkpt><trkpt lat="41.82641112825506" lon="13.80675833937809"><ele>1250.0</ele><time>2026-05-03T15:48:13Z</time></trkpt><trkpt lat="41.826428801967026" lon="13.806664621126137"><ele>1250.0000000000002</ele><time>2026-05-03T15:48:14Z</time></trkpt><trkpt lat="41.82646118838237" lon="13.806576180948095"><ele>1250.0</ele><time>2026-05-03T15:48:15Z</time></trkpt><trkpt lat="41.82649593055206" lon="13.806494846733365"><ele>1248.3333333333335</ele><time>2026-05-03T15:48:16Z</time></trkpt><trkpt lat="41.826510983989735" lon="13.806390269795733"><ele>1246.6666666666667</ele><time>2026-05-03T15:48:17Z</time></trkpt><trkpt lat="41.82649906731625" lon="13.80628820521332"><ele>1245.0</ele><time>2026-05-03T15:48:18Z</time></trkpt><trkpt lat="41.8264718990074" lon="13.806193095283904"><ele>1243.3333333333333</ele><time>2026-05-03T15:48:19Z</time></trkpt><trkpt lat="41.82644054533923" lon="13.806096687469386"><ele>1241.6666666666665</ele><time>2026-05-03T15:48:20Z</time></trkpt><trkpt lat="41.82640886918835" lon="13.805999788518955"><ele>1240.0</ele><time>2026-05-03T15:48:21Z</time></trkpt><trkpt lat="41.826376813527304" lon="13.80589988505336"><ele>1239.1666666666665</ele><time>2026-05-03T15:48:22Z</time></trkpt><trkpt lat="41.82635351376969" lon="13.80579442762085"><ele>1238.3333333333333</ele><time>2026-05-03T15:48:23Z</time></trkpt><trkpt lat="41.82634296825217" lon="13.805686784901791"><ele>1237.5</ele><time>2026-05-03T15:48:24Z</time></trkpt><trkpt lat="41.826346561466856" lon="13.80557584857697"><ele>1236.6666666666667</ele><time>2026-05-03T15:48:25Z</time></trkpt><trkpt lat="41.82637227289421" lon="13.805473527064228"><ele>1235.8333333333335</ele><time>2026-05-03T15:48:26Z</time></trkpt><trkpt lat="41.8264017762384" lon="13.805367825589927"><ele>1235.0</ele><time>2026-05-03T15:48:27Z</time></trkpt><trkpt lat="41.82641589607422" lon="13.805249795579185"><ele>1234.3333333333335</ele><time>2026-05-03T15:48:28Z</time></trkpt><trkpt lat="41.8264043879708" lon="13.805139242435834"><ele>1233.6666666666667</ele><time>2026-05-03T15:48:29Z</time></trkpt><trkpt lat="41.826391387207856" lon="13.805023859756991"><ele>1233.0</ele><time>2026-05-03T15:48:30Z</time></trkpt><trkpt lat="41.82638321574942" lon="13.804910663309082"><ele>1232.3333333333333</ele><time>2026-05-03T15:48:31Z</time></trkpt><trkpt lat="41.82637588844736" lon="13.804800200684978"><ele>1231.6666666666665</ele><time>2026-05-03T15:48:32Z</time></trkpt><trkpt lat="41.82636619016415" lon="13.804691139105023"><ele>1231.0</ele><time>2026-05-03T15:48:33Z</time></trkpt><trkpt lat="41.826357447722835" lon="13.804582398166271"><ele>1231.0</ele><time>2026-05-03T15:48:34Z</time></trkpt><trkpt lat="41.82634139411083" lon="13.804480464575002"><ele>1231.0</ele><time>2026-05-03T15:48:35Z</time></trkpt><trkpt lat="41.82632735756211" lon="13.804374015566651"><ele>1231.0</ele><time>2026-05-03T15:48:36Z</time></trkpt><trkpt lat="41.82632113399302" lon="13.804273687222361"><ele>1231.0</ele><time>2026-05-03T15:48:37Z</time></trkpt><trkpt lat="41.82632245942011" lon="13.804171667485425"><ele>1231.0</ele><time>2026-05-03T15:48:38Z</time></trkpt><trkpt lat="41.826322093630345" lon="13.804070188758132"><ele>1231.0</ele><time>2026-05-03T15:48:39Z</time></trkpt><trkpt lat="41.82632221644996" lon="13.803976100262096"><ele>1230.4285714285713</ele><time>2026-05-03T15:48:40Z</time></trkpt><trkpt lat="41.82631823167652" lon="13.80387832005983"><ele>1229.857142857143</ele><time>2026-05-03T15:48:41Z</time></trkpt><trkpt lat="41.82630223243388" lon="13.803782437362264"><ele>1229.2857142857142</ele><time>2026-05-03T15:48:42Z</time></trkpt><trkpt lat="41.82627682546591" lon="13.803692907544246"><ele>1228.7142857142858</ele><time>2026-05-03T15:48:43Z</time></trkpt><trkpt lat="41.826243217644596" lon="13.803606424358977"><ele>1228.142857142857</ele><time>2026-05-03T15:48:44Z</time></trkpt><trkpt lat="41.82621153963114" lon="13.803518889848172"><ele>1227.5714285714287</ele><time>2026-05-03T15:48:45Z</time></trkpt><trkpt lat="41.826178783036156" lon="13.803437843300129"><ele>1227.0</ele><time>2026-05-03T15:48:46Z</time></trkpt><trkpt lat="41.82614341287291" lon="13.803360350820435"><ele>1226.7142857142858</ele><time>2026-05-03T15:48:47Z</time></trkpt><trkpt lat="41.82610493514686" lon="13.803275341135514"><ele>1226.4285714285713</ele><time>2026-05-03T15:48:48Z</time></trkpt><trkpt lat="41.826070839736694" lon="13.80319094072914"><ele>1226.142857142857</ele><time>2026-05-03T15:48:48.999Z</time></trkpt><trkpt lat="41.82603755675718" lon="13.803102567946983"><ele>1225.857142857143</ele><time>2026-05-03T15:48:49.999Z</time></trkpt><trkpt lat="41.82599924431033" lon="13.803018625237538"><ele>1225.5714285714284</ele><time>2026-05-03T15:48:50.999Z</time></trkpt><trkpt lat="41.825972878346974" lon="13.8029281817619"><ele>1225.2857142857142</ele><time>2026-05-03T15:48:51.999Z</time></trkpt><trkpt lat="41.82595575110992" lon="13.80283337957978"><ele>1225.0</ele><time>2026-05-03T15:48:52.999Z</time></trkpt><trkpt lat="41.82596081709883" lon="13.802734739794776"><ele>1225.5714285714287</ele><time>2026-05-03T15:48:53.999Z</time></trkpt><trkpt lat="41.82596859704924" lon="13.802641255974281"><ele>1226.142857142857</ele><time>2026-05-03T15:48:54.999Z</time></trkpt><trkpt lat="41.82598279967702" lon="13.80254039663379"><ele>1226.7142857142858</ele><time>2026-05-03T15:48:55.999Z</time></trkpt><trkpt lat="41.82599521987787" lon="13.802443588200953"><ele>1227.2857142857142</ele><time>2026-05-03T15:48:56.999Z</time></trkpt><trkpt lat="41.82600625917522" lon="13.802352599380834"><ele>1227.857142857143</ele><time>2026-05-03T15:48:57.999Z</time></trkpt><trkpt lat="41.82600745503488" lon="13.802251768218504"><ele>1228.4285714285716</ele><time>2026-05-03T15:48:58.999Z</time></trkpt><trkpt lat="41.82600339044034" lon="13.802153187175353"><ele>1229.0</ele><time>2026-05-03T15:48:59.999Z</time></trkpt><trkpt lat="41.82598886556163" lon="13.80205933836028"><ele>1227.5714285714287</ele><time>2026-05-03T15:49:00.999Z</time></trkpt><trkpt lat="41.82597449548119" lon="13.801967084757134"><ele>1226.142857142857</ele><time>2026-05-03T15:49:01.999Z</time></trkpt><trkpt lat="41.82595917182396" lon="13.801876900876449"><ele>1224.7142857142858</ele><time>2026-05-03T15:49:02.999Z</time></trkpt><trkpt lat="41.82594643402527" lon="13.80178833827336"><ele>1223.2857142857142</ele><time>2026-05-03T15:49:03.999Z</time></trkpt><trkpt lat="41.82593047112678" lon="13.8016965427459"><ele>1221.857142857143</ele><time>2026-05-03T15:49:04.999Z</time></trkpt><trkpt lat="41.825912729210515" lon="13.80161045368608"><ele>1220.4285714285716</ele><time>2026-05-03T15:49:05.999Z</time></trkpt><trkpt lat="41.82588787200827" lon="13.80152567455094"><ele>1219.0</ele><time>2026-05-03T15:49:06.999Z</time></trkpt><trkpt lat="41.82585591404013" lon="13.801446778264193"><ele>1218.7142857142858</ele><time>2026-05-03T15:49:07.999Z</time></trkpt><trkpt lat="41.82582120990309" lon="13.80136894702455"><ele>1218.4285714285713</ele><time>2026-05-03T15:49:08.999Z</time></trkpt><trkpt lat="41.8258006409274" lon="13.80128132359279"><ele>1218.142857142857</ele><time>2026-05-03T15:49:09.999Z</time></trkpt><trkpt lat="41.82577551599443" lon="13.801201445249706"><ele>1217.857142857143</ele><time>2026-05-03T15:49:10.999Z</time></trkpt><trkpt lat="41.82575016570808" lon="13.8011181385288"><ele>1217.5714285714287</ele><time>2026-05-03T15:49:11.999Z</time></trkpt><trkpt lat="41.825725144854104" lon="13.801035385340382"><ele>1217.2857142857142</ele><time>2026-05-03T15:49:12.999Z</time></trkpt><trkpt lat="41.825702767678145" lon="13.800948602631754"><ele>1217.0</ele><time>2026-05-03T15:49:13.999Z</time></trkpt><trkpt lat="41.82568078936064" lon="13.800863249968742"><ele>1216.6</ele><time>2026-05-03T15:49:14.999Z</time></trkpt><trkpt lat="41.82566137736449" lon="13.800776509857636"><ele>1216.2</ele><time>2026-05-03T15:49:15.999Z</time></trkpt><trkpt lat="41.82562790870562" lon="13.800622981009907"><ele>1215.8</ele><time>2026-05-03T15:49:17.999Z</time></trkpt><trkpt lat="41.82559398769494" lon="13.80048313629596"><ele>1215.4</ele><time>2026-05-03T15:49:19.999Z</time></trkpt><trkpt lat="41.825550850660576" lon="13.800336790876006"><ele>1215.0</ele><time>2026-05-03T15:49:21.999Z</time></trkpt><trkpt lat="41.8254866982012" lon="13.800191406698607"><ele>1214.8</ele><time>2026-05-03T15:49:23.999Z</time></trkpt><trkpt lat="41.82542873400028" lon="13.800044078240695"><ele>1214.6</ele><time>2026-05-03T15:49:25.999Z</time></trkpt><trkpt lat="41.82539689931822" lon="13.799970773700899"><ele>1214.4</ele><time>2026-05-03T15:49:26.999Z</time></trkpt><trkpt lat="41.82533509704873" lon="13.79984788965999"><ele>1214.2</ele><time>2026-05-03T15:49:28.999Z</time></trkpt><trkpt lat="41.825273654563894" lon="13.799728787201342"><ele>1214.0</ele><time>2026-05-03T15:49:30.999Z</time></trkpt><trkpt lat="41.825228497201714" lon="13.79960436620543"><ele>1214.0</ele><time>2026-05-03T15:49:32.999Z</time></trkpt><trkpt lat="41.82519039197975" lon="13.799471436200184"><ele>1214.0</ele><time>2026-05-03T15:49:34.999Z</time></trkpt><trkpt lat="41.825132738414204" lon="13.799339620523433"><ele>1214.0</ele><time>2026-05-03T15:49:36.999Z</time></trkpt><trkpt lat="41.82506963669908" lon="13.799211310608761"><ele>1214.0</ele><time>2026-05-03T15:49:38.999Z</time></trkpt><trkpt lat="41.82500367612865" lon="13.799067019878219"><ele>1211.75</ele><time>2026-05-03T15:49:40.999Z</time></trkpt><trkpt lat="41.824944973564975" lon="13.798925675658658"><ele>1209.5</ele><time>2026-05-03T15:49:42.999Z</time></trkpt><trkpt lat="41.824889128723285" lon="13.798780528209452"><ele>1207.25</ele><time>2026-05-03T15:49:44.999Z</time></trkpt><trkpt lat="41.82481788535064" lon="13.79865078963527"><ele>1205.0</ele><time>2026-05-03T15:49:46.999Z</time></trkpt><trkpt lat="41.82474814539875" lon="13.79854308107216"><ele>1205.0</ele><time>2026-05-03T15:49:48.999Z</time></trkpt><trkpt lat="41.82468283804992" lon="13.798428249785228"><ele>1205.0</ele><time>2026-05-03T15:49:50.999Z</time></trkpt><trkpt lat="41.82462125421806" lon="13.798318354773093"><ele>1205.0</ele><time>2026-05-03T15:49:52.999Z</time></trkpt><trkpt lat="41.82456601720335" lon="13.798218192762473"><ele>1205.0</ele><time>2026-05-03T15:49:54.999Z</time></trkpt><trkpt lat="41.8245061399848" lon="13.79813324090214"><ele>1205.0</ele><time>2026-05-03T15:49:56.999Z</time></trkpt><trkpt lat="41.824448893425625" lon="13.798056037028546"><ele>1205.0</ele><time>2026-05-03T15:49:58.999Z</time></trkpt><trkpt lat="41.82439230370246" lon="13.797968660893806"><ele>1205.0</ele><time>2026-05-03T15:50:00.999Z</time></trkpt><trkpt lat="41.824333479790006" lon="13.797902456663126"><ele>1205.0</ele><time>2026-05-03T15:50:03Z</time></trkpt><trkpt lat="41.824282948323905" lon="13.797825382689812"><ele>1205.0</ele><time>2026-05-03T15:50:05Z</time></trkpt><trkpt lat="41.82422252399003" lon="13.797749186081093"><ele>1205.0</ele><time>2026-05-03T15:50:07Z</time></trkpt><trkpt lat="41.82416433468495" lon="13.797674371428794"><ele>1205.0</ele><time>2026-05-03T15:50:09Z</time></trkpt><trkpt lat="41.824113499512315" lon="13.797588028794225"><ele>1204.3333333333335</ele><time>2026-05-03T15:50:11Z</time></trkpt><trkpt lat="41.824059852201884" lon="13.797502411206326"><ele>1203.6666666666667</ele><time>2026-05-03T15:50:13Z</time></trkpt><trkpt lat="41.82400614348944" lon="13.79741885523668"><ele>1203.0</ele><time>2026-05-03T15:50:15Z</time></trkpt><trkpt lat="41.823949931049846" lon="13.797325635058213"><ele>1202.3333333333333</ele><time>2026-05-03T15:50:17Z</time></trkpt><trkpt lat="41.823893999277736" lon="13.797228175592895"><ele>1201.6666666666665</ele><time>2026-05-03T15:50:19Z</time></trkpt><trkpt lat="41.823837762296336" lon="13.797140988725177"><ele>1201.0</ele><time>2026-05-03T15:50:21Z</time></trkpt><trkpt lat="41.82376686821901" lon="13.797050571378305"><ele>1201.0</ele><time>2026-05-03T15:50:23Z</time></trkpt><trkpt lat="41.82369621578444" lon="13.796954121967868"><ele>1201.0</ele><time>2026-05-03T15:50:25Z</time></trkpt><trkpt lat="41.82363938579403" lon="13.796845139638927"><ele>1201.0</ele><time>2026-05-03T15:50:27Z</time></trkpt><trkpt lat="41.823584840512176" lon="13.796732957122426"><ele>1201.0</ele><time>2026-05-03T15:50:29Z</time></trkpt><trkpt lat="41.82352331930122" lon="13.796627817353293"><ele>1201.0</ele><time>2026-05-03T15:50:31Z</time></trkpt><trkpt lat="41.82344994623733" lon="13.796532142627665"><ele>1200.8</ele><time>2026-05-03T15:50:33Z</time></trkpt><trkpt lat="41.82335851525083" lon="13.796494635202315"><ele>1200.6</ele><time>2026-05-03T15:50:35Z</time></trkpt><trkpt lat="41.8232560905257" lon="13.796425819895003"><ele>1200.4</ele><time>2026-05-03T15:50:37Z</time></trkpt><trkpt lat="41.823159415822744" lon="13.796366410892391"><ele>1200.2</ele><time>2026-05-03T15:50:39Z</time></trkpt><trkpt lat="41.82306763950877" lon="13.796279390305964"><ele>1200.0</ele><time>2026-05-03T15:50:41Z</time></trkpt><trkpt lat="41.82299263682861" lon="13.796186354729823"><ele>1200.0</ele><time>2026-05-03T15:50:43Z</time></trkpt><trkpt lat="41.82291270591265" lon="13.796095940617597"><ele>1200.0</ele><time>2026-05-03T15:50:45Z</time></trkpt><trkpt lat="41.82282976386468" lon="13.79602074998542"><ele>1200.0</ele><time>2026-05-03T15:50:47Z</time></trkpt><trkpt lat="41.822741098505254" lon="13.795963030746652"><ele>1200.0</ele><time>2026-05-03T15:50:49Z</time></trkpt><trkpt lat="41.82266559575223" lon="13.7959009577806"><ele>1200.0</ele><time>2026-05-03T15:50:51Z</time></trkpt><trkpt lat="41.82260388717525" lon="13.795816642135348"><ele>1199.0</ele><time>2026-05-03T15:50:53Z</time></trkpt><trkpt lat="41.82254396320236" lon="13.79571754337082"><ele>1198.0</ele><time>2026-05-03T15:50:55Z</time></trkpt><trkpt lat="41.822495683661664" lon="13.79557469412176"><ele>1197.0</ele><time>2026-05-03T15:50:56.999Z</time></trkpt><trkpt lat="41.822416697866394" lon="13.795445440664887"><ele>1196.0</ele><time>2026-05-03T15:50:58.999Z</time></trkpt><trkpt lat="41.82236408096771" lon="13.795383118594271"><ele>1195.0</ele><time>2026-05-03T15:50:59.999Z</time></trkpt><trkpt lat="41.822300951974235" lon="13.795345133595765"><ele>1195.0</ele><time>2026-05-03T15:51:00.999Z</time></trkpt><trkpt lat="41.8222310749151" lon="13.795307475428732"><ele>1195.0</ele><time>2026-05-03T15:51:01.999Z</time></trkpt><trkpt lat="41.82216545911243" lon="13.79526522798738"><ele>1195.0</ele><time>2026-05-03T15:51:02.999Z</time></trkpt><trkpt lat="41.82210453619775" lon="13.795209985587102"><ele>1195.0</ele><time>2026-05-03T15:51:03.999Z</time></trkpt><trkpt lat="41.82205071875219" lon="13.79514361762599"><ele>1195.0</ele><time>2026-05-03T15:51:04.999Z</time></trkpt><trkpt lat="41.82200828413298" lon="13.795064595518166"><ele>1195.0</ele><time>2026-05-03T15:51:05.999Z</time></trkpt><trkpt lat="41.821972225390816" lon="13.79496690067734"><ele>1195.0</ele><time>2026-05-03T15:51:06.999Z</time></trkpt><trkpt lat="41.82193741473409" lon="13.794881950192996"><ele>1194.4285714285713</ele><time>2026-05-03T15:51:07.999Z</time></trkpt><trkpt lat="41.82190419975982" lon="13.79478256901598"><ele>1193.857142857143</ele><time>2026-05-03T15:51:08.999Z</time></trkpt><trkpt lat="41.82186731345523" lon="13.794713100122092"><ele>1193.2857142857142</ele><time>2026-05-03T15:51:09.999Z</time></trkpt><trkpt lat="41.82183134385977" lon="13.794635457075383"><ele>1192.7142857142858</ele><time>2026-05-03T15:51:10.999Z</time></trkpt><trkpt lat="41.821792974432086" lon="13.794558819745244"><ele>1192.142857142857</ele><time>2026-05-03T15:51:11.999Z</time></trkpt><trkpt lat="41.82175087103315" lon="13.794480265266614"><ele>1191.5714285714287</ele><time>2026-05-03T15:51:12.999Z</time></trkpt><trkpt lat="41.82170607823799" lon="13.794409539843219"><ele>1191.0</ele><time>2026-05-03T15:51:13.999Z</time></trkpt><trkpt lat="41.82165839372853" lon="13.7943543599487"><ele>1191.2857142857142</ele><time>2026-05-03T15:51:14.999Z</time></trkpt><trkpt lat="41.821607183595965" lon="13.794293284729775"><ele>1191.5714285714284</ele><time>2026-05-03T15:51:15.999Z</time></trkpt><trkpt lat="41.82155230036572" lon="13.794241784405498"><ele>1191.8571428571427</ele><time>2026-05-03T15:51:16.999Z</time></trkpt><trkpt lat="41.82148628536283" lon="13.79420517578548"><ele>1192.142857142857</ele><time>2026-05-03T15:51:17.999Z</time></trkpt><trkpt lat="41.8214123991291" lon="13.794191165950018"><ele>1192.4285714285713</ele><time>2026-05-03T15:51:18.999Z</time></trkpt><trkpt lat="41.821336512224995" lon="13.794199735529462"><ele>1192.7142857142856</ele><time>2026-05-03T15:51:19.999Z</time></trkpt><trkpt lat="41.82125813234431" lon="13.794199457337136"><ele>1193.0</ele><time>2026-05-03T15:51:20.999Z</time></trkpt><trkpt lat="41.82118565248812" lon="13.79417224395623"><ele>1193.0</ele><time>2026-05-03T15:51:21.999Z</time></trkpt><trkpt lat="41.821120424557876" lon="13.794120576559209"><ele>1193.0</ele><time>2026-05-03T15:51:22.999Z</time></trkpt><trkpt lat="41.82105943511239" lon="13.794060456070259"><ele>1193.0</ele><time>2026-05-03T15:51:23.999Z</time></trkpt><trkpt lat="41.82100628737294" lon="13.793980415906123"><ele>1193.0</ele><time>2026-05-03T15:51:24.999Z</time></trkpt><trkpt lat="41.82094645231352" lon="13.79391128882408"><ele>1193.0</ele><time>2026-05-03T15:51:25.999Z</time></trkpt><trkpt lat="41.82088953701709" lon="13.793849385019492"><ele>1193.0</ele><time>2026-05-03T15:51:26.999Z</time></trkpt><trkpt lat="41.82083389634358" lon="13.793784709088749"><ele>1191.9999999999998</ele><time>2026-05-03T15:51:27.999Z</time></trkpt><trkpt lat="41.8208010613847" lon="13.793707390324624"><ele>1191.0</ele><time>2026-05-03T15:51:28.999Z</time></trkpt><trkpt lat="41.82075981940145" lon="13.793636405435834"><ele>1190.0</ele><time>2026-05-03T15:51:29.999Z</time></trkpt><trkpt lat="41.82070564882301" lon="13.793580355881403"><ele>1189.0</ele><time>2026-05-03T15:51:30.999Z</time></trkpt><trkpt lat="41.82065418382456" lon="13.793522883587698"><ele>1188.0</ele><time>2026-05-03T15:51:31.999Z</time></trkpt><trkpt lat="41.820599670994724" lon="13.793473761343568"><ele>1186.9999999999998</ele><time>2026-05-03T15:51:32.999Z</time></trkpt><trkpt lat="41.820543502576164" lon="13.79342270774514"><ele>1186.0</ele><time>2026-05-03T15:51:33.999Z</time></trkpt><trkpt lat="41.820482699499536" lon="13.793379691929049"><ele>1186.0</ele><time>2026-05-03T15:51:34.999Z</time></trkpt><trkpt lat="41.820421986094864" lon="13.793335811216716"><ele>1186.0</ele><time>2026-05-03T15:51:35.999Z</time></trkpt><trkpt lat="41.82035628286393" lon="13.793283318997602"><ele>1186.0</ele><time>2026-05-03T15:51:36.999Z</time></trkpt><trkpt lat="41.82029617663241" lon="13.793237714266066"><ele>1186.0</ele><time>2026-05-03T15:51:37.999Z</time></trkpt><trkpt lat="41.82023650377303" lon="13.793203103688816"><ele>1186.0</ele><time>2026-05-03T15:51:38.999Z</time></trkpt><trkpt lat="41.82012713845818" lon="13.793123008965143"><ele>1186.0</ele><time>2026-05-03T15:51:40.999Z</time></trkpt><trkpt lat="41.8200852429133" lon="13.793052623844277"><ele>1185.8333333333333</ele><time>2026-05-03T15:51:41.999Z</time></trkpt><trkpt lat="41.82006040506443" lon="13.792964137459052"><ele>1185.6666666666665</ele><time>2026-05-03T15:51:42.999Z</time></trkpt><trkpt lat="41.820035280906495" lon="13.792880107088497"><ele>1185.5</ele><time>2026-05-03T15:51:43.999Z</time></trkpt><trkpt lat="41.81996715308745" lon="13.792736151142336"><ele>1185.3333333333333</ele><time>2026-05-03T15:51:45.999Z</time></trkpt><trkpt lat="41.819893201166295" lon="13.792609010041488"><ele>1185.1666666666667</ele><time>2026-05-03T15:51:47.999Z</time></trkpt><trkpt lat="41.819845359862725" lon="13.792552815787941"><ele>1185.0</ele><time>2026-05-03T15:51:48.999Z</time></trkpt><trkpt lat="41.81975390764196" lon="13.792440644336557"><ele>1185.0</ele><time>2026-05-03T15:51:50.999Z</time></trkpt><trkpt lat="41.81970593329716" lon="13.792384508291455"><ele>1185.0</ele><time>2026-05-03T15:51:51.999Z</time></trkpt><trkpt lat="41.819605154938856" lon="13.79229685999647"><ele>1185.0</ele><time>2026-05-03T15:51:53.999Z</time></trkpt><trkpt lat="41.81951013438701" lon="13.792212093349237"><ele>1185.0</ele><time>2026-05-03T15:51:55.999Z</time></trkpt><trkpt lat="41.819448739307845" lon="13.792086287183544"><ele>1185.0</ele><time>2026-05-03T15:51:57.999Z</time></trkpt><trkpt lat="41.81940157883529" lon="13.791944772194066"><ele>1185.0</ele><time>2026-05-03T15:51:59.999Z</time></trkpt><trkpt lat="41.819340404016394" lon="13.791840999413962"><ele>1185.0</ele><time>2026-05-03T15:52:01.999Z</time></trkpt><trkpt lat="41.81927353347839" lon="13.791762943644036"><ele>1185.0</ele><time>2026-05-03T15:52:03.999Z</time></trkpt><trkpt lat="41.81919708789549" lon="13.791705434417095"><ele>1185.0</ele><time>2026-05-03T15:52:05.999Z</time></trkpt><trkpt lat="41.8191228973973" lon="13.79164188690932"><ele>1185.0</ele><time>2026-05-03T15:52:08Z</time></trkpt><trkpt lat="41.819055914897746" lon="13.791563616074722"><ele>1183.4</ele><time>2026-05-03T15:52:10Z</time></trkpt><trkpt lat="41.81898154520705" lon="13.791481036037691"><ele>1181.8</ele><time>2026-05-03T15:52:12Z</time></trkpt><trkpt lat="41.818899985700135" lon="13.79142407723143"><ele>1180.2</ele><time>2026-05-03T15:52:14Z</time></trkpt><trkpt lat="41.818820738313995" lon="13.791366620553017"><ele>1178.6</ele><time>2026-05-03T15:52:16Z</time></trkpt><trkpt lat="41.818746224400776" lon="13.791303104226893"><ele>1177.0</ele><time>2026-05-03T15:52:18Z</time></trkpt><trkpt lat="41.81866633594244" lon="13.791248090422114"><ele>1177.0</ele><time>2026-05-03T15:52:20Z</time></trkpt><trkpt lat="41.81858967888893" lon="13.791200675754085"><ele>1177.0</ele><time>2026-05-03T15:52:22Z</time></trkpt><trkpt lat="41.81850745693762" lon="13.791155544645637"><ele>1177.0</ele><time>2026-05-03T15:52:24Z</time></trkpt><trkpt lat="41.81842794857782" lon="13.791115938362696"><ele>1177.0</ele><time>2026-05-03T15:52:26Z</time></trkpt><trkpt lat="41.818350540305694" lon="13.791069989934831"><ele>1177.0</ele><time>2026-05-03T15:52:28Z</time></trkpt><trkpt lat="41.81828409930341" lon="13.791017948873838"><ele>1177.0</ele><time>2026-05-03T15:52:30Z</time></trkpt><trkpt lat="41.818210305671876" lon="13.790957429101493"><ele>1177.8333333333333</ele><time>2026-05-03T15:52:32Z</time></trkpt><trkpt lat="41.81813142867595" lon="13.790937780854751"><ele>1178.6666666666665</ele><time>2026-05-03T15:52:34Z</time></trkpt><trkpt lat="41.818050188484946" lon="13.790938185515557"><ele>1179.5</ele><time>2026-05-03T15:52:36Z</time></trkpt><trkpt lat="41.81797299383681" lon="13.790973823112855"><ele>1180.3333333333333</ele><time>2026-05-03T15:52:38Z</time></trkpt><trkpt lat="41.817895355122594" lon="13.791004737118543"><ele>1181.1666666666667</ele><time>2026-05-03T15:52:40Z</time></trkpt><trkpt lat="41.817819474612186" lon="13.791058283387866"><ele>1182.0</ele><time>2026-05-03T15:52:42Z</time></trkpt><trkpt lat="41.817743440187265" lon="13.791123783578275"><ele>1182.0</ele><time>2026-05-03T15:52:44Z</time></trkpt><trkpt lat="41.81766444674354" lon="13.791167474742243"><ele>1182.0</ele><time>2026-05-03T15:52:46Z</time></trkpt><trkpt lat="41.81757963248977" lon="13.791228125391552"><ele>1182.0</ele><time>2026-05-03T15:52:48Z</time></trkpt><trkpt lat="41.817507594088006" lon="13.79127018596655"><ele>1182.0</ele><time>2026-05-03T15:52:50Z</time></trkpt><trkpt lat="41.81744287022478" lon="13.791297606286735"><ele>1182.0</ele><time>2026-05-03T15:52:51Z</time></trkpt><trkpt lat="41.817362015713904" lon="13.791353627722177"><ele>1182.0</ele><time>2026-05-03T15:52:53Z</time></trkpt><trkpt lat="41.817267385187066" lon="13.791377598942598"><ele>1181.8</ele><time>2026-05-03T15:52:55Z</time></trkpt><trkpt lat="41.817183754690426" lon="13.791415704164846"><ele>1181.6</ele><time>2026-05-03T15:52:57Z</time></trkpt><trkpt lat="41.817091404909085" lon="13.791473402423826"><ele>1181.3999999999999</ele><time>2026-05-03T15:52:59Z</time></trkpt><trkpt lat="41.81699424964286" lon="13.791522586619065"><ele>1181.2</ele><time>2026-05-03T15:53:01Z</time></trkpt><trkpt lat="41.816889893528526" lon="13.791557304658957"><ele>1181.0</ele><time>2026-05-03T15:53:03Z</time></trkpt><trkpt lat="41.8167885076828" lon="13.791602628667714"><ele>1179.5</ele><time>2026-05-03T15:53:04.999Z</time></trkpt><trkpt lat="41.81669528575978" lon="13.791642957683985"><ele>1178.0</ele><time>2026-05-03T15:53:06.999Z</time></trkpt><trkpt lat="41.81660192200781" lon="13.791667456054528"><ele>1176.5</ele><time>2026-05-03T15:53:08.999Z</time></trkpt><trkpt lat="41.816514718642665" lon="13.791664242338118"><ele>1175.0</ele><time>2026-05-03T15:53:10.999Z</time></trkpt><trkpt lat="41.81643744879675" lon="13.7916416017797"><ele>1173.5</ele><time>2026-05-03T15:53:12.999Z</time></trkpt><trkpt lat="41.81636966093986" lon="13.791615828976717"><ele>1172.0</ele><time>2026-05-03T15:53:14.999Z</time></trkpt><trkpt lat="41.816307415044655" lon="13.79159696700227"><ele>1171.9999999999998</ele><time>2026-05-03T15:53:16.999Z</time></trkpt><trkpt lat="41.816244401483196" lon="13.79157030639463"><ele>1172.0</ele><time>2026-05-03T15:53:18.999Z</time></trkpt><trkpt lat="41.816181402491694" lon="13.791554345058119"><ele>1172.0</ele><time>2026-05-03T15:53:20.999Z</time></trkpt><trkpt lat="41.8161121887337" lon="13.79154290338692"><ele>1172.0</ele><time>2026-05-03T15:53:22.999Z</time></trkpt><trkpt lat="41.816042047535085" lon="13.791509925225155"><ele>1172.0</ele><time>2026-05-03T15:53:24.999Z</time></trkpt><trkpt lat="41.81597206239029" lon="13.791474970237665"><ele>1171.9999999999998</ele><time>2026-05-03T15:53:26.999Z</time></trkpt><trkpt lat="41.81590047386794" lon="13.791454081045726"><ele>1172.0</ele><time>2026-05-03T15:53:28.999Z</time></trkpt><trkpt lat="41.815839763732136" lon="13.791408858794547"><ele>1172.2857142857142</ele><time>2026-05-03T15:53:30.999Z</time></trkpt><trkpt lat="41.815774293190685" lon="13.791386520105453"><ele>1172.5714285714284</ele><time>2026-05-03T15:53:32.999Z</time></trkpt><trkpt lat="41.815716535290505" lon="13.791349539517189"><ele>1172.857142857143</ele><time>2026-05-03T15:53:34.999Z</time></trkpt><trkpt lat="41.815633733360336" lon="13.791311510359128"><ele>1173.142857142857</ele><time>2026-05-03T15:53:37.999Z</time></trkpt><trkpt lat="41.81557319495705" lon="13.791283243619318"><ele>1173.4285714285716</ele><time>2026-05-03T15:53:39.999Z</time></trkpt><trkpt lat="41.81550409737589" lon="13.79125737343803"><ele>1173.7142857142858</ele><time>2026-05-03T15:53:41.999Z</time></trkpt><trkpt lat="41.81542940215272" lon="13.791241312431055"><ele>1174.0</ele><time>2026-05-03T15:53:43.999Z</time></trkpt><trkpt lat="41.815325154753374" lon="13.791193307804326"><ele>1174.0</ele><time>2026-05-03T15:53:46.999Z</time></trkpt><trkpt lat="41.81524138386952" lon="13.791194584287739"><ele>1174.0</ele><time>2026-05-03T15:53:48.999Z</time></trkpt><trkpt lat="41.8151588740148" lon="13.791220345880767"><ele>1174.0</ele><time>2026-05-03T15:53:50.999Z</time></trkpt><trkpt lat="41.815077493157524" lon="13.791231413160888"><ele>1174.0</ele><time>2026-05-03T15:53:52.999Z</time></trkpt><trkpt lat="41.81499295882771" lon="13.791239513140246"><ele>1174.0</ele><time>2026-05-03T15:53:54.999Z</time></trkpt><trkpt lat="41.81491254737092" lon="13.791256340281624"><ele>1174.0</ele><time>2026-05-03T15:53:56.999Z</time></trkpt><trkpt lat="41.81484540362991" lon="13.791272559698704"><ele>1173.6666666666665</ele><time>2026-05-03T15:53:58.999Z</time></trkpt><trkpt lat="41.814778539867056" lon="13.791282522014878"><ele>1173.3333333333333</ele><time>2026-05-03T15:54:00.999Z</time></trkpt><trkpt lat="41.814696843645116" lon="13.791303450561038"><ele>1173.0</ele><time>2026-05-03T15:54:03.999Z</time></trkpt><trkpt lat="41.81460856339484" lon="13.791314418381779"><ele>1172.6666666666667</ele><time>2026-05-03T15:54:06.999Z</time></trkpt><trkpt lat="41.814544510246485" lon="13.791322196752185"><ele>1172.3333333333335</ele><time>2026-05-03T15:54:08.999Z</time></trkpt><trkpt lat="41.814453647127074" lon="13.791322443803594"><ele>1172.0</ele><time>2026-05-03T15:54:11.999Z</time></trkpt><trkpt lat="41.81436932908221" lon="13.791337548045535"><ele>1170.9999999999998</ele><time>2026-05-03T15:54:15Z</time></trkpt><trkpt lat="41.814292816805235" lon="13.791355647911734"><ele>1170.0</ele><time>2026-05-03T15:54:18Z</time></trkpt><trkpt lat="41.81422572230682" lon="13.791362213118187"><ele>1169.0</ele><time>2026-05-03T15:54:21Z</time></trkpt><trkpt lat="41.81416226615293" lon="13.791389455063387"><ele>1168.0</ele><time>2026-05-03T15:54:25Z</time></trkpt><trkpt lat="41.814095519114346" lon="13.791408504087467"><ele>1167.0</ele><time>2026-05-03T15:54:29Z</time></trkpt><trkpt lat="41.814032132080456" lon="13.791430000107214"><ele>1165.9999999999998</ele><time>2026-05-03T15:54:33Z</time></trkpt><trkpt lat="41.81395566161134" lon="13.79143448218617"><ele>1165.0</ele><time>2026-05-03T15:54:37Z</time></trkpt><trkpt lat="41.81388183824766" lon="13.791454519266457"><ele>1165.0</ele><time>2026-05-03T15:54:41Z</time></trkpt><trkpt lat="41.81381211675773" lon="13.791467845125908"><ele>1165.0</ele><time>2026-05-03T15:54:44Z</time></trkpt><trkpt lat="41.81373767296323" lon="13.79149114479939"><ele>1165.0</ele><time>2026-05-03T15:54:47Z</time></trkpt><trkpt lat="41.81362621379466" lon="13.791495065461872"><ele>1165.0</ele><time>2026-05-03T15:54:51Z</time></trkpt><trkpt lat="41.81352191619702" lon="13.79151460231064"><ele>1165.0</ele><time>2026-05-03T15:54:54Z</time></trkpt><trkpt lat="41.81344643362858" lon="13.791524511186662"><ele>1165.0</ele><time>2026-05-03T15:54:55Z</time></trkpt><trkpt lat="41.81334933121644" lon="13.791537237816465"><ele>1164.0</ele><time>2026-05-03T15:54:57Z</time></trkpt><trkpt lat="41.81324581185488" lon="13.791556949267589"><ele>1163.0</ele><time>2026-05-03T15:54:59Z</time></trkpt><trkpt lat="41.81314683785136" lon="13.791578485308811"><ele>1162.0</ele><time>2026-05-03T15:55:01Z</time></trkpt><trkpt lat="41.813043947447824" lon="13.79158551859472"><ele>1161.0</ele><time>2026-05-03T15:55:03Z</time></trkpt><trkpt lat="41.81294192978897" lon="13.791590704498564"><ele>1160.0</ele><time>2026-05-03T15:55:05Z</time></trkpt><trkpt lat="41.81283633822416" lon="13.791577666315767"><ele>1160.0</ele><time>2026-05-03T15:55:07Z</time></trkpt><trkpt lat="41.81273682489978" lon="13.79159803611851"><ele>1160.0</ele><time>2026-05-03T15:55:09Z</time></trkpt><trkpt lat="41.81264321062798" lon="13.791598364655917"><ele>1160.0</ele><time>2026-05-03T15:55:11Z</time></trkpt><trkpt lat="41.81255087407492" lon="13.791608787105353"><ele>1160.0</ele><time>2026-05-03T15:55:12.999Z</time></trkpt><trkpt lat="41.812457142602696" lon="13.791610982173735"><ele>1160.0</ele><time>2026-05-03T15:55:14.999Z</time></trkpt><trkpt lat="41.812377238579685" lon="13.791614301356601"><ele>1160.0</ele><time>2026-05-03T15:55:17.999Z</time></trkpt><trkpt lat="41.81235629044848" lon="13.7915173877531"><ele>1160.0</ele><time>2026-05-03T15:55:19.999Z</time></trkpt><trkpt lat="41.81234067578803" lon="13.79141689137213"><ele>1160.0</ele><time>2026-05-03T15:55:20.999Z</time></trkpt><trkpt lat="41.81232901875689" lon="13.791303454753937"><ele>1160.0</ele><time>2026-05-03T15:55:22.999Z</time></trkpt><trkpt lat="41.812289707179936" lon="13.79120521373191"><ele>1160.0</ele><time>2026-05-03T15:55:24.999Z</time></trkpt><trkpt lat="41.812179139363515" lon="13.791221834868736"><ele>1160.0</ele><time>2026-05-03T15:55:26.999Z</time></trkpt><trkpt lat="41.812080996797214" lon="13.791223364951465"><ele>1160.0</ele><time>2026-05-03T15:55:28.999Z</time></trkpt><trkpt lat="41.811990036666735" lon="13.791200159197126"><ele>1160.0</ele><time>2026-05-03T15:55:30.999Z</time></trkpt><trkpt lat="41.811879485165434" lon="13.791197944663578"><ele>1160.0</ele><time>2026-05-03T15:55:32.999Z</time></trkpt><trkpt lat="41.81178472744019" lon="13.791211085417462"><ele>1160.0</ele><time>2026-05-03T15:55:34.999Z</time></trkpt><trkpt lat="41.81168171852532" lon="13.791220560472162"><ele>1160.0</ele><time>2026-05-03T15:55:36.999Z</time></trkpt><trkpt lat="41.811576159800694" lon="13.791220548516577"><ele>1160.0</ele><time>2026-05-03T15:55:38.999Z</time></trkpt><trkpt lat="41.811473963999354" lon="13.791225209444528"><ele>1160.0</ele><time>2026-05-03T15:55:40.999Z</time></trkpt><trkpt lat="41.81135327450257" lon="13.791214594185293"><ele>1160.0</ele><time>2026-05-03T15:55:42.999Z</time></trkpt><trkpt lat="41.81124067334226" lon="13.791180224066778"><ele>1160.0</ele><time>2026-05-03T15:55:44.999Z</time></trkpt><trkpt lat="41.81113246826953" lon="13.791156345482811"><ele>1160.0</ele><time>2026-05-03T15:55:46.999Z</time></trkpt><trkpt lat="41.81100913680667" lon="13.791131558667024"><ele>1160.0</ele><time>2026-05-03T15:55:48.999Z</time></trkpt><trkpt lat="41.81089582074941" lon="13.791096309969909"><ele>1157.0</ele><time>2026-05-03T15:55:50.999Z</time></trkpt><trkpt lat="41.81072760238621" lon="13.791078980145427"><ele>1157.0</ele><time>2026-05-03T15:55:53.999Z</time></trkpt><trkpt lat="41.810607610834495" lon="13.791039233128819"><ele>1157.0</ele><time>2026-05-03T15:55:55.999Z</time></trkpt></trkseg></trk></gpx>